<?xml version="1.0" encoding="UTF-8" standalone="no" ?><gpx xmlns="http://www.topografix.com/GPX/1/1" xmlns:gpxx="http://www.garmin.com/xmlschemas/GpxExtensions/v3" xmlns:wptx1="http://www.garmin.com/xmlschemas/WaypointExtension/v1" xmlns:gpxtpx="http://www.garmin.com/xmlschemas/TrackPointExtension/v1" creator="GuideVTT.com" version="1.1" xmlns:xsi="http://www.w3.org/2001/XMLSchema-instance" xsi:schemaLocation="http://www.topografix.com/GPX/1/1 http://www.topografix.com/GPX/1/1/gpx.xsd http://www.garmin.com/xmlschemas/GpxExtensions/v3 http://www8.garmin.com/xmlschemas/GpxExtensionsv3.xsd http://www.garmin.com/xmlschemas/WaypointExtension/v1 http://www8.garmin.com/xmlschemas/WaypointExtensionv1.xsd http://www.garmin.com/xmlschemas/TrackPointExtension/v1 http://www.garmin.com/xmlschemas/TrackPointExtensionv1.xsd">
<metadata><link href="http://www.garmin.com"><text>Garmin International</text></link><time>2013-06-22T15:13:50Z</time></metadata>
<trk><name>creux_du_vent.gpx</name><extensions><gpxx:TrackExtension><gpxx:DisplayColor>Cyan</gpxx:DisplayColor></gpxx:TrackExtension></extensions><trkseg>
<trkpt lat="46.95893434" lon="6.83419607"><ele></ele><time>2014-6-6T16:20:57Z</time></trkpt>
<trkpt lat="46.95903358" lon="6.83407964"><ele></ele><time>2014-6-6T16:21:0Z</time></trkpt>
<trkpt lat="46.95904666" lon="6.83407947"><ele></ele><time>2014-6-6T16:21:3Z</time></trkpt>
<trkpt lat="46.95905680" lon="6.83407914"><ele></ele><time>2014-6-6T16:21:6Z</time></trkpt>
<trkpt lat="46.95906250" lon="6.83407906"><ele></ele><time>2014-6-6T16:21:9Z</time></trkpt>
<trkpt lat="46.95906769" lon="6.83407906"><ele></ele><time>2014-6-6T16:21:12Z</time></trkpt>
<trkpt lat="46.95907474" lon="6.83407914"><ele></ele><time>2014-6-6T16:21:15Z</time></trkpt>
<trkpt lat="46.95908052" lon="6.83407947"><ele></ele><time>2014-6-6T16:21:18Z</time></trkpt>
<trkpt lat="46.95908966" lon="6.83408115"><ele></ele><time>2014-6-6T16:21:21Z</time></trkpt>
<trkpt lat="46.95909427" lon="6.83408165"><ele></ele><time>2014-6-6T16:21:24Z</time></trkpt>
<trkpt lat="46.95909737" lon="6.83408308"><ele></ele><time>2014-6-6T16:21:27Z</time></trkpt>
<trkpt lat="46.95910173" lon="6.83408358"><ele></ele><time>2014-6-6T16:21:30Z</time></trkpt>
<trkpt lat="46.95910818" lon="6.83408392"><ele></ele><time>2014-6-6T16:21:33Z</time></trkpt>
<trkpt lat="46.95912042" lon="6.83408517"><ele></ele><time>2014-6-6T16:21:36Z</time></trkpt>
<trkpt lat="46.95910592" lon="6.83408928"><ele></ele><time>2014-6-6T16:21:39Z</time></trkpt>
<trkpt lat="46.95908982" lon="6.83409397"><ele></ele><time>2014-6-6T16:21:42Z</time></trkpt>
<trkpt lat="46.95908396" lon="6.83409372"><ele></ele><time>2014-6-6T16:21:45Z</time></trkpt>
<trkpt lat="46.95900483" lon="6.83398652"><ele></ele><time>2014-6-6T16:21:48Z</time></trkpt>
<trkpt lat="46.95904758" lon="6.83404963"><ele></ele><time>2014-6-6T16:21:51Z</time></trkpt>
<trkpt lat="46.95897306" lon="6.83393698"><ele></ele><time>2014-6-6T16:21:54Z</time></trkpt>
<trkpt lat="46.95866872" lon="6.83366465"><ele></ele><time>2014-6-6T16:21:57Z</time></trkpt>
<trkpt lat="46.95825188" lon="6.83296954"><ele></ele><time>2014-6-6T16:22:0Z</time></trkpt>
<trkpt lat="46.95808902" lon="6.83267249"><ele></ele><time>2014-6-6T16:22:3Z</time></trkpt>
<trkpt lat="46.95785400" lon="6.83249479"><ele></ele><time>2014-6-6T16:22:6Z</time></trkpt>
<trkpt lat="46.95754236" lon="6.83233269"><ele></ele><time>2014-6-6T16:22:9Z</time></trkpt>
<trkpt lat="46.95734622" lon="6.83227225"><ele></ele><time>2014-6-6T16:22:12Z</time></trkpt>
<trkpt lat="46.95689603" lon="6.83226622"><ele></ele><time>2014-6-6T16:22:15Z</time></trkpt>
<trkpt lat="46.95666226" lon="6.83228223"><ele></ele><time>2014-6-6T16:22:18Z</time></trkpt>
<trkpt lat="46.95643863" lon="6.83228214"><ele></ele><time>2014-6-6T16:22:21Z</time></trkpt>
<trkpt lat="46.95595357" lon="6.83198836"><ele></ele><time>2014-6-6T16:22:24Z</time></trkpt>
<trkpt lat="46.95553414" lon="6.83151210"><ele></ele><time>2014-6-6T16:22:27Z</time></trkpt>
<trkpt lat="46.95544713" lon="6.83148175"><ele></ele><time>2014-6-6T16:22:30Z</time></trkpt>
<trkpt lat="46.95552676" lon="6.83136768"><ele></ele><time>2014-6-6T16:22:33Z</time></trkpt>
<trkpt lat="46.95590554" lon="6.83124396"><ele></ele><time>2014-6-6T16:22:36Z</time></trkpt>
<trkpt lat="46.95594275" lon="6.83122527"><ele></ele><time>2014-6-6T16:22:39Z</time></trkpt>
<trkpt lat="46.95615549" lon="6.83079855"><ele></ele><time>2014-6-6T16:22:42Z</time></trkpt>
<trkpt lat="46.95631466" lon="6.83067198"><ele></ele><time>2014-6-6T16:22:45Z</time></trkpt>
<trkpt lat="46.95641315" lon="6.83062772"><ele></ele><time>2014-6-6T16:22:48Z</time></trkpt>
<trkpt lat="46.95646143" lon="6.83059696"><ele></ele><time>2014-6-6T16:22:51Z</time></trkpt>
<trkpt lat="46.95648649" lon="6.83048808"><ele></ele><time>2014-6-6T16:22:54Z</time></trkpt>
<trkpt lat="46.95642823" lon="6.82974838"><ele></ele><time>2014-6-6T16:22:57Z</time></trkpt>
<trkpt lat="46.95627577" lon="6.82940598"><ele></ele><time>2014-6-6T16:23:0Z</time></trkpt>
<trkpt lat="46.95636696" lon="6.82912183"><ele></ele><time>2014-6-6T16:23:3Z</time></trkpt>
<trkpt lat="46.95647174" lon="6.82883156"><ele></ele><time>2014-6-6T16:23:6Z</time></trkpt>
<trkpt lat="46.95634048" lon="6.82844323"><ele></ele><time>2014-6-6T16:23:9Z</time></trkpt>
<trkpt lat="46.95620167" lon="6.82796068"><ele></ele><time>2014-6-6T16:23:12Z</time></trkpt>
<trkpt lat="46.95613604" lon="6.82757352"><ele></ele><time>2014-6-6T16:23:15Z</time></trkpt>
<trkpt lat="46.95603345" lon="6.82717044"><ele></ele><time>2014-6-6T16:23:18Z</time></trkpt>
<trkpt lat="46.95590537" lon="6.82677448"><ele></ele><time>2014-6-6T16:23:21Z</time></trkpt>
<trkpt lat="46.95587260" lon="6.82634365"><ele></ele><time>2014-6-6T16:23:24Z</time></trkpt>
<trkpt lat="46.95583094" lon="6.82600016"><ele></ele><time>2014-6-6T16:23:27Z</time></trkpt>
<trkpt lat="46.95579205" lon="6.82567159"><ele></ele><time>2014-6-6T16:23:30Z</time></trkpt>
<trkpt lat="46.95578308" lon="6.82542575"><ele></ele><time>2014-6-6T16:23:33Z</time></trkpt>
<trkpt lat="46.95564017" lon="6.82503037"><ele></ele><time>2014-6-6T16:23:36Z</time></trkpt>
<trkpt lat="46.95513046" lon="6.82453299"><ele></ele><time>2014-6-6T16:23:39Z</time></trkpt>
<trkpt lat="46.95480248" lon="6.82430249"><ele></ele><time>2014-6-6T16:23:42Z</time></trkpt>
<trkpt lat="46.95441180" lon="6.82408632"><ele></ele><time>2014-6-6T16:23:45Z</time></trkpt>
<trkpt lat="46.95414517" lon="6.82392002"><ele></ele><time>2014-6-6T16:23:48Z</time></trkpt>
<trkpt lat="46.95413243" lon="6.82380385"><ele></ele><time>2014-6-6T16:23:51Z</time></trkpt>
<trkpt lat="46.95438925" lon="6.82316029"><ele></ele><time>2014-6-6T16:23:54Z</time></trkpt>
<trkpt lat="46.95453426" lon="6.82292794"><ele></ele><time>2014-6-6T16:23:57Z</time></trkpt>
<trkpt lat="46.95468002" lon="6.82272577"><ele></ele><time>2014-6-6T16:24:0Z</time></trkpt>
<trkpt lat="46.95477993" lon="6.82258495"><ele></ele><time>2014-6-6T16:24:3Z</time></trkpt>
<trkpt lat="46.95478530" lon="6.82239234"><ele></ele><time>2014-6-6T16:24:6Z</time></trkpt>
<trkpt lat="46.95480424" lon="6.82228748"><ele></ele><time>2014-6-6T16:24:9Z</time></trkpt>
<trkpt lat="46.95481673" lon="6.82223224"><ele></ele><time>2014-6-6T16:24:12Z</time></trkpt>
<trkpt lat="46.95482092" lon="6.82215538"><ele></ele><time>2014-6-6T16:24:15Z</time></trkpt>
<trkpt lat="46.95490818" lon="6.82172237"><ele></ele><time>2014-6-6T16:24:18Z</time></trkpt>
<trkpt lat="46.95491388" lon="6.82170100"><ele></ele><time>2014-6-6T16:24:21Z</time></trkpt>
<trkpt lat="46.95498328" lon="6.82146764"><ele></ele><time>2014-6-6T16:24:24Z</time></trkpt>
<trkpt lat="46.95513734" lon="6.82106079"><ele></ele><time>2014-6-6T16:24:27Z</time></trkpt>
<trkpt lat="46.95526902" lon="6.82080849"><ele></ele><time>2014-6-6T16:24:30Z</time></trkpt>
<trkpt lat="46.95535233" lon="6.82061437"><ele></ele><time>2014-6-6T16:24:33Z</time></trkpt>
<trkpt lat="46.95547714" lon="6.82022804"><ele></ele><time>2014-6-6T16:24:36Z</time></trkpt>
<trkpt lat="46.95552047" lon="6.82003484"><ele></ele><time>2014-6-6T16:24:39Z</time></trkpt>
<trkpt lat="46.95557487" lon="6.81978850"><ele></ele><time>2014-6-6T16:24:42Z</time></trkpt>
<trkpt lat="46.95558778" lon="6.81964793"><ele></ele><time>2014-6-6T16:24:45Z</time></trkpt>
<trkpt lat="46.95560446" lon="6.81949982"><ele></ele><time>2014-6-6T16:24:48Z</time></trkpt>
<trkpt lat="46.95559792" lon="6.81937887"><ele></ele><time>2014-6-6T16:24:51Z</time></trkpt>
<trkpt lat="46.95557789" lon="6.81899833"><ele></ele><time>2014-6-6T16:24:54Z</time></trkpt>
<trkpt lat="46.95555794" lon="6.81844714"><ele></ele><time>2014-6-6T16:24:57Z</time></trkpt>
<trkpt lat="46.95574092" lon="6.81793090"><ele></ele><time>2014-6-6T16:25:0Z</time></trkpt>
<trkpt lat="46.95596052" lon="6.81752547"><ele></ele><time>2014-6-6T16:25:3Z</time></trkpt>
<trkpt lat="46.95619907" lon="6.81717653"><ele></ele><time>2014-6-6T16:25:6Z</time></trkpt>
<trkpt lat="46.95640334" lon="6.81680228"><ele></ele><time>2014-6-6T16:25:9Z</time></trkpt>
<trkpt lat="46.95652387" lon="6.81644294"><ele></ele><time>2014-6-6T16:25:12Z</time></trkpt>
<trkpt lat="46.95672152" lon="6.81595922"><ele></ele><time>2014-6-6T16:25:15Z</time></trkpt>
<trkpt lat="46.95696007" lon="6.81554499"><ele></ele><time>2014-6-6T16:25:18Z</time></trkpt>
<trkpt lat="46.95696258" lon="6.81553787"><ele></ele><time>2014-6-6T16:25:21Z</time></trkpt>
<trkpt lat="46.95695898" lon="6.81554197"><ele></ele><time>2014-6-6T16:25:24Z</time></trkpt>
<trkpt lat="46.95720909" lon="6.81529772"><ele></ele><time>2014-6-6T16:25:27Z</time></trkpt>
<trkpt lat="46.95739416" lon="6.81518013"><ele></ele><time>2014-6-6T16:25:30Z</time></trkpt>
<trkpt lat="46.95756256" lon="6.81508709"><ele></ele><time>2014-6-6T16:25:33Z</time></trkpt>
<trkpt lat="46.95765610" lon="6.81498508"><ele></ele><time>2014-6-6T16:25:36Z</time></trkpt>
<trkpt lat="46.95771393" lon="6.81493848"><ele></ele><time>2014-6-6T16:25:39Z</time></trkpt>
<trkpt lat="46.95788928" lon="6.81474435"><ele></ele><time>2014-6-6T16:25:42Z</time></trkpt>
<trkpt lat="46.95795952" lon="6.81466254"><ele></ele><time>2014-6-6T16:25:45Z</time></trkpt>
<trkpt lat="46.95801895" lon="6.81430757"><ele></ele><time>2014-6-6T16:25:48Z</time></trkpt>
<trkpt lat="46.95802247" lon="6.81391228"><ele></ele><time>2014-6-6T16:25:51Z</time></trkpt>
<trkpt lat="46.95801468" lon="6.81383517"><ele></ele><time>2014-6-6T16:25:54Z</time></trkpt>
<trkpt lat="46.95796967" lon="6.81343334"><ele></ele><time>2014-6-6T16:25:57Z</time></trkpt>
<trkpt lat="46.95794276" lon="6.81312170"><ele></ele><time>2014-6-6T16:26:0Z</time></trkpt>
<trkpt lat="46.95789062" lon="6.81275105"><ele></ele><time>2014-6-6T16:26:3Z</time></trkpt>
<trkpt lat="46.95782633" lon="6.81246439"><ele></ele><time>2014-6-6T16:26:6Z</time></trkpt>
<trkpt lat="46.95772273" lon="6.81214722"><ele></ele><time>2014-6-6T16:26:9Z</time></trkpt>
<trkpt lat="46.95768158" lon="6.81205309"><ele></ele><time>2014-6-6T16:26:12Z</time></trkpt>
<trkpt lat="46.95764713" lon="6.81193558"><ele></ele><time>2014-6-6T16:26:15Z</time></trkpt>
<trkpt lat="46.95746575" lon="6.81182024"><ele></ele><time>2014-6-6T16:26:18Z</time></trkpt>
<trkpt lat="46.95712879" lon="6.81153165"><ele></ele><time>2014-6-6T16:26:21Z</time></trkpt>
<trkpt lat="46.95695068" lon="6.81140299"><ele></ele><time>2014-6-6T16:26:24Z</time></trkpt>
<trkpt lat="46.95675722" lon="6.81118774"><ele></ele><time>2014-6-6T16:26:27Z</time></trkpt>
<trkpt lat="46.95668397" lon="6.81109940"><ele></ele><time>2014-6-6T16:26:30Z</time></trkpt>
<trkpt lat="46.95665002" lon="6.81104793"><ele></ele><time>2014-6-6T16:26:33Z</time></trkpt>
<trkpt lat="46.95655589" lon="6.81081064"><ele></ele><time>2014-6-6T16:26:36Z</time></trkpt>
<trkpt lat="46.95650484" lon="6.81047168"><ele></ele><time>2014-6-6T16:26:39Z</time></trkpt>
<trkpt lat="46.95650887" lon="6.81042717"><ele></ele><time>2014-6-6T16:26:42Z</time></trkpt>
<trkpt lat="46.95651088" lon="6.81038082"><ele></ele><time>2014-6-6T16:26:45Z</time></trkpt>
<trkpt lat="46.95651943" lon="6.81010094"><ele></ele><time>2014-6-6T16:26:48Z</time></trkpt>
<trkpt lat="46.95654818" lon="6.80992434"><ele></ele><time>2014-6-6T16:26:51Z</time></trkpt>
<trkpt lat="46.95656997" lon="6.80967783"><ele></ele><time>2014-6-6T16:26:54Z</time></trkpt>
<trkpt lat="46.95667894" lon="6.80941019"><ele></ele><time>2014-6-6T16:26:57Z</time></trkpt>
<trkpt lat="46.95686434" lon="6.80924163"><ele></ele><time>2014-6-6T16:27:0Z</time></trkpt>
<trkpt lat="46.95706467" lon="6.80914792"><ele></ele><time>2014-6-6T16:27:3Z</time></trkpt>
<trkpt lat="46.95726047" lon="6.80905648"><ele></ele><time>2014-6-6T16:27:6Z</time></trkpt>
<trkpt lat="46.95745753" lon="6.80897224"><ele></ele><time>2014-6-6T16:27:9Z</time></trkpt>
<trkpt lat="46.95765878" lon="6.80866018"><ele></ele><time>2014-6-6T16:27:12Z</time></trkpt>
<trkpt lat="46.95771754" lon="6.80826833"><ele></ele><time>2014-6-6T16:27:15Z</time></trkpt>
<trkpt lat="46.95771913" lon="6.80824419"><ele></ele><time>2014-6-6T16:27:18Z</time></trkpt>
<trkpt lat="46.95775769" lon="6.80798032"><ele></ele><time>2014-6-6T16:27:21Z</time></trkpt>
<trkpt lat="46.95782122" lon="6.80761035"><ele></ele><time>2014-6-6T16:27:24Z</time></trkpt>
<trkpt lat="46.95796606" lon="6.80724557"><ele></ele><time>2014-6-6T16:27:27Z</time></trkpt>
<trkpt lat="46.95810067" lon="6.80689948"><ele></ele><time>2014-6-6T16:27:30Z</time></trkpt>
<trkpt lat="46.95807653" lon="6.80650075"><ele></ele><time>2014-6-6T16:27:33Z</time></trkpt>
<trkpt lat="46.95806296" lon="6.80622649"><ele></ele><time>2014-6-6T16:27:36Z</time></trkpt>
<trkpt lat="46.95808123" lon="6.80612164"><ele></ele><time>2014-6-6T16:27:39Z</time></trkpt>
<trkpt lat="46.95818399" lon="6.80581888"><ele></ele><time>2014-6-6T16:27:42Z</time></trkpt>
<trkpt lat="46.95835657" lon="6.80553298"><ele></ele><time>2014-6-6T16:27:45Z</time></trkpt>
<trkpt lat="46.95849764" lon="6.80522335"><ele></ele><time>2014-6-6T16:27:48Z</time></trkpt>
<trkpt lat="46.95861474" lon="6.80498572"><ele></ele><time>2014-6-6T16:27:51Z</time></trkpt>
<trkpt lat="46.95876293" lon="6.80476586"><ele></ele><time>2014-6-6T16:27:54Z</time></trkpt>
<trkpt lat="46.95899896" lon="6.80445364"><ele></ele><time>2014-6-6T16:27:57Z</time></trkpt>
<trkpt lat="46.95910692" lon="6.80425658"><ele></ele><time>2014-6-6T16:28:0Z</time></trkpt>
<trkpt lat="46.95914942" lon="6.80415683"><ele></ele><time>2014-6-6T16:28:3Z</time></trkpt>
<trkpt lat="46.95925679" lon="6.80398040"><ele></ele><time>2014-6-6T16:28:6Z</time></trkpt>
<trkpt lat="46.95940029" lon="6.80381862"><ele></ele><time>2014-6-6T16:28:9Z</time></trkpt>
<trkpt lat="46.95949635" lon="6.80361025"><ele></ele><time>2014-6-6T16:28:12Z</time></trkpt>
<trkpt lat="46.95951948" lon="6.80354336"><ele></ele><time>2014-6-6T16:28:15Z</time></trkpt>
<trkpt lat="46.95954379" lon="6.80318696"><ele></ele><time>2014-6-6T16:28:18Z</time></trkpt>
<trkpt lat="46.95951286" lon="6.80313474"><ele></ele><time>2014-6-6T16:28:21Z</time></trkpt>
<trkpt lat="46.95947916" lon="6.80301924"><ele></ele><time>2014-6-6T16:28:24Z</time></trkpt>
<trkpt lat="46.95951596" lon="6.80288329"><ele></ele><time>2014-6-6T16:28:27Z</time></trkpt>
<trkpt lat="46.95972727" lon="6.80271523"><ele></ele><time>2014-6-6T16:28:30Z</time></trkpt>
<trkpt lat="46.95997009" lon="6.80260618"><ele></ele><time>2014-6-6T16:28:33Z</time></trkpt>
<trkpt lat="46.96017084" lon="6.80255044"><ele></ele><time>2014-6-6T16:28:36Z</time></trkpt>
<trkpt lat="46.96027268" lon="6.80242203"><ele></ele><time>2014-6-6T16:28:39Z</time></trkpt>
<trkpt lat="46.96042162" lon="6.80207653"><ele></ele><time>2014-6-6T16:28:42Z</time></trkpt>
<trkpt lat="46.96043327" lon="6.80197285"><ele></ele><time>2014-6-6T16:28:45Z</time></trkpt>
<trkpt lat="46.96035675" lon="6.80151109"><ele></ele><time>2014-6-6T16:28:48Z</time></trkpt>
<trkpt lat="46.96032314" lon="6.80126516"><ele></ele><time>2014-6-6T16:28:51Z</time></trkpt>
<trkpt lat="46.96029925" lon="6.80117363"><ele></ele><time>2014-6-6T16:28:54Z</time></trkpt>
<trkpt lat="46.96027142" lon="6.80090273"><ele></ele><time>2014-6-6T16:28:57Z</time></trkpt>
<trkpt lat="46.96025658" lon="6.80069746"><ele></ele><time>2014-6-6T16:29:0Z</time></trkpt>
<trkpt lat="46.96026497" lon="6.80039864"><ele></ele><time>2014-6-6T16:29:3Z</time></trkpt>
<trkpt lat="46.96027318" lon="6.80036335"><ele></ele><time>2014-6-6T16:29:6Z</time></trkpt>
<trkpt lat="46.96030855" lon="6.80013796"><ele></ele><time>2014-6-6T16:29:9Z</time></trkpt>
<trkpt lat="46.96033060" lon="6.79991744"><ele></ele><time>2014-6-6T16:29:12Z</time></trkpt>
<trkpt lat="46.96034384" lon="6.79979732"><ele></ele><time>2014-6-6T16:29:15Z</time></trkpt>
<trkpt lat="46.96035624" lon="6.79952458"><ele></ele><time>2014-6-6T16:29:18Z</time></trkpt>
<trkpt lat="46.96034594" lon="6.79940295"><ele></ele><time>2014-6-6T16:29:21Z</time></trkpt>
<trkpt lat="46.96031660" lon="6.79908084"><ele></ele><time>2014-6-6T16:29:24Z</time></trkpt>
<trkpt lat="46.96022725" lon="6.79877398"><ele></ele><time>2014-6-6T16:29:27Z</time></trkpt>
<trkpt lat="46.96028525" lon="6.79854624"><ele></ele><time>2014-6-6T16:29:30Z</time></trkpt>
<trkpt lat="46.96043327" lon="6.79839469"><ele></ele><time>2014-6-6T16:29:33Z</time></trkpt>
<trkpt lat="46.96064450" lon="6.79811222"><ele></ele><time>2014-6-6T16:29:36Z</time></trkpt>
<trkpt lat="46.96050653" lon="6.79782498"><ele></ele><time>2014-6-6T16:29:39Z</time></trkpt>
<trkpt lat="46.96049178" lon="6.79780218"><ele></ele><time>2014-6-6T16:29:42Z</time></trkpt>
<trkpt lat="46.96039782" lon="6.79737512"><ele></ele><time>2014-6-6T16:29:45Z</time></trkpt>
<trkpt lat="46.96030034" lon="6.79701269"><ele></ele><time>2014-6-6T16:29:48Z</time></trkpt>
<trkpt lat="46.96012122" lon="6.79650759"><ele></ele><time>2014-6-6T16:29:51Z</time></trkpt>
<trkpt lat="46.96006925" lon="6.79616025"><ele></ele><time>2014-6-6T16:29:54Z</time></trkpt>
<trkpt lat="46.96000244" lon="6.79599563"><ele></ele><time>2014-6-6T16:29:57Z</time></trkpt>
<trkpt lat="46.95994377" lon="6.79580393"><ele></ele><time>2014-6-6T16:30:0Z</time></trkpt>
<trkpt lat="46.95989013" lon="6.79565440"><ele></ele><time>2014-6-6T16:30:3Z</time></trkpt>
<trkpt lat="46.95986037" lon="6.79562632"><ele></ele><time>2014-6-6T16:30:6Z</time></trkpt>
<trkpt lat="46.95983263" lon="6.79563889"><ele></ele><time>2014-6-6T16:30:9Z</time></trkpt>
<trkpt lat="46.95983573" lon="6.79561878"><ele></ele><time>2014-6-6T16:30:12Z</time></trkpt>
<trkpt lat="46.95982986" lon="6.79561668"><ele></ele><time>2014-6-6T16:30:15Z</time></trkpt>
<trkpt lat="46.95983757" lon="6.79556496"><ele></ele><time>2014-6-6T16:30:18Z</time></trkpt>
<trkpt lat="46.95983087" lon="6.79555088"><ele></ele><time>2014-6-6T16:30:21Z</time></trkpt>
<trkpt lat="46.95978845" lon="6.79541426"><ele></ele><time>2014-6-6T16:30:24Z</time></trkpt>
<trkpt lat="46.95980815" lon="6.79532935"><ele></ele><time>2014-6-6T16:30:27Z</time></trkpt>
<trkpt lat="46.95975233" lon="6.79511385"><ele></ele><time>2014-6-6T16:30:30Z</time></trkpt>
<trkpt lat="46.95973112" lon="6.79503883"><ele></ele><time>2014-6-6T16:30:33Z</time></trkpt>
<trkpt lat="46.95969433" lon="6.79494319"><ele></ele><time>2014-6-6T16:30:36Z</time></trkpt>
<trkpt lat="46.95964923" lon="6.79484278"><ele></ele><time>2014-6-6T16:30:39Z</time></trkpt>
<trkpt lat="46.95962157" lon="6.79477614"><ele></ele><time>2014-6-6T16:30:42Z</time></trkpt>
<trkpt lat="46.95958293" lon="6.79455905"><ele></ele><time>2014-6-6T16:30:45Z</time></trkpt>
<trkpt lat="46.95956533" lon="6.79437214"><ele></ele><time>2014-6-6T16:30:48Z</time></trkpt>
<trkpt lat="46.95956307" lon="6.79430106"><ele></ele><time>2014-6-6T16:30:51Z</time></trkpt>
<trkpt lat="46.95957715" lon="6.79417432"><ele></ele><time>2014-6-6T16:30:54Z</time></trkpt>
<trkpt lat="46.95958377" lon="6.79402588"><ele></ele><time>2014-6-6T16:30:57Z</time></trkpt>
<trkpt lat="46.95954270" lon="6.79380736"><ele></ele><time>2014-6-6T16:31:0Z</time></trkpt>
<trkpt lat="46.95955737" lon="6.79364408"><ele></ele><time>2014-6-6T16:31:3Z</time></trkpt>
<trkpt lat="46.95955435" lon="6.79344728"><ele></ele><time>2014-6-6T16:31:6Z</time></trkpt>
<trkpt lat="46.95952996" lon="6.79314343"><ele></ele><time>2014-6-6T16:31:9Z</time></trkpt>
<trkpt lat="46.95950456" lon="6.79293472"><ele></ele><time>2014-6-6T16:31:12Z</time></trkpt>
<trkpt lat="46.95951227" lon="6.79282274"><ele></ele><time>2014-6-6T16:31:15Z</time></trkpt>
<trkpt lat="46.95953272" lon="6.79261713"><ele></ele><time>2014-6-6T16:31:18Z</time></trkpt>
<trkpt lat="46.95956114" lon="6.79237724"><ele></ele><time>2014-6-6T16:31:21Z</time></trkpt>
<trkpt lat="46.95954622" lon="6.79216250"><ele></ele><time>2014-6-6T16:31:24Z</time></trkpt>
<trkpt lat="46.95957572" lon="6.79196209"><ele></ele><time>2014-6-6T16:31:27Z</time></trkpt>
<trkpt lat="46.95956466" lon="6.79180250"><ele></ele><time>2014-6-6T16:31:30Z</time></trkpt>
<trkpt lat="46.95957480" lon="6.79171708"><ele></ele><time>2014-6-6T16:31:33Z</time></trkpt>
<trkpt lat="46.95961386" lon="6.79157359"><ele></ele><time>2014-6-6T16:31:36Z</time></trkpt>
<trkpt lat="46.95968946" lon="6.79147795"><ele></ele><time>2014-6-6T16:31:39Z</time></trkpt>
<trkpt lat="46.95970162" lon="6.79141039"><ele></ele><time>2014-6-6T16:31:42Z</time></trkpt>
<trkpt lat="46.95970690" lon="6.79133629"><ele></ele><time>2014-6-6T16:31:45Z</time></trkpt>
<trkpt lat="46.95972266" lon="6.79121652"><ele></ele><time>2014-6-6T16:31:48Z</time></trkpt>
<trkpt lat="46.95967899" lon="6.79112993"><ele></ele><time>2014-6-6T16:31:51Z</time></trkpt>
<trkpt lat="46.95960137" lon="6.79114217"><ele></ele><time>2014-6-6T16:31:54Z</time></trkpt>
<trkpt lat="46.95959039" lon="6.79113697"><ele></ele><time>2014-6-6T16:31:57Z</time></trkpt>
<trkpt lat="46.95947707" lon="6.79112968"><ele></ele><time>2014-6-6T16:32:0Z</time></trkpt>
<trkpt lat="46.95937456" lon="6.79119858"><ele></ele><time>2014-6-6T16:32:3Z</time></trkpt>
<trkpt lat="46.95931823" lon="6.79123135"><ele></ele><time>2014-6-6T16:32:6Z</time></trkpt>
<trkpt lat="46.95920432" lon="6.79131106"><ele></ele><time>2014-6-6T16:32:9Z</time></trkpt>
<trkpt lat="46.95910382" lon="6.79138583"><ele></ele><time>2014-6-6T16:32:12Z</time></trkpt>
<trkpt lat="46.95901958" lon="6.79134602"><ele></ele><time>2014-6-6T16:32:15Z</time></trkpt>
<trkpt lat="46.95897214" lon="6.79119975"><ele></ele><time>2014-6-6T16:32:18Z</time></trkpt>
<trkpt lat="46.95899829" lon="6.79111292"><ele></ele><time>2014-6-6T16:32:21Z</time></trkpt>
<trkpt lat="46.95901883" lon="6.79102432"><ele></ele><time>2014-6-6T16:32:24Z</time></trkpt>
<trkpt lat="46.95898765" lon="6.79087143"><ele></ele><time>2014-6-6T16:32:27Z</time></trkpt>
<trkpt lat="46.95900215" lon="6.79066742"><ele></ele><time>2014-6-6T16:32:30Z</time></trkpt>
<trkpt lat="46.95897147" lon="6.79043507"><ele></ele><time>2014-6-6T16:32:33Z</time></trkpt>
<trkpt lat="46.95895202" lon="6.79019543"><ele></ele><time>2014-6-6T16:32:36Z</time></trkpt>
<trkpt lat="46.95893233" lon="6.79000835"><ele></ele><time>2014-6-6T16:32:39Z</time></trkpt>
<trkpt lat="46.95886494" lon="6.78974315"><ele></ele><time>2014-6-6T16:32:42Z</time></trkpt>
<trkpt lat="46.95871054" lon="6.78946294"><ele></ele><time>2014-6-6T16:32:45Z</time></trkpt>
<trkpt lat="46.95865028" lon="6.78934635"><ele></ele><time>2014-6-6T16:32:48Z</time></trkpt>
<trkpt lat="46.95852279" lon="6.78920696"><ele></ele><time>2014-6-6T16:32:51Z</time></trkpt>
<trkpt lat="46.95839597" lon="6.78911065"><ele></ele><time>2014-6-6T16:32:54Z</time></trkpt>
<trkpt lat="46.95836026" lon="6.78906874"><ele></ele><time>2014-6-6T16:32:57Z</time></trkpt>
<trkpt lat="46.95825775" lon="6.78898567"><ele></ele><time>2014-6-6T16:33:0Z</time></trkpt>
<trkpt lat="46.95822154" lon="6.78891845"><ele></ele><time>2014-6-6T16:33:3Z</time></trkpt>
<trkpt lat="46.95814937" lon="6.78853112"><ele></ele><time>2014-6-6T16:33:6Z</time></trkpt>
<trkpt lat="46.95813906" lon="6.78845074"><ele></ele><time>2014-6-6T16:33:9Z</time></trkpt>
<trkpt lat="46.95806446" lon="6.78812594"><ele></ele><time>2014-6-6T16:33:12Z</time></trkpt>
<trkpt lat="46.95796086" lon="6.78776309"><ele></ele><time>2014-6-6T16:33:15Z</time></trkpt>
<trkpt lat="46.95779054" lon="6.78751867"><ele></ele><time>2014-6-6T16:33:18Z</time></trkpt>
<trkpt lat="46.95772693" lon="6.78739646"><ele></ele><time>2014-6-6T16:33:21Z</time></trkpt>
<trkpt lat="46.95770379" lon="6.78723067"><ele></ele><time>2014-6-6T16:33:24Z</time></trkpt>
<trkpt lat="46.95769239" lon="6.78702213"><ele></ele><time>2014-6-6T16:33:27Z</time></trkpt>
<trkpt lat="46.95758720" lon="6.78684519"><ele></ele><time>2014-6-6T16:33:30Z</time></trkpt>
<trkpt lat="46.95740514" lon="6.78675726"><ele></ele><time>2014-6-6T16:33:33Z</time></trkpt>
<trkpt lat="46.95719166" lon="6.78649415"><ele></ele><time>2014-6-6T16:33:36Z</time></trkpt>
<trkpt lat="46.95705998" lon="6.78628804"><ele></ele><time>2014-6-6T16:33:39Z</time></trkpt>
<trkpt lat="46.95684833" lon="6.78603608"><ele></ele><time>2014-6-6T16:33:42Z</time></trkpt>
<trkpt lat="46.95668916" lon="6.78564456"><ele></ele><time>2014-6-6T16:33:45Z</time></trkpt>
<trkpt lat="46.95656343" lon="6.78513042"><ele></ele><time>2014-6-6T16:33:48Z</time></trkpt>
<trkpt lat="46.95637803" lon="6.78483973"><ele></ele><time>2014-6-6T16:33:51Z</time></trkpt>
<trkpt lat="46.95618943" lon="6.78451602"><ele></ele><time>2014-6-6T16:33:54Z</time></trkpt>
<trkpt lat="46.95600335" lon="6.78431620"><ele></ele><time>2014-6-6T16:33:57Z</time></trkpt>
<trkpt lat="46.95587603" lon="6.78398469"><ele></ele><time>2014-6-6T16:34:0Z</time></trkpt>
<trkpt lat="46.95581200" lon="6.78352503"><ele></ele><time>2014-6-6T16:34:3Z</time></trkpt>
<trkpt lat="46.95579473" lon="6.78299068"><ele></ele><time>2014-6-6T16:34:6Z</time></trkpt>
<trkpt lat="46.95576254" lon="6.78292103"><ele></ele><time>2014-6-6T16:34:9Z</time></trkpt>
<trkpt lat="46.95574058" lon="6.78236565"><ele></ele><time>2014-6-6T16:34:12Z</time></trkpt>
<trkpt lat="46.95578643" lon="6.78185075"><ele></ele><time>2014-6-6T16:34:15Z</time></trkpt>
<trkpt lat="46.95575039" lon="6.78132612"><ele></ele><time>2014-6-6T16:34:18Z</time></trkpt>
<trkpt lat="46.95566322" lon="6.78079186"><ele></ele><time>2014-6-6T16:34:21Z</time></trkpt>
<trkpt lat="46.95548594" lon="6.78025056"><ele></ele><time>2014-6-6T16:34:24Z</time></trkpt>
<trkpt lat="46.95527463" lon="6.77966625"><ele></ele><time>2014-6-6T16:34:27Z</time></trkpt>
<trkpt lat="46.95497355" lon="6.77928563"><ele></ele><time>2014-6-6T16:34:30Z</time></trkpt>
<trkpt lat="46.95467977" lon="6.77901247"><ele></ele><time>2014-6-6T16:34:33Z</time></trkpt>
<trkpt lat="46.95439478" lon="6.77870343"><ele></ele><time>2014-6-6T16:34:36Z</time></trkpt>
<trkpt lat="46.95425489" lon="6.77808526"><ele></ele><time>2014-6-6T16:34:39Z</time></trkpt>
<trkpt lat="46.95407996" lon="6.77752577"><ele></ele><time>2014-6-6T16:34:42Z</time></trkpt>
<trkpt lat="46.95385088" lon="6.77705102"><ele></ele><time>2014-6-6T16:34:45Z</time></trkpt>
<trkpt lat="46.95348476" lon="6.77670015"><ele></ele><time>2014-6-6T16:34:48Z</time></trkpt>
<trkpt lat="46.95333573" lon="6.77630394"><ele></ele><time>2014-6-6T16:34:51Z</time></trkpt>
<trkpt lat="46.95302049" lon="6.77592457"><ele></ele><time>2014-6-6T16:34:54Z</time></trkpt>
<trkpt lat="46.95281773" lon="6.77540665"><ele></ele><time>2014-6-6T16:34:57Z</time></trkpt>
<trkpt lat="46.95254833" lon="6.77501103"><ele></ele><time>2014-6-6T16:35:0Z</time></trkpt>
<trkpt lat="46.95225027" lon="6.77442782"><ele></ele><time>2014-6-6T16:35:3Z</time></trkpt>
<trkpt lat="46.95214952" lon="6.77389012"><ele></ele><time>2014-6-6T16:35:6Z</time></trkpt>
<trkpt lat="46.95213309" lon="6.77377948"><ele></ele><time>2014-6-6T16:35:9Z</time></trkpt>
<trkpt lat="46.95200737" lon="6.77314329"><ele></ele><time>2014-6-6T16:35:12Z</time></trkpt>
<trkpt lat="46.95174744" lon="6.77267399"><ele></ele><time>2014-6-6T16:35:15Z</time></trkpt>
<trkpt lat="46.95141896" lon="6.77214324"><ele></ele><time>2014-6-6T16:35:18Z</time></trkpt>
<trkpt lat="46.95120849" lon="6.77167285"><ele></ele><time>2014-6-6T16:35:21Z</time></trkpt>
<trkpt lat="46.95096684" lon="6.77138904"><ele></ele><time>2014-6-6T16:35:24Z</time></trkpt>
<trkpt lat="46.95074304" lon="6.77107237"><ele></ele><time>2014-6-6T16:35:27Z</time></trkpt>
<trkpt lat="46.95071236" lon="6.77050073"><ele></ele><time>2014-6-6T16:35:30Z</time></trkpt>
<trkpt lat="46.95067598" lon="6.76997594"><ele></ele><time>2014-6-6T16:35:33Z</time></trkpt>
<trkpt lat="46.95076986" lon="6.76953237"><ele></ele><time>2014-6-6T16:35:36Z</time></trkpt>
<trkpt lat="46.95076852" lon="6.76938929"><ele></ele><time>2014-6-6T16:35:39Z</time></trkpt>
<trkpt lat="46.95077506" lon="6.76916708"><ele></ele><time>2014-6-6T16:35:42Z</time></trkpt>
<trkpt lat="46.95079878" lon="6.76861740"><ele></ele><time>2014-6-6T16:35:45Z</time></trkpt>
<trkpt lat="46.95067029" lon="6.76824298"><ele></ele><time>2014-6-6T16:35:48Z</time></trkpt>
<trkpt lat="46.95060197" lon="6.76785246"><ele></ele><time>2014-6-6T16:35:51Z</time></trkpt>
<trkpt lat="46.95050365" lon="6.76726615"><ele></ele><time>2014-6-6T16:35:54Z</time></trkpt>
<trkpt lat="46.95049334" lon="6.76681328"><ele></ele><time>2014-6-6T16:35:57Z</time></trkpt>
<trkpt lat="46.95051673" lon="6.76638119"><ele></ele><time>2014-6-6T16:36:0Z</time></trkpt>
<trkpt lat="46.95044699" lon="6.76591197"><ele></ele><time>2014-6-6T16:36:3Z</time></trkpt>
<trkpt lat="46.95045219" lon="6.76583108"><ele></ele><time>2014-6-6T16:36:6Z</time></trkpt>
<trkpt lat="46.95039947" lon="6.76572346"><ele></ele><time>2014-6-6T16:36:9Z</time></trkpt>
<trkpt lat="46.95017609" lon="6.76527629"><ele></ele><time>2014-6-6T16:36:12Z</time></trkpt>
<trkpt lat="46.94998263" lon="6.76489776"><ele></ele><time>2014-6-6T16:36:15Z</time></trkpt>
<trkpt lat="46.94974124" lon="6.76443717"><ele></ele><time>2014-6-6T16:36:18Z</time></trkpt>
<trkpt lat="46.94955507" lon="6.76397969"><ele></ele><time>2014-6-6T16:36:21Z</time></trkpt>
<trkpt lat="46.94931376" lon="6.76360058"><ele></ele><time>2014-6-6T16:36:24Z</time></trkpt>
<trkpt lat="46.94920756" lon="6.76307973"><ele></ele><time>2014-6-6T16:36:27Z</time></trkpt>
<trkpt lat="46.94919742" lon="6.76301837"><ele></ele><time>2014-6-6T16:36:30Z</time></trkpt>
<trkpt lat="46.94919130" lon="6.76288166"><ele></ele><time>2014-6-6T16:36:33Z</time></trkpt>
<trkpt lat="46.94917462" lon="6.76251973"><ele></ele><time>2014-6-6T16:36:36Z</time></trkpt>
<trkpt lat="46.94913556" lon="6.76208530"><ele></ele><time>2014-6-6T16:36:39Z</time></trkpt>
<trkpt lat="46.94892693" lon="6.76162865"><ele></ele><time>2014-6-6T16:36:42Z</time></trkpt>
<trkpt lat="46.94889114" lon="6.76113202"><ele></ele><time>2014-6-6T16:36:45Z</time></trkpt>
<trkpt lat="46.94885007" lon="6.76056867"><ele></ele><time>2014-6-6T16:36:48Z</time></trkpt>
<trkpt lat="46.94883046" lon="6.76042132"><ele></ele><time>2014-6-6T16:36:51Z</time></trkpt>
<trkpt lat="46.94874236" lon="6.75965245"><ele></ele><time>2014-6-6T16:36:54Z</time></trkpt>
<trkpt lat="46.94866257" lon="6.75903973"><ele></ele><time>2014-6-6T16:36:57Z</time></trkpt>
<trkpt lat="46.94866617" lon="6.75892440"><ele></ele><time>2014-6-6T16:37:0Z</time></trkpt>
<trkpt lat="46.94847465" lon="6.75814345"><ele></ele><time>2014-6-6T16:37:3Z</time></trkpt>
<trkpt lat="46.94829779" lon="6.75786618"><ele></ele><time>2014-6-6T16:37:6Z</time></trkpt>
<trkpt lat="46.94779169" lon="6.75767197"><ele></ele><time>2014-6-6T16:37:9Z</time></trkpt>
<trkpt lat="46.94774995" lon="6.75765177"><ele></ele><time>2014-6-6T16:37:12Z</time></trkpt>
<trkpt lat="46.94734812" lon="6.75734843"><ele></ele><time>2014-6-6T16:37:15Z</time></trkpt>
<trkpt lat="46.94700069" lon="6.75708080"><ele></ele><time>2014-6-6T16:37:18Z</time></trkpt>
<trkpt lat="46.94688024" lon="6.75709957"><ele></ele><time>2014-6-6T16:37:21Z</time></trkpt>
<trkpt lat="46.94671025" lon="6.75702187"><ele></ele><time>2014-6-6T16:37:24Z</time></trkpt>
<trkpt lat="46.94658369" lon="6.75692774"><ele></ele><time>2014-6-6T16:37:27Z</time></trkpt>
<trkpt lat="46.94651395" lon="6.75683093"><ele></ele><time>2014-6-6T16:37:30Z</time></trkpt>
<trkpt lat="46.94636718" lon="6.75656816"><ele></ele><time>2014-6-6T16:37:33Z</time></trkpt>
<trkpt lat="46.94611363" lon="6.75605016"><ele></ele><time>2014-6-6T16:37:36Z</time></trkpt>
<trkpt lat="46.94593166" lon="6.75516503"><ele></ele><time>2014-6-6T16:37:39Z</time></trkpt>
<trkpt lat="46.94570250" lon="6.75449498"><ele></ele><time>2014-6-6T16:37:42Z</time></trkpt>
<trkpt lat="46.94567660" lon="6.75437302"><ele></ele><time>2014-6-6T16:37:45Z</time></trkpt>
<trkpt lat="46.94555749" lon="6.75407697"><ele></ele><time>2014-6-6T16:37:48Z</time></trkpt>
<trkpt lat="46.94550033" lon="6.75398259"><ele></ele><time>2014-6-6T16:37:51Z</time></trkpt>
<trkpt lat="46.94529765" lon="6.75370415"><ele></ele><time>2014-6-6T16:37:54Z</time></trkpt>
<trkpt lat="46.94503002" lon="6.75324323"><ele></ele><time>2014-6-6T16:37:57Z</time></trkpt>
<trkpt lat="46.94473607" lon="6.75298372"><ele></ele><time>2014-6-6T16:38:0Z</time></trkpt>
<trkpt lat="46.94463758" lon="6.75252255"><ele></ele><time>2014-6-6T16:38:3Z</time></trkpt>
<trkpt lat="46.94478854" lon="6.75185812"><ele></ele><time>2014-6-6T16:38:6Z</time></trkpt>
<trkpt lat="46.94490714" lon="6.75135160"><ele></ele><time>2014-6-6T16:38:9Z</time></trkpt>
<trkpt lat="46.94478443" lon="6.75074676"><ele></ele><time>2014-6-6T16:38:12Z</time></trkpt>
<trkpt lat="46.94484293" lon="6.75022046"><ele></ele><time>2014-6-6T16:38:15Z</time></trkpt>
<trkpt lat="46.94508970" lon="6.74992215"><ele></ele><time>2014-6-6T16:38:18Z</time></trkpt>
<trkpt lat="46.94509012" lon="6.74982970"><ele></ele><time>2014-6-6T16:38:21Z</time></trkpt>
<trkpt lat="46.94516203" lon="6.74941957"><ele></ele><time>2014-6-6T16:38:24Z</time></trkpt>
<trkpt lat="46.94518156" lon="6.74883342"><ele></ele><time>2014-6-6T16:38:27Z</time></trkpt>
<trkpt lat="46.94519665" lon="6.74865279"><ele></ele><time>2014-6-6T16:38:30Z</time></trkpt>
<trkpt lat="46.94534308" lon="6.74795559"><ele></ele><time>2014-6-6T16:38:33Z</time></trkpt>
<trkpt lat="46.94523504" lon="6.74709502"><ele></ele><time>2014-6-6T16:38:36Z</time></trkpt>
<trkpt lat="46.94526245" lon="6.74639052"><ele></ele><time>2014-6-6T16:38:39Z</time></trkpt>
<trkpt lat="46.94534820" lon="6.74578073"><ele></ele><time>2014-6-6T16:38:42Z</time></trkpt>
<trkpt lat="46.94536446" lon="6.74565475"><ele></ele><time>2014-6-6T16:38:45Z</time></trkpt>
<trkpt lat="46.94540938" lon="6.74475060"><ele></ele><time>2014-6-6T16:38:48Z</time></trkpt>
<trkpt lat="46.94534342" lon="6.74430736"><ele></ele><time>2014-6-6T16:38:51Z</time></trkpt>
<trkpt lat="46.94546437" lon="6.74382079"><ele></ele><time>2014-6-6T16:38:54Z</time></trkpt>
<trkpt lat="46.94550980" lon="6.74363924"><ele></ele><time>2014-6-6T16:38:57Z</time></trkpt>
<trkpt lat="46.94553000" lon="6.74340312"><ele></ele><time>2014-6-6T16:39:0Z</time></trkpt>
<trkpt lat="46.94561063" lon="6.74332769"><ele></ele><time>2014-6-6T16:39:3Z</time></trkpt>
<trkpt lat="46.94586578" lon="6.74321369"><ele></ele><time>2014-6-6T16:39:6Z</time></trkpt>
<trkpt lat="46.94590786" lon="6.74316525"><ele></ele><time>2014-6-6T16:39:9Z</time></trkpt>
<trkpt lat="46.94597474" lon="6.74284229"><ele></ele><time>2014-6-6T16:39:12Z</time></trkpt>
<trkpt lat="46.94611715" lon="6.74247189"><ele></ele><time>2014-6-6T16:39:15Z</time></trkpt>
<trkpt lat="46.94616937" lon="6.74235119"><ele></ele><time>2014-6-6T16:39:18Z</time></trkpt>
<trkpt lat="46.94634128" lon="6.74214047"><ele></ele><time>2014-6-6T16:39:21Z</time></trkpt>
<trkpt lat="46.94638353" lon="6.74202103"><ele></ele><time>2014-6-6T16:39:24Z</time></trkpt>
<trkpt lat="46.94632737" lon="6.74160806"><ele></ele><time>2014-6-6T16:39:27Z</time></trkpt>
<trkpt lat="46.94628060" lon="6.74128963"><ele></ele><time>2014-6-6T16:39:30Z</time></trkpt>
<trkpt lat="46.94623140" lon="6.74103389"><ele></ele><time>2014-6-6T16:39:33Z</time></trkpt>
<trkpt lat="46.94612260" lon="6.74072008"><ele></ele><time>2014-6-6T16:39:36Z</time></trkpt>
<trkpt lat="46.94615956" lon="6.74042503"><ele></ele><time>2014-6-6T16:39:39Z</time></trkpt>
<trkpt lat="46.94612813" lon="6.74027567"><ele></ele><time>2014-6-6T16:39:42Z</time></trkpt>
<trkpt lat="46.94611254" lon="6.74017123"><ele></ele><time>2014-6-6T16:39:45Z</time></trkpt>
<trkpt lat="46.94606912" lon="6.74011205"><ele></ele><time>2014-6-6T16:39:48Z</time></trkpt>
<trkpt lat="46.94603367" lon="6.74006243"><ele></ele><time>2014-6-6T16:39:51Z</time></trkpt>
<trkpt lat="46.94598547" lon="6.74002052"><ele></ele><time>2014-6-6T16:39:54Z</time></trkpt>
<trkpt lat="46.94594096" lon="6.73995347"><ele></ele><time>2014-6-6T16:39:57Z</time></trkpt>
<trkpt lat="46.94593677" lon="6.73994819"><ele></ele><time>2014-6-6T16:40:0Z</time></trkpt>
<trkpt lat="46.94590199" lon="6.73988742"><ele></ele><time>2014-6-6T16:40:3Z</time></trkpt>
<trkpt lat="46.94585446" lon="6.73979019"><ele></ele><time>2014-6-6T16:40:6Z</time></trkpt>
<trkpt lat="46.94582010" lon="6.73975700"><ele></ele><time>2014-6-6T16:40:9Z</time></trkpt>
<trkpt lat="46.94580467" lon="6.73975264"><ele></ele><time>2014-6-6T16:40:12Z</time></trkpt>
<trkpt lat="46.94570459" lon="6.73975817"><ele></ele><time>2014-6-6T16:40:15Z</time></trkpt>
<trkpt lat="46.94553017" lon="6.73969229"><ele></ele><time>2014-6-6T16:40:18Z</time></trkpt>
<trkpt lat="46.94542238" lon="6.73952616"><ele></ele><time>2014-6-6T16:40:21Z</time></trkpt>
<trkpt lat="46.94538348" lon="6.73946103"><ele></ele><time>2014-6-6T16:40:24Z</time></trkpt>
<trkpt lat="46.94531039" lon="6.73933907"><ele></ele><time>2014-6-6T16:40:27Z</time></trkpt>
<trkpt lat="46.94511493" lon="6.73909298"><ele></ele><time>2014-6-6T16:40:30Z</time></trkpt>
<trkpt lat="46.94491225" lon="6.73889969"><ele></ele><time>2014-6-6T16:40:33Z</time></trkpt>
<trkpt lat="46.94484059" lon="6.73881328"><ele></ele><time>2014-6-6T16:40:36Z</time></trkpt>
<trkpt lat="46.94472626" lon="6.73877003"><ele></ele><time>2014-6-6T16:40:39Z</time></trkpt>
<trkpt lat="46.94457287" lon="6.73858956"><ele></ele><time>2014-6-6T16:40:42Z</time></trkpt>
<trkpt lat="46.94439509" lon="6.73823819"><ele></ele><time>2014-6-6T16:40:45Z</time></trkpt>
<trkpt lat="46.94435360" lon="6.73813988"><ele></ele><time>2014-6-6T16:40:48Z</time></trkpt>
<trkpt lat="46.94421999" lon="6.73790912"><ele></ele><time>2014-6-6T16:40:51Z</time></trkpt>
<trkpt lat="46.94400223" lon="6.73766194"><ele></ele><time>2014-6-6T16:40:54Z</time></trkpt>
<trkpt lat="46.94385353" lon="6.73739296"><ele></ele><time>2014-6-6T16:40:57Z</time></trkpt>
<trkpt lat="46.94381942" lon="6.73737494"><ele></ele><time>2014-6-6T16:41:0Z</time></trkpt>
<trkpt lat="46.94374876" lon="6.73728065"><ele></ele><time>2014-6-6T16:41:3Z</time></trkpt>
<trkpt lat="46.94366544" lon="6.73726246"><ele></ele><time>2014-6-6T16:41:6Z</time></trkpt>
<trkpt lat="46.94362429" lon="6.73718065"><ele></ele><time>2014-6-6T16:41:9Z</time></trkpt>
<trkpt lat="46.94356696" lon="6.73711619"><ele></ele><time>2014-6-6T16:41:12Z</time></trkpt>
<trkpt lat="46.94353368" lon="6.73697244"><ele></ele><time>2014-6-6T16:41:15Z</time></trkpt>
<trkpt lat="46.94353335" lon="6.73694110"><ele></ele><time>2014-6-6T16:41:18Z</time></trkpt>
<trkpt lat="46.94351692" lon="6.73687899"><ele></ele><time>2014-6-6T16:41:21Z</time></trkpt>
<trkpt lat="46.94346336" lon="6.73682442"><ele></ele><time>2014-6-6T16:41:24Z</time></trkpt>
<trkpt lat="46.94335557" lon="6.73681914"><ele></ele><time>2014-6-6T16:41:27Z</time></trkpt>
<trkpt lat="46.94334945" lon="6.73679793"><ele></ele><time>2014-6-6T16:41:30Z</time></trkpt>
<trkpt lat="46.94333260" lon="6.73678972"><ele></ele><time>2014-6-6T16:41:33Z</time></trkpt>
<trkpt lat="46.94328407" lon="6.73674387"><ele></ele><time>2014-6-6T16:41:36Z</time></trkpt>
<trkpt lat="46.94324182" lon="6.73672727"><ele></ele><time>2014-6-6T16:41:39Z</time></trkpt>
<trkpt lat="46.94306815" lon="6.73665578"><ele></ele><time>2014-6-6T16:41:42Z</time></trkpt>
<trkpt lat="46.94299900" lon="6.73659300"><ele></ele><time>2014-6-6T16:41:45Z</time></trkpt>
<trkpt lat="46.94285508" lon="6.73644078"><ele></ele><time>2014-6-6T16:41:48Z</time></trkpt>
<trkpt lat="46.94286640" lon="6.73635688"><ele></ele><time>2014-6-6T16:41:51Z</time></trkpt>
<trkpt lat="46.94280412" lon="6.73633534"><ele></ele><time>2014-6-6T16:41:54Z</time></trkpt>
<trkpt lat="46.94282818" lon="6.73640792"><ele></ele><time>2014-6-6T16:41:57Z</time></trkpt>
<trkpt lat="46.94289196" lon="6.73638864"><ele></ele><time>2014-6-6T16:42:0Z</time></trkpt>
<trkpt lat="46.94287872" lon="6.73640172"><ele></ele><time>2014-6-6T16:42:3Z</time></trkpt>
<trkpt lat="46.94281686" lon="6.73643466"><ele></ele><time>2014-6-6T16:42:6Z</time></trkpt>
<trkpt lat="46.94260153" lon="6.73604867"><ele></ele><time>2014-6-6T16:42:9Z</time></trkpt>
<trkpt lat="46.94236055" lon="6.73582270"><ele></ele><time>2014-6-6T16:42:12Z</time></trkpt>
<trkpt lat="46.94216190" lon="6.73547544"><ele></ele><time>2014-6-6T16:42:15Z</time></trkpt>
<trkpt lat="46.94212116" lon="6.73539438"><ele></ele><time>2014-6-6T16:42:18Z</time></trkpt>
<trkpt lat="46.94195378" lon="6.73517788"><ele></ele><time>2014-6-6T16:42:21Z</time></trkpt>
<trkpt lat="46.94178287" lon="6.73489407"><ele></ele><time>2014-6-6T16:42:24Z</time></trkpt>
<trkpt lat="46.94158439" lon="6.73429174"><ele></ele><time>2014-6-6T16:42:27Z</time></trkpt>
<trkpt lat="46.94134198" lon="6.73370099"><ele></ele><time>2014-6-6T16:42:30Z</time></trkpt>
<trkpt lat="46.94118105" lon="6.73334626"><ele></ele><time>2014-6-6T16:42:33Z</time></trkpt>
<trkpt lat="46.94101986" lon="6.73287495"><ele></ele><time>2014-6-6T16:42:36Z</time></trkpt>
<trkpt lat="46.94084686" lon="6.73246382"><ele></ele><time>2014-6-6T16:42:39Z</time></trkpt>
<trkpt lat="46.94073119" lon="6.73215989"><ele></ele><time>2014-6-6T16:42:42Z</time></trkpt>
<trkpt lat="46.94064637" lon="6.73179553"><ele></ele><time>2014-6-6T16:42:45Z</time></trkpt>
<trkpt lat="46.94066858" lon="6.73146838"><ele></ele><time>2014-6-6T16:42:48Z</time></trkpt>
<trkpt lat="46.94066355" lon="6.73118122"><ele></ele><time>2014-6-6T16:42:51Z</time></trkpt>
<trkpt lat="46.94061527" lon="6.73108038"><ele></ele><time>2014-6-6T16:42:54Z</time></trkpt>
<trkpt lat="46.94051167" lon="6.73093672"><ele></ele><time>2014-6-6T16:42:57Z</time></trkpt>
<trkpt lat="46.94047596" lon="6.73089129"><ele></ele><time>2014-6-6T16:43:0Z</time></trkpt>
<trkpt lat="46.94044478" lon="6.73084318"><ele></ele><time>2014-6-6T16:43:3Z</time></trkpt>
<trkpt lat="46.94031989" lon="6.73060915"><ele></ele><time>2014-6-6T16:43:6Z</time></trkpt>
<trkpt lat="46.94026868" lon="6.73051653"><ele></ele><time>2014-6-6T16:43:9Z</time></trkpt>
<trkpt lat="46.94011412" lon="6.73027933"><ele></ele><time>2014-6-6T16:43:12Z</time></trkpt>
<trkpt lat="46.93994715" lon="6.73022585"><ele></ele><time>2014-6-6T16:43:15Z</time></trkpt>
<trkpt lat="46.93976317" lon="6.73021462"><ele></ele><time>2014-6-6T16:43:18Z</time></trkpt>
<trkpt lat="46.93965487" lon="6.73019727"><ele></ele><time>2014-6-6T16:43:21Z</time></trkpt>
<trkpt lat="46.93957013" lon="6.73014664"><ele></ele><time>2014-6-6T16:43:24Z</time></trkpt>
<trkpt lat="46.93948380" lon="6.72994807"><ele></ele><time>2014-6-6T16:43:27Z</time></trkpt>
<trkpt lat="46.93947617" lon="6.72993056"><ele></ele><time>2014-6-6T16:43:30Z</time></trkpt>
<trkpt lat="46.93947852" lon="6.72959645"><ele></ele><time>2014-6-6T16:43:33Z</time></trkpt>
<trkpt lat="46.93939545" lon="6.72938925"><ele></ele><time>2014-6-6T16:43:36Z</time></trkpt>
<trkpt lat="46.93929839" lon="6.72932706"><ele></ele><time>2014-6-6T16:43:39Z</time></trkpt>
<trkpt lat="46.93915900" lon="6.72914324"><ele></ele><time>2014-6-6T16:43:42Z</time></trkpt>
<trkpt lat="46.93905137" lon="6.72886077"><ele></ele><time>2014-6-6T16:43:45Z</time></trkpt>
<trkpt lat="46.93900435" lon="6.72876229"><ele></ele><time>2014-6-6T16:43:48Z</time></trkpt>
<trkpt lat="46.93895892" lon="6.72868257"><ele></ele><time>2014-6-6T16:43:51Z</time></trkpt>
<trkpt lat="46.93887804" lon="6.72830975"><ele></ele><time>2014-6-6T16:43:54Z</time></trkpt>
<trkpt lat="46.93888734" lon="6.72829307"><ele></ele><time>2014-6-6T16:43:57Z</time></trkpt>
<trkpt lat="46.93906428" lon="6.72833523"><ele></ele><time>2014-6-6T16:44:0Z</time></trkpt>
<trkpt lat="46.93923050" lon="6.72834805"><ele></ele><time>2014-6-6T16:44:3Z</time></trkpt>
<trkpt lat="46.93933728" lon="6.72825258"><ele></ele><time>2014-6-6T16:44:6Z</time></trkpt>
<trkpt lat="46.93935966" lon="6.72818528"><ele></ele><time>2014-6-6T16:44:9Z</time></trkpt>
<trkpt lat="46.93932907" lon="6.72803088"><ele></ele><time>2014-6-6T16:44:12Z</time></trkpt>
<trkpt lat="46.93931775" lon="6.72788554"><ele></ele><time>2014-6-6T16:44:15Z</time></trkpt>
<trkpt lat="46.93944507" lon="6.72768320"><ele></ele><time>2014-6-6T16:44:18Z</time></trkpt>
<trkpt lat="46.93959813" lon="6.72754733"><ele></ele><time>2014-6-6T16:44:21Z</time></trkpt>
<trkpt lat="46.93960542" lon="6.72748153"><ele></ele><time>2014-6-6T16:44:24Z</time></trkpt>
<trkpt lat="46.93960793" lon="6.72718230"><ele></ele><time>2014-6-6T16:44:27Z</time></trkpt>
<trkpt lat="46.93954859" lon="6.72700779"><ele></ele><time>2014-6-6T16:44:30Z</time></trkpt>
<trkpt lat="46.93953652" lon="6.72697904"><ele></ele><time>2014-6-6T16:44:33Z</time></trkpt>
<trkpt lat="46.93944809" lon="6.72691667"><ele></ele><time>2014-6-6T16:44:36Z</time></trkpt>
<trkpt lat="46.93929093" lon="6.72684543"><ele></ele><time>2014-6-6T16:44:39Z</time></trkpt>
<trkpt lat="46.93927182" lon="6.72677066"><ele></ele><time>2014-6-6T16:44:42Z</time></trkpt>
<trkpt lat="46.93933502" lon="6.72653605"><ele></ele><time>2014-6-6T16:44:45Z</time></trkpt>
<trkpt lat="46.93937743" lon="6.72648434"><ele></ele><time>2014-6-6T16:44:48Z</time></trkpt>
<trkpt lat="46.93948514" lon="6.72628057"><ele></ele><time>2014-6-6T16:44:51Z</time></trkpt>
<trkpt lat="46.93952085" lon="6.72619985"><ele></ele><time>2014-6-6T16:44:54Z</time></trkpt>
<trkpt lat="46.93946485" lon="6.72604957"><ele></ele><time>2014-6-6T16:44:57Z</time></trkpt>
<trkpt lat="46.93932739" lon="6.72608569"><ele></ele><time>2014-6-6T16:45:0Z</time></trkpt>
<trkpt lat="46.93910410" lon="6.72600967"><ele></ele><time>2014-6-6T16:45:3Z</time></trkpt>
<trkpt lat="46.93898658" lon="6.72598234"><ele></ele><time>2014-6-6T16:45:6Z</time></trkpt>
<trkpt lat="46.93884686" lon="6.72605887"><ele></ele><time>2014-6-6T16:45:9Z</time></trkpt>
<trkpt lat="46.93877745" lon="6.72612173"><ele></ele><time>2014-6-6T16:45:12Z</time></trkpt>
<trkpt lat="46.93858610" lon="6.72612207"><ele></ele><time>2014-6-6T16:45:15Z</time></trkpt>
<trkpt lat="46.93857562" lon="6.72611143"><ele></ele><time>2014-6-6T16:45:18Z</time></trkpt>
<trkpt lat="46.93855827" lon="6.72605988"><ele></ele><time>2014-6-6T16:45:21Z</time></trkpt>
<trkpt lat="46.93857059" lon="6.72600715"><ele></ele><time>2014-6-6T16:45:24Z</time></trkpt>
<trkpt lat="46.93870302" lon="6.72589115"><ele></ele><time>2014-6-6T16:45:27Z</time></trkpt>
<trkpt lat="46.93871669" lon="6.72587246"><ele></ele><time>2014-6-6T16:45:30Z</time></trkpt>
<trkpt lat="46.93877838" lon="6.72571907"><ele></ele><time>2014-6-6T16:45:33Z</time></trkpt>
<trkpt lat="46.93891332" lon="6.72542126"><ele></ele><time>2014-6-6T16:45:36Z</time></trkpt>
<trkpt lat="46.93892992" lon="6.72533426"><ele></ele><time>2014-6-6T16:45:39Z</time></trkpt>
<trkpt lat="46.93895389" lon="6.72508338"><ele></ele><time>2014-6-6T16:45:42Z</time></trkpt>
<trkpt lat="46.93896756" lon="6.72502840"><ele></ele><time>2014-6-6T16:45:45Z</time></trkpt>
<trkpt lat="46.93901324" lon="6.72482120"><ele></ele><time>2014-6-6T16:45:48Z</time></trkpt>
<trkpt lat="46.93902028" lon="6.72477795"><ele></ele><time>2014-6-6T16:45:51Z</time></trkpt>
<trkpt lat="46.93904333" lon="6.72473629"><ele></ele><time>2014-6-6T16:45:54Z</time></trkpt>
<trkpt lat="46.93906076" lon="6.72466177"><ele></ele><time>2014-6-6T16:45:57Z</time></trkpt>
<trkpt lat="46.93912229" lon="6.72446128"><ele></ele><time>2014-6-6T16:46:0Z</time></trkpt>
<trkpt lat="46.93915833" lon="6.72435466"><ele></ele><time>2014-6-6T16:46:3Z</time></trkpt>
<trkpt lat="46.93914978" lon="6.72425576"><ele></ele><time>2014-6-6T16:46:6Z</time></trkpt>
<trkpt lat="46.93911189" lon="6.72420857"><ele></ele><time>2014-6-6T16:46:9Z</time></trkpt>
<trkpt lat="46.93895079" lon="6.72431527"><ele></ele><time>2014-6-6T16:46:12Z</time></trkpt>
<trkpt lat="46.93875650" lon="6.72432692"><ele></ele><time>2014-6-6T16:46:15Z</time></trkpt>
<trkpt lat="46.93862474" lon="6.72424092"><ele></ele><time>2014-6-6T16:46:18Z</time></trkpt>
<trkpt lat="46.93847554" lon="6.72415593"><ele></ele><time>2014-6-6T16:46:21Z</time></trkpt>
<trkpt lat="46.93834788" lon="6.72406750"><ele></ele><time>2014-6-6T16:46:24Z</time></trkpt>
<trkpt lat="46.93818033" lon="6.72391243"><ele></ele><time>2014-6-6T16:46:27Z</time></trkpt>
<trkpt lat="46.93798025" lon="6.72387673"><ele></ele><time>2014-6-6T16:46:30Z</time></trkpt>
<trkpt lat="46.93780054" lon="6.72388058"><ele></ele><time>2014-6-6T16:46:33Z</time></trkpt>
<trkpt lat="46.93757976" lon="6.72383255"><ele></ele><time>2014-6-6T16:46:36Z</time></trkpt>
<trkpt lat="46.93738924" lon="6.72387404"><ele></ele><time>2014-6-6T16:46:39Z</time></trkpt>
<trkpt lat="46.93733510" lon="6.72387798"><ele></ele><time>2014-6-6T16:46:42Z</time></trkpt>
<trkpt lat="46.93708649" lon="6.72387639"><ele></ele><time>2014-6-6T16:46:45Z</time></trkpt>
<trkpt lat="46.93691039" lon="6.72391453"><ele></ele><time>2014-6-6T16:46:48Z</time></trkpt>
<trkpt lat="46.93684392" lon="6.72397949"><ele></ele><time>2014-6-6T16:46:51Z</time></trkpt>
<trkpt lat="46.93662599" lon="6.72427176"><ele></ele><time>2014-6-6T16:46:54Z</time></trkpt>
<trkpt lat="46.93636129" lon="6.72458709"><ele></ele><time>2014-6-6T16:46:57Z</time></trkpt>
<trkpt lat="46.93629566" lon="6.72468223"><ele></ele><time>2014-6-6T16:47:0Z</time></trkpt>
<trkpt lat="46.93631636" lon="6.72516494"><ele></ele><time>2014-6-6T16:47:3Z</time></trkpt>
<trkpt lat="46.93631259" lon="6.72557104"><ele></ele><time>2014-6-6T16:47:6Z</time></trkpt>
<trkpt lat="46.93632248" lon="6.72567464"><ele></ele><time>2014-6-6T16:47:9Z</time></trkpt>
<trkpt lat="46.93633044" lon="6.72585309"><ele></ele><time>2014-6-6T16:47:12Z</time></trkpt>
<trkpt lat="46.93630295" lon="6.72614889"><ele></ele><time>2014-6-6T16:47:15Z</time></trkpt>
<trkpt lat="46.93630077" lon="6.72629340"><ele></ele><time>2014-6-6T16:47:18Z</time></trkpt>
<trkpt lat="46.93623028" lon="6.72669522"><ele></ele><time>2014-6-6T16:47:21Z</time></trkpt>
<trkpt lat="46.93612106" lon="6.72710678"><ele></ele><time>2014-6-6T16:47:24Z</time></trkpt>
<trkpt lat="46.93618108" lon="6.72760248"><ele></ele><time>2014-6-6T16:47:27Z</time></trkpt>
<trkpt lat="46.93618258" lon="6.72767012"><ele></ele><time>2014-6-6T16:47:30Z</time></trkpt>
<trkpt lat="46.93613196" lon="6.72764607"><ele></ele><time>2014-6-6T16:47:33Z</time></trkpt>
<trkpt lat="46.93605392" lon="6.72767214"><ele></ele><time>2014-6-6T16:47:36Z</time></trkpt>
<trkpt lat="46.93602702" lon="6.72789157"><ele></ele><time>2014-6-6T16:47:39Z</time></trkpt>
<trkpt lat="46.93602467" lon="6.72792016"><ele></ele><time>2014-6-6T16:47:42Z</time></trkpt>
<trkpt lat="46.93603029" lon="6.72797129"><ele></ele><time>2014-6-6T16:47:45Z</time></trkpt>
<trkpt lat="46.93602618" lon="6.72803910"><ele></ele><time>2014-6-6T16:47:48Z</time></trkpt>
<trkpt lat="46.93603783" lon="6.72810347"><ele></ele><time>2014-6-6T16:47:51Z</time></trkpt>
<trkpt lat="46.93602635" lon="6.72820346"><ele></ele><time>2014-6-6T16:47:54Z</time></trkpt>
<trkpt lat="46.93603682" lon="6.72828837"><ele></ele><time>2014-6-6T16:47:57Z</time></trkpt>
<trkpt lat="46.93601260" lon="6.72837580"><ele></ele><time>2014-6-6T16:48:0Z</time></trkpt>
<trkpt lat="46.93597664" lon="6.72843464"><ele></ele><time>2014-6-6T16:48:3Z</time></trkpt>
<trkpt lat="46.93592886" lon="6.72847915"><ele></ele><time>2014-6-6T16:48:6Z</time></trkpt>
<trkpt lat="46.93594278" lon="6.72855869"><ele></ele><time>2014-6-6T16:48:9Z</time></trkpt>
<trkpt lat="46.93595703" lon="6.72860898"><ele></ele><time>2014-6-6T16:48:12Z</time></trkpt>
<trkpt lat="46.93590506" lon="6.72866330"><ele></ele><time>2014-6-6T16:48:15Z</time></trkpt>
<trkpt lat="46.93585158" lon="6.72875533"><ele></ele><time>2014-6-6T16:48:18Z</time></trkpt>
<trkpt lat="46.93581638" lon="6.72884334"><ele></ele><time>2014-6-6T16:48:21Z</time></trkpt>
<trkpt lat="46.93582954" lon="6.72887569"><ele></ele><time>2014-6-6T16:48:24Z</time></trkpt>
<trkpt lat="46.93582250" lon="6.72890176"><ele></ele><time>2014-6-6T16:48:27Z</time></trkpt>
<trkpt lat="46.93580993" lon="6.72894384"><ele></ele><time>2014-6-6T16:48:30Z</time></trkpt>
<trkpt lat="46.93579878" lon="6.72904777"><ele></ele><time>2014-6-6T16:48:33Z</time></trkpt>
<trkpt lat="46.93583088" lon="6.72910133"><ele></ele><time>2014-6-6T16:48:36Z</time></trkpt>
<trkpt lat="46.93584194" lon="6.72921239"><ele></ele><time>2014-6-6T16:48:39Z</time></trkpt>
<trkpt lat="46.93588913" lon="6.72929395"><ele></ele><time>2014-6-6T16:48:42Z</time></trkpt>
<trkpt lat="46.93589936" lon="6.72935782"><ele></ele><time>2014-6-6T16:48:45Z</time></trkpt>
<trkpt lat="46.93593984" lon="6.72945363"><ele></ele><time>2014-6-6T16:48:48Z</time></trkpt>
<trkpt lat="46.93598142" lon="6.72954264"><ele></ele><time>2014-6-6T16:48:51Z</time></trkpt>
<trkpt lat="46.93591755" lon="6.72962118"><ele></ele><time>2014-6-6T16:48:54Z</time></trkpt>
<trkpt lat="46.93597429" lon="6.72973350"><ele></ele><time>2014-6-6T16:48:57Z</time></trkpt>
<trkpt lat="46.93598762" lon="6.72983316"><ele></ele><time>2014-6-6T16:49:0Z</time></trkpt>
<trkpt lat="46.93599466" lon="6.72993592"><ele></ele><time>2014-6-6T16:49:3Z</time></trkpt>
<trkpt lat="46.93596834" lon="6.72999543"><ele></ele><time>2014-6-6T16:49:6Z</time></trkpt>
<trkpt lat="46.93597396" lon="6.73002150"><ele></ele><time>2014-6-6T16:49:9Z</time></trkpt>
<trkpt lat="46.93589249" lon="6.73002535"><ele></ele><time>2014-6-6T16:49:12Z</time></trkpt>
<trkpt lat="46.93598586" lon="6.73013499"><ele></ele><time>2014-6-6T16:49:15Z</time></trkpt>
<trkpt lat="46.93599785" lon="6.73023792"><ele></ele><time>2014-6-6T16:49:18Z</time></trkpt>
<trkpt lat="46.93601059" lon="6.73031906"><ele></ele><time>2014-6-6T16:49:21Z</time></trkpt>
<trkpt lat="46.93605007" lon="6.73043054"><ele></ele><time>2014-6-6T16:49:24Z</time></trkpt>
<trkpt lat="46.93604604" lon="6.73050899"><ele></ele><time>2014-6-6T16:49:27Z</time></trkpt>
<trkpt lat="46.93605577" lon="6.73053472"><ele></ele><time>2014-6-6T16:49:30Z</time></trkpt>
<trkpt lat="46.93608418" lon="6.73057898"><ele></ele><time>2014-6-6T16:49:33Z</time></trkpt>
<trkpt lat="46.93626649" lon="6.73083723"><ele></ele><time>2014-6-6T16:49:36Z</time></trkpt>
<trkpt lat="46.93634746" lon="6.73100780"><ele></ele><time>2014-6-6T16:49:39Z</time></trkpt>
<trkpt lat="46.93646774" lon="6.73125657"><ele></ele><time>2014-6-6T16:49:42Z</time></trkpt>
<trkpt lat="46.93653672" lon="6.73172185"><ele></ele><time>2014-6-6T16:49:45Z</time></trkpt>
<trkpt lat="46.93655482" lon="6.73213022"><ele></ele><time>2014-6-6T16:49:48Z</time></trkpt>
<trkpt lat="46.93666798" lon="6.73248905"><ele></ele><time>2014-6-6T16:49:51Z</time></trkpt>
<trkpt lat="46.93679698" lon="6.73290965"><ele></ele><time>2014-6-6T16:49:54Z</time></trkpt>
<trkpt lat="46.93681349" lon="6.73302826"><ele></ele><time>2014-6-6T16:49:57Z</time></trkpt>
<trkpt lat="46.93675968" lon="6.73307369"><ele></ele><time>2014-6-6T16:50:0Z</time></trkpt>
<trkpt lat="46.93662649" lon="6.73275836"><ele></ele><time>2014-6-6T16:50:3Z</time></trkpt>
<trkpt lat="46.93644234" lon="6.73235192"><ele></ele><time>2014-6-6T16:50:6Z</time></trkpt>
<trkpt lat="46.93625894" lon="6.73206920"><ele></ele><time>2014-6-6T16:50:9Z</time></trkpt>
<trkpt lat="46.93608946" lon="6.73171825"><ele></ele><time>2014-6-6T16:50:12Z</time></trkpt>
<trkpt lat="46.93600916" lon="6.73144114"><ele></ele><time>2014-6-6T16:50:15Z</time></trkpt>
<trkpt lat="46.93599952" lon="6.73142404"><ele></ele><time>2014-6-6T16:50:18Z</time></trkpt>
<trkpt lat="46.93581697" lon="6.73117954"><ele></ele><time>2014-6-6T16:50:21Z</time></trkpt>
<trkpt lat="46.93565394" lon="6.73099212"><ele></ele><time>2014-6-6T16:50:24Z</time></trkpt>
<trkpt lat="46.93545763" lon="6.73074226"><ele></ele><time>2014-6-6T16:50:27Z</time></trkpt>
<trkpt lat="46.93543559" lon="6.73072206"><ele></ele><time>2014-6-6T16:50:30Z</time></trkpt>
<trkpt lat="46.93535462" lon="6.73070244"><ele></ele><time>2014-6-6T16:50:33Z</time></trkpt>
<trkpt lat="46.93532235" lon="6.73079498"><ele></ele><time>2014-6-6T16:50:36Z</time></trkpt>
<trkpt lat="46.93545696" lon="6.73106588"><ele></ele><time>2014-6-6T16:50:39Z</time></trkpt>
<trkpt lat="46.93563005" lon="6.73142522"><ele></ele><time>2014-6-6T16:50:42Z</time></trkpt>
<trkpt lat="46.93564723" lon="6.73184004"><ele></ele><time>2014-6-6T16:50:45Z</time></trkpt>
<trkpt lat="46.93561278" lon="6.73208253"><ele></ele><time>2014-6-6T16:50:48Z</time></trkpt>
<trkpt lat="46.93561530" lon="6.73222795"><ele></ele><time>2014-6-6T16:50:51Z</time></trkpt>
<trkpt lat="46.93550248" lon="6.73222259"><ele></ele><time>2014-6-6T16:50:54Z</time></trkpt>
<trkpt lat="46.93549627" lon="6.73221412"><ele></ele><time>2014-6-6T16:50:57Z</time></trkpt>
<trkpt lat="46.93542805" lon="6.73200063"><ele></ele><time>2014-6-6T16:51:0Z</time></trkpt>
<trkpt lat="46.93544372" lon="6.73195948"><ele></ele><time>2014-6-6T16:51:3Z</time></trkpt>
<trkpt lat="46.93539896" lon="6.73189217"><ele></ele><time>2014-6-6T16:51:6Z</time></trkpt>
<trkpt lat="46.93537734" lon="6.73184549"><ele></ele><time>2014-6-6T16:51:9Z</time></trkpt>
<trkpt lat="46.93530927" lon="6.73176225"><ele></ele><time>2014-6-6T16:51:12Z</time></trkpt>
<trkpt lat="46.93524624" lon="6.73171774"><ele></ele><time>2014-6-6T16:51:15Z</time></trkpt>
<trkpt lat="46.93521816" lon="6.73173325"><ele></ele><time>2014-6-6T16:51:18Z</time></trkpt>
<trkpt lat="46.93516234" lon="6.73171196"><ele></ele><time>2014-6-6T16:51:21Z</time></trkpt>
<trkpt lat="46.93505312" lon="6.73169847"><ele></ele><time>2014-6-6T16:51:24Z</time></trkpt>
<trkpt lat="46.93501105" lon="6.73169746"><ele></ele><time>2014-6-6T16:51:27Z</time></trkpt>
<trkpt lat="46.93494466" lon="6.73167332"><ele></ele><time>2014-6-6T16:51:30Z</time></trkpt>
<trkpt lat="46.93496084" lon="6.73163812"><ele></ele><time>2014-6-6T16:51:33Z</time></trkpt>
<trkpt lat="46.93491214" lon="6.73162856"><ele></ele><time>2014-6-6T16:51:36Z</time></trkpt>
<trkpt lat="46.93490124" lon="6.73160945"><ele></ele><time>2014-6-6T16:51:39Z</time></trkpt>
<trkpt lat="46.93491398" lon="6.73162093"><ele></ele><time>2014-6-6T16:51:42Z</time></trkpt>
<trkpt lat="46.93487777" lon="6.73157425"><ele></ele><time>2014-6-6T16:51:45Z</time></trkpt>
<trkpt lat="46.93486067" lon="6.73156788"><ele></ele><time>2014-6-6T16:51:48Z</time></trkpt>
<trkpt lat="46.93477174" lon="6.73153812"><ele></ele><time>2014-6-6T16:51:51Z</time></trkpt>
<trkpt lat="46.93472707" lon="6.73154692"><ele></ele><time>2014-6-6T16:51:54Z</time></trkpt>
<trkpt lat="46.93465532" lon="6.73152823"><ele></ele><time>2014-6-6T16:51:57Z</time></trkpt>
<trkpt lat="46.93459949" lon="6.73145548"><ele></ele><time>2014-6-6T16:52:0Z</time></trkpt>
<trkpt lat="46.93454292" lon="6.73142656"><ele></ele><time>2014-6-6T16:52:3Z</time></trkpt>
<trkpt lat="46.93450729" lon="6.73142136"><ele></ele><time>2014-6-6T16:52:6Z</time></trkpt>
<trkpt lat="46.93444728" lon="6.73138666"><ele></ele><time>2014-6-6T16:52:9Z</time></trkpt>
<trkpt lat="46.93435784" lon="6.73144810"><ele></ele><time>2014-6-6T16:52:12Z</time></trkpt>
<trkpt lat="46.93436287" lon="6.73150367"><ele></ele><time>2014-6-6T16:52:15Z</time></trkpt>
<trkpt lat="46.93433848" lon="6.73153728"><ele></ele><time>2014-6-6T16:52:18Z</time></trkpt>
<trkpt lat="46.93435449" lon="6.73159579"><ele></ele><time>2014-6-6T16:52:21Z</time></trkpt>
<trkpt lat="46.93436698" lon="6.73163644"><ele></ele><time>2014-6-6T16:52:24Z</time></trkpt>
<trkpt lat="46.93436673" lon="6.73170224"><ele></ele><time>2014-6-6T16:52:27Z</time></trkpt>
<trkpt lat="46.93435307" lon="6.73170693"><ele></ele><time>2014-6-6T16:52:30Z</time></trkpt>
<trkpt lat="46.93432675" lon="6.73176602"><ele></ele><time>2014-6-6T16:52:33Z</time></trkpt>
<trkpt lat="46.93433530" lon="6.73179595"><ele></ele><time>2014-6-6T16:52:36Z</time></trkpt>
<trkpt lat="46.93434837" lon="6.73188647"><ele></ele><time>2014-6-6T16:52:39Z</time></trkpt>
<trkpt lat="46.93434603" lon="6.73189385"><ele></ele><time>2014-6-6T16:52:42Z</time></trkpt>
<trkpt lat="46.93433974" lon="6.73198840"><ele></ele><time>2014-6-6T16:52:45Z</time></trkpt>
<trkpt lat="46.93432046" lon="6.73212167"><ele></ele><time>2014-6-6T16:52:48Z</time></trkpt>
<trkpt lat="46.93431853" lon="6.73221169"><ele></ele><time>2014-6-6T16:52:51Z</time></trkpt>
<trkpt lat="46.93431996" lon="6.73221898"><ele></ele><time>2014-6-6T16:52:54Z</time></trkpt>
<trkpt lat="46.93431820" lon="6.73230724"><ele></ele><time>2014-6-6T16:52:57Z</time></trkpt>
<trkpt lat="46.93435508" lon="6.73241688"><ele></ele><time>2014-6-6T16:53:0Z</time></trkpt>
<trkpt lat="46.93433429" lon="6.73251813"><ele></ele><time>2014-6-6T16:53:3Z</time></trkpt>
<trkpt lat="46.93430579" lon="6.73261126"><ele></ele><time>2014-6-6T16:53:6Z</time></trkpt>
<trkpt lat="46.93428970" lon="6.73263523"><ele></ele><time>2014-6-6T16:53:9Z</time></trkpt>
<trkpt lat="46.93422223" lon="6.73257932"><ele></ele><time>2014-6-6T16:53:12Z</time></trkpt>
<trkpt lat="46.93421166" lon="6.73250355"><ele></ele><time>2014-6-6T16:53:15Z</time></trkpt>
<trkpt lat="46.93415819" lon="6.73244135"><ele></ele><time>2014-6-6T16:53:18Z</time></trkpt>
<trkpt lat="46.93413162" lon="6.73240984"><ele></ele><time>2014-6-6T16:53:21Z</time></trkpt>
<trkpt lat="46.93412198" lon="6.73235368"><ele></ele><time>2014-6-6T16:53:24Z</time></trkpt>
<trkpt lat="46.93406213" lon="6.73228386"><ele></ele><time>2014-6-6T16:53:27Z</time></trkpt>
<trkpt lat="46.93401469" lon="6.73221052"><ele></ele><time>2014-6-6T16:53:30Z</time></trkpt>
<trkpt lat="46.93396012" lon="6.73216903"><ele></ele><time>2014-6-6T16:53:33Z</time></trkpt>
<trkpt lat="46.93394043" lon="6.73212586"><ele></ele><time>2014-6-6T16:53:36Z</time></trkpt>
<trkpt lat="46.93385778" lon="6.73200876"><ele></ele><time>2014-6-6T16:53:39Z</time></trkpt>
<trkpt lat="46.93377597" lon="6.73193442"><ele></ele><time>2014-6-6T16:53:42Z</time></trkpt>
<trkpt lat="46.93371814" lon="6.73187105"><ele></ele><time>2014-6-6T16:53:45Z</time></trkpt>
<trkpt lat="46.93366374" lon="6.73181757"><ele></ele><time>2014-6-6T16:53:48Z</time></trkpt>
<trkpt lat="46.93361236" lon="6.73175555"><ele></ele><time>2014-6-6T16:53:51Z</time></trkpt>
<trkpt lat="46.93357246" lon="6.73176468"><ele></ele><time>2014-6-6T16:53:54Z</time></trkpt>
<trkpt lat="46.93357204" lon="6.73186208"><ele></ele><time>2014-6-6T16:53:57Z</time></trkpt>
<trkpt lat="46.93355897" lon="6.73186552"><ele></ele><time>2014-6-6T16:54:0Z</time></trkpt>
<trkpt lat="46.93355913" lon="6.73199326"><ele></ele><time>2014-6-6T16:54:3Z</time></trkpt>
<trkpt lat="46.93356986" lon="6.73210105"><ele></ele><time>2014-6-6T16:54:6Z</time></trkpt>
<trkpt lat="46.93357162" lon="6.73217372"><ele></ele><time>2014-6-6T16:54:9Z</time></trkpt>
<trkpt lat="46.93357028" lon="6.73228998"><ele></ele><time>2014-6-6T16:54:12Z</time></trkpt>
<trkpt lat="46.93357447" lon="6.73241956"><ele></ele><time>2014-6-6T16:54:15Z</time></trkpt>
<trkpt lat="46.93357640" lon="6.73246985"><ele></ele><time>2014-6-6T16:54:18Z</time></trkpt>
<trkpt lat="46.93357254" lon="6.73257563"><ele></ele><time>2014-6-6T16:54:21Z</time></trkpt>
<trkpt lat="46.93355259" lon="6.73266565"><ele></ele><time>2014-6-6T16:54:24Z</time></trkpt>
<trkpt lat="46.93354715" lon="6.73270488"><ele></ele><time>2014-6-6T16:54:27Z</time></trkpt>
<trkpt lat="46.93353139" lon="6.73277990"><ele></ele><time>2014-6-6T16:54:30Z</time></trkpt>
<trkpt lat="46.93355000" lon="6.73286305"><ele></ele><time>2014-6-6T16:54:33Z</time></trkpt>
<trkpt lat="46.93355570" lon="6.73293069"><ele></ele><time>2014-6-6T16:54:36Z</time></trkpt>
<trkpt lat="46.93358134" lon="6.73297034"><ele></ele><time>2014-6-6T16:54:39Z</time></trkpt>
<trkpt lat="46.93363206" lon="6.73299238"><ele></ele><time>2014-6-6T16:54:42Z</time></trkpt>
<trkpt lat="46.93362325" lon="6.73310679"><ele></ele><time>2014-6-6T16:54:45Z</time></trkpt>
<trkpt lat="46.93360632" lon="6.73317083"><ele></ele><time>2014-6-6T16:54:48Z</time></trkpt>
<trkpt lat="46.93362392" lon="6.73328508"><ele></ele><time>2014-6-6T16:54:51Z</time></trkpt>
<trkpt lat="46.93364832" lon="6.73336915"><ele></ele><time>2014-6-6T16:54:54Z</time></trkpt>
<trkpt lat="46.93364924" lon="6.73343142"><ele></ele><time>2014-6-6T16:54:57Z</time></trkpt>
<trkpt lat="46.93366298" lon="6.73342145"><ele></ele><time>2014-6-6T16:55:0Z</time></trkpt>
<trkpt lat="46.93366156" lon="6.73343260"><ele></ele><time>2014-6-6T16:55:3Z</time></trkpt>
<trkpt lat="46.93369785" lon="6.73348633"><ele></ele><time>2014-6-6T16:55:6Z</time></trkpt>
<trkpt lat="46.93370867" lon="6.73350477"><ele></ele><time>2014-6-6T16:55:9Z</time></trkpt>
<trkpt lat="46.93374982" lon="6.73360292"><ele></ele><time>2014-6-6T16:55:12Z</time></trkpt>
<trkpt lat="46.93378125" lon="6.73367576"><ele></ele><time>2014-6-6T16:55:15Z</time></trkpt>
<trkpt lat="46.93379039" lon="6.73369277"><ele></ele><time>2014-6-6T16:55:18Z</time></trkpt>
<trkpt lat="46.93377572" lon="6.73363779"><ele></ele><time>2014-6-6T16:55:21Z</time></trkpt>
<trkpt lat="46.93383356" lon="6.73362354"><ele></ele><time>2014-6-6T16:55:24Z</time></trkpt>
<trkpt lat="46.93378243" lon="6.73365078"><ele></ele><time>2014-6-6T16:55:27Z</time></trkpt>
<trkpt lat="46.93363884" lon="6.73366922"><ele></ele><time>2014-6-6T16:55:30Z</time></trkpt>
<trkpt lat="46.93362250" lon="6.73368590"><ele></ele><time>2014-6-6T16:55:33Z</time></trkpt>
<trkpt lat="46.93359333" lon="6.73366939"><ele></ele><time>2014-6-6T16:55:36Z</time></trkpt>
<trkpt lat="46.93353214" lon="6.73367282"><ele></ele><time>2014-6-6T16:55:39Z</time></trkpt>
<trkpt lat="46.93345352" lon="6.73364332"><ele></ele><time>2014-6-6T16:55:42Z</time></trkpt>
<trkpt lat="46.93340147" lon="6.73361675"><ele></ele><time>2014-6-6T16:55:45Z</time></trkpt>
<trkpt lat="46.93330407" lon="6.73360166"><ele></ele><time>2014-6-6T16:55:48Z</time></trkpt>
<trkpt lat="46.93329636" lon="6.73358699"><ele></ele><time>2014-6-6T16:55:51Z</time></trkpt>
<trkpt lat="46.93322109" lon="6.73346537"><ele></ele><time>2014-6-6T16:55:54Z</time></trkpt>
<trkpt lat="46.93314306" lon="6.73332355"><ele></ele><time>2014-6-6T16:55:57Z</time></trkpt>
<trkpt lat="46.93311917" lon="6.73326722"><ele></ele><time>2014-6-6T16:56:0Z</time></trkpt>
<trkpt lat="46.93311389" lon="6.73325473"><ele></ele><time>2014-6-6T16:56:3Z</time></trkpt>
<trkpt lat="46.93309712" lon="6.73319422"><ele></ele><time>2014-6-6T16:56:6Z</time></trkpt>
<trkpt lat="46.93306737" lon="6.73298459"><ele></ele><time>2014-6-6T16:56:9Z</time></trkpt>
<trkpt lat="46.93302889" lon="6.73296045"><ele></ele><time>2014-6-6T16:56:12Z</time></trkpt>
<trkpt lat="46.93307273" lon="6.73288677"><ele></ele><time>2014-6-6T16:56:15Z</time></trkpt>
<trkpt lat="46.93304884" lon="6.73291166"><ele></ele><time>2014-6-6T16:56:18Z</time></trkpt>
<trkpt lat="46.93300643" lon="6.73279557"><ele></ele><time>2014-6-6T16:56:21Z</time></trkpt>
<trkpt lat="46.93298858" lon="6.73276339"><ele></ele><time>2014-6-6T16:56:24Z</time></trkpt>
<trkpt lat="46.93292705" lon="6.73261846"><ele></ele><time>2014-6-6T16:56:27Z</time></trkpt>
<trkpt lat="46.93284508" lon="6.73233725"><ele></ele><time>2014-6-6T16:56:30Z</time></trkpt>
<trkpt lat="46.93276755" lon="6.73224689"><ele></ele><time>2014-6-6T16:56:33Z</time></trkpt>
<trkpt lat="46.93275933" lon="6.73219484"><ele></ele><time>2014-6-6T16:56:36Z</time></trkpt>
<trkpt lat="46.93266914" lon="6.73205269"><ele></ele><time>2014-6-6T16:56:39Z</time></trkpt>
<trkpt lat="46.93265749" lon="6.73203223"><ele></ele><time>2014-6-6T16:56:42Z</time></trkpt>
<trkpt lat="46.93258532" lon="6.73192989"><ele></ele><time>2014-6-6T16:56:45Z</time></trkpt>
<trkpt lat="46.93256378" lon="6.73186258"><ele></ele><time>2014-6-6T16:56:48Z</time></trkpt>
<trkpt lat="46.93251567" lon="6.73172722"><ele></ele><time>2014-6-6T16:56:51Z</time></trkpt>
<trkpt lat="46.93248717" lon="6.73167743"><ele></ele><time>2014-6-6T16:56:54Z</time></trkpt>
<trkpt lat="46.93244937" lon="6.73158112"><ele></ele><time>2014-6-6T16:56:57Z</time></trkpt>
<trkpt lat="46.93240109" lon="6.73153016"><ele></ele><time>2014-6-6T16:57:0Z</time></trkpt>
<trkpt lat="46.93230813" lon="6.73145028"><ele></ele><time>2014-6-6T16:57:3Z</time></trkpt>
<trkpt lat="46.93221057" lon="6.73133796"><ele></ele><time>2014-6-6T16:57:6Z</time></trkpt>
<trkpt lat="46.93218886" lon="6.73104384"><ele></ele><time>2014-6-6T16:57:9Z</time></trkpt>
<trkpt lat="46.93217503" lon="6.73098165"><ele></ele><time>2014-6-6T16:57:12Z</time></trkpt>
<trkpt lat="46.93205383" lon="6.73066540"><ele></ele><time>2014-6-6T16:57:15Z</time></trkpt>
<trkpt lat="46.93200924" lon="6.73034864"><ele></ele><time>2014-6-6T16:57:18Z</time></trkpt>
<trkpt lat="46.93199264" lon="6.73026214"><ele></ele><time>2014-6-6T16:57:21Z</time></trkpt>
<trkpt lat="46.93188912" lon="6.72990357"><ele></ele><time>2014-6-6T16:57:24Z</time></trkpt>
<trkpt lat="46.93188795" lon="6.72989787"><ele></ele><time>2014-6-6T16:57:27Z</time></trkpt>
<trkpt lat="46.93188460" lon="6.72990264"><ele></ele><time>2014-6-6T16:57:30Z</time></trkpt>
<trkpt lat="46.93164219" lon="6.72978907"><ele></ele><time>2014-6-6T16:57:33Z</time></trkpt>
<trkpt lat="46.93151152" lon="6.72968974"><ele></ele><time>2014-6-6T16:57:36Z</time></trkpt>
<trkpt lat="46.93148662" lon="6.72952923"><ele></ele><time>2014-6-6T16:57:39Z</time></trkpt>
<trkpt lat="46.93145268" lon="6.72943703"><ele></ele><time>2014-6-6T16:57:42Z</time></trkpt>
<trkpt lat="46.93138755" lon="6.72909815"><ele></ele><time>2014-6-6T16:57:45Z</time></trkpt>
<trkpt lat="46.93136643" lon="6.72902883"><ele></ele><time>2014-6-6T16:57:48Z</time></trkpt>
<trkpt lat="46.93133684" lon="6.72895390"><ele></ele><time>2014-6-6T16:57:51Z</time></trkpt>
<trkpt lat="46.93123383" lon="6.72854017"><ele></ele><time>2014-6-6T16:57:54Z</time></trkpt>
<trkpt lat="46.93108119" lon="6.72819844"><ele></ele><time>2014-6-6T16:57:57Z</time></trkpt>
<trkpt lat="46.93094473" lon="6.72778227"><ele></ele><time>2014-6-6T16:58:0Z</time></trkpt>
<trkpt lat="46.93086603" lon="6.72747172"><ele></ele><time>2014-6-6T16:58:3Z</time></trkpt>
<trkpt lat="46.93084172" lon="6.72729604"><ele></ele><time>2014-6-6T16:58:6Z</time></trkpt>
<trkpt lat="46.93074835" lon="6.72679329"><ele></ele><time>2014-6-6T16:58:9Z</time></trkpt>
<trkpt lat="46.93067324" lon="6.72633044"><ele></ele><time>2014-6-6T16:58:12Z</time></trkpt>
<trkpt lat="46.93066553" lon="6.72616423"><ele></ele><time>2014-6-6T16:58:15Z</time></trkpt>
<trkpt lat="46.93067207" lon="6.72589366"><ele></ele><time>2014-6-6T16:58:18Z</time></trkpt>
<trkpt lat="46.93067065" lon="6.72586148"><ele></ele><time>2014-6-6T16:58:21Z</time></trkpt>
<trkpt lat="46.93070518" lon="6.72536208"><ele></ele><time>2014-6-6T16:58:24Z</time></trkpt>
<trkpt lat="46.93081163" lon="6.72486973"><ele></ele><time>2014-6-6T16:58:27Z</time></trkpt>
<trkpt lat="46.93086812" lon="6.72438920"><ele></ele><time>2014-6-6T16:58:30Z</time></trkpt>
<trkpt lat="46.93090039" lon="6.72425316"><ele></ele><time>2014-6-6T16:58:33Z</time></trkpt>
<trkpt lat="46.93092059" lon="6.72421183"><ele></ele><time>2014-6-6T16:58:36Z</time></trkpt>
<trkpt lat="46.93091406" lon="6.72406130"><ele></ele><time>2014-6-6T16:58:39Z</time></trkpt>
<trkpt lat="46.93093736" lon="6.72395149"><ele></ele><time>2014-6-6T16:58:42Z</time></trkpt>
<trkpt lat="46.93099477" lon="6.72373625"><ele></ele><time>2014-6-6T16:58:45Z</time></trkpt>
<trkpt lat="46.93099855" lon="6.72363122"><ele></ele><time>2014-6-6T16:58:48Z</time></trkpt>
<trkpt lat="46.93098656" lon="6.72347724"><ele></ele><time>2014-6-6T16:58:51Z</time></trkpt>
<trkpt lat="46.93099813" lon="6.72334305"><ele></ele><time>2014-6-6T16:58:54Z</time></trkpt>
<trkpt lat="46.93113584" lon="6.72285380"><ele></ele><time>2014-6-6T16:58:57Z</time></trkpt>
<trkpt lat="46.93115227" lon="6.72280242"><ele></ele><time>2014-6-6T16:59:0Z</time></trkpt>
<trkpt lat="46.93117549" lon="6.72273595"><ele></ele><time>2014-6-6T16:59:3Z</time></trkpt>
<trkpt lat="46.93133273" lon="6.72233840"><ele></ele><time>2014-6-6T16:59:6Z</time></trkpt>
<trkpt lat="46.93134924" lon="6.72231442"><ele></ele><time>2014-6-6T16:59:9Z</time></trkpt>
<trkpt lat="46.93139099" lon="6.72232046"><ele></ele><time>2014-6-6T16:59:12Z</time></trkpt>
<trkpt lat="46.93139610" lon="6.72231409"><ele></ele><time>2014-6-6T16:59:15Z</time></trkpt>
<trkpt lat="46.93139115" lon="6.72231518"><ele></ele><time>2014-6-6T16:59:18Z</time></trkpt>
<trkpt lat="46.93139467" lon="6.72231979"><ele></ele><time>2014-6-6T16:59:21Z</time></trkpt>
<trkpt lat="46.93138378" lon="6.72232817"><ele></ele><time>2014-6-6T16:59:24Z</time></trkpt>
<trkpt lat="46.93138923" lon="6.72231744"><ele></ele><time>2014-6-6T16:59:27Z</time></trkpt>
<trkpt lat="46.93139484" lon="6.72222306"><ele></ele><time>2014-6-6T16:59:30Z</time></trkpt>
<trkpt lat="46.93154706" lon="6.72184629"><ele></ele><time>2014-6-6T16:59:33Z</time></trkpt>
<trkpt lat="46.93175292" lon="6.72145888"><ele></ele><time>2014-6-6T16:59:36Z</time></trkpt>
<trkpt lat="46.93210579" lon="6.72101649"><ele></ele><time>2014-6-6T16:59:39Z</time></trkpt>
<trkpt lat="46.93225860" lon="6.72088849"><ele></ele><time>2014-6-6T16:59:42Z</time></trkpt>
<trkpt lat="46.93241349" lon="6.72075463"><ele></ele><time>2014-6-6T16:59:45Z</time></trkpt>
<trkpt lat="46.93268054" lon="6.72057107"><ele></ele><time>2014-6-6T16:59:48Z</time></trkpt>
<trkpt lat="46.93271725" lon="6.72054274"><ele></ele><time>2014-6-6T16:59:51Z</time></trkpt>
<trkpt lat="46.93306192" lon="6.72034593"><ele></ele><time>2014-6-6T16:59:54Z</time></trkpt>
<trkpt lat="46.93319242" lon="6.72026614"><ele></ele><time>2014-6-6T16:59:57Z</time></trkpt>
<trkpt lat="46.93367003" lon="6.72003689"><ele></ele><time>2014-6-6T17:0:0Z</time></trkpt>
<trkpt lat="46.93385770" lon="6.71998300"><ele></ele><time>2014-6-6T17:0:3Z</time></trkpt>
<trkpt lat="46.93396842" lon="6.71996757"><ele></ele><time>2014-6-6T17:0:6Z</time></trkpt>
<trkpt lat="46.93397462" lon="6.71997428"><ele></ele><time>2014-6-6T17:0:9Z</time></trkpt>
<trkpt lat="46.93410798" lon="6.72008132"><ele></ele><time>2014-6-6T17:0:12Z</time></trkpt>
<trkpt lat="46.93424595" lon="6.72013924"><ele></ele><time>2014-6-6T17:0:15Z</time></trkpt>
<trkpt lat="46.93429909" lon="6.72014426"><ele></ele><time>2014-6-6T17:0:18Z</time></trkpt>
<trkpt lat="46.93464283" lon="6.72014460"><ele></ele><time>2014-6-6T17:0:21Z</time></trkpt>
<trkpt lat="46.93490644" lon="6.72022699"><ele></ele><time>2014-6-6T17:0:24Z</time></trkpt>
<trkpt lat="46.93492413" lon="6.72025943"><ele></ele><time>2014-6-6T17:0:27Z</time></trkpt>
<trkpt lat="46.93522202" lon="6.72052950"><ele></ele><time>2014-6-6T17:0:30Z</time></trkpt>
<trkpt lat="46.93537415" lon="6.72073536"><ele></ele><time>2014-6-6T17:0:33Z</time></trkpt>
<trkpt lat="46.93574555" lon="6.72074919"><ele></ele><time>2014-6-6T17:0:36Z</time></trkpt>
<trkpt lat="46.93630127" lon="6.72063016"><ele></ele><time>2014-6-6T17:0:39Z</time></trkpt>
<trkpt lat="46.93644603" lon="6.72053863"><ele></ele><time>2014-6-6T17:0:42Z</time></trkpt>
<trkpt lat="46.93669287" lon="6.72024845"><ele></ele><time>2014-6-6T17:0:45Z</time></trkpt>
<trkpt lat="46.93688666" lon="6.71994327"><ele></ele><time>2014-6-6T17:0:48Z</time></trkpt>
<trkpt lat="46.93693830" lon="6.71986816"><ele></ele><time>2014-6-6T17:0:51Z</time></trkpt>
<trkpt lat="46.93716033" lon="6.71968292"><ele></ele><time>2014-6-6T17:0:54Z</time></trkpt>
<trkpt lat="46.93719596" lon="6.71965426"><ele></ele><time>2014-6-6T17:0:57Z</time></trkpt>
<trkpt lat="46.93733769" lon="6.71953054"><ele></ele><time>2014-6-6T17:1:0Z</time></trkpt>
<trkpt lat="46.93773634" lon="6.71917205"><ele></ele><time>2014-6-6T17:1:3Z</time></trkpt>
<trkpt lat="46.93785117" lon="6.71911488"><ele></ele><time>2014-6-6T17:1:6Z</time></trkpt>
<trkpt lat="46.93784514" lon="6.71908655"><ele></ele><time>2014-6-6T17:1:9Z</time></trkpt>
<trkpt lat="46.93785922" lon="6.71905529"><ele></ele><time>2014-6-6T17:1:12Z</time></trkpt>
<trkpt lat="46.93787757" lon="6.71904607"><ele></ele><time>2014-6-6T17:1:15Z</time></trkpt>
<trkpt lat="46.93793532" lon="6.71901329"><ele></ele><time>2014-6-6T17:1:18Z</time></trkpt>
<trkpt lat="46.93799978" lon="6.71898019"><ele></ele><time>2014-6-6T17:1:21Z</time></trkpt>
<trkpt lat="46.93807715" lon="6.71892939"><ele></ele><time>2014-6-6T17:1:24Z</time></trkpt>
<trkpt lat="46.93828032" lon="6.71884197"><ele></ele><time>2014-6-6T17:1:27Z</time></trkpt>
<trkpt lat="46.93831913" lon="6.71884096"><ele></ele><time>2014-6-6T17:1:30Z</time></trkpt>
<trkpt lat="46.93845014" lon="6.71882068"><ele></ele><time>2014-6-6T17:1:33Z</time></trkpt>
<trkpt lat="46.93864385" lon="6.71872655"><ele></ele><time>2014-6-6T17:1:36Z</time></trkpt>
<trkpt lat="46.93870277" lon="6.71867835"><ele></ele><time>2014-6-6T17:1:39Z</time></trkpt>
<trkpt lat="46.93874233" lon="6.71862077"><ele></ele><time>2014-6-6T17:1:42Z</time></trkpt>
<trkpt lat="46.93874326" lon="6.71861599"><ele></ele><time>2014-6-6T17:1:45Z</time></trkpt>
<trkpt lat="46.93890570" lon="6.71825440"><ele></ele><time>2014-6-6T17:1:48Z</time></trkpt>
<trkpt lat="46.93891584" lon="6.71824593"><ele></ele><time>2014-6-6T17:1:51Z</time></trkpt>
<trkpt lat="46.93895733" lon="6.71826320"><ele></ele><time>2014-6-6T17:1:54Z</time></trkpt>
<trkpt lat="46.93894149" lon="6.71822875"><ele></ele><time>2014-6-6T17:1:57Z</time></trkpt>
<trkpt lat="46.93865575" lon="6.71802700"><ele></ele><time>2014-6-6T17:2:0Z</time></trkpt>
<trkpt lat="46.93830354" lon="6.71778820"><ele></ele><time>2014-6-6T17:2:3Z</time></trkpt>
<trkpt lat="46.93795569" lon="6.71750522"><ele></ele><time>2014-6-6T17:2:6Z</time></trkpt>
<trkpt lat="46.93767557" lon="6.71721295"><ele></ele><time>2014-6-6T17:2:9Z</time></trkpt>
<trkpt lat="46.93748027" lon="6.71705495"><ele></ele><time>2014-6-6T17:2:12Z</time></trkpt>
<trkpt lat="46.93729495" lon="6.71688546"><ele></ele><time>2014-6-6T17:2:15Z</time></trkpt>
<trkpt lat="46.93713443" lon="6.71677482"><ele></ele><time>2014-6-6T17:2:18Z</time></trkpt>
<trkpt lat="46.93684367" lon="6.71653066"><ele></ele><time>2014-6-6T17:2:21Z</time></trkpt>
<trkpt lat="46.93650763" lon="6.71618306"><ele></ele><time>2014-6-6T17:2:24Z</time></trkpt>
<trkpt lat="46.93621209" lon="6.71589782"><ele></ele><time>2014-6-6T17:2:27Z</time></trkpt>
<trkpt lat="46.93620136" lon="6.71588827"><ele></ele><time>2014-6-6T17:2:30Z</time></trkpt>
<trkpt lat="46.93619792" lon="6.71588835"><ele></ele><time>2014-6-6T17:2:33Z</time></trkpt>
<trkpt lat="46.93606884" lon="6.71571569"><ele></ele><time>2014-6-6T17:2:36Z</time></trkpt>
<trkpt lat="46.93559770" lon="6.71512309"><ele></ele><time>2014-6-6T17:2:39Z</time></trkpt>
<trkpt lat="46.93531179" lon="6.71488152"><ele></ele><time>2014-6-6T17:2:42Z</time></trkpt>
<trkpt lat="46.93524390" lon="6.71484849"><ele></ele><time>2014-6-6T17:2:45Z</time></trkpt>
<trkpt lat="46.93524448" lon="6.71491446"><ele></ele><time>2014-6-6T17:2:48Z</time></trkpt>
<trkpt lat="46.93528966" lon="6.71495277"><ele></ele><time>2014-6-6T17:2:51Z</time></trkpt>
<trkpt lat="46.93528078" lon="6.71494086"><ele></ele><time>2014-6-6T17:2:54Z</time></trkpt>
<trkpt lat="46.93516008" lon="6.71484347"><ele></ele><time>2014-6-6T17:2:57Z</time></trkpt>
<trkpt lat="46.93491147" lon="6.71473266"><ele></ele><time>2014-6-6T17:3:0Z</time></trkpt>
<trkpt lat="46.93450956" lon="6.71456787"><ele></ele><time>2014-6-6T17:3:3Z</time></trkpt>
<trkpt lat="46.93446019" lon="6.71454943"><ele></ele><time>2014-6-6T17:3:6Z</time></trkpt>
<trkpt lat="46.93411577" lon="6.71440937"><ele></ele><time>2014-6-6T17:3:9Z</time></trkpt>
<trkpt lat="46.93387790" lon="6.71430535"><ele></ele><time>2014-6-6T17:3:12Z</time></trkpt>
<trkpt lat="46.93362803" lon="6.71418289"><ele></ele><time>2014-6-6T17:3:15Z</time></trkpt>
<trkpt lat="46.93356249" lon="6.71415095"><ele></ele><time>2014-6-6T17:3:18Z</time></trkpt>
<trkpt lat="46.93325068" lon="6.71399916"><ele></ele><time>2014-6-6T17:3:21Z</time></trkpt>
<trkpt lat="46.93290099" lon="6.71374787"><ele></ele><time>2014-6-6T17:3:24Z</time></trkpt>
<trkpt lat="46.93261877" lon="6.71363714"><ele></ele><time>2014-6-6T17:3:27Z</time></trkpt>
<trkpt lat="46.93260117" lon="6.71365147"><ele></ele><time>2014-6-6T17:3:30Z</time></trkpt>
<trkpt lat="46.93231978" lon="6.71343950"><ele></ele><time>2014-6-6T17:3:33Z</time></trkpt>
<trkpt lat="46.93227226" lon="6.71340806"><ele></ele><time>2014-6-6T17:3:36Z</time></trkpt>
<trkpt lat="46.93173012" lon="6.71286584"><ele></ele><time>2014-6-6T17:3:39Z</time></trkpt>
<trkpt lat="46.93119988" lon="6.71233962"><ele></ele><time>2014-6-6T17:3:42Z</time></trkpt>
<trkpt lat="46.93093468" lon="6.71208305"><ele></ele><time>2014-6-6T17:3:45Z</time></trkpt>
<trkpt lat="46.93031802" lon="6.71199672"><ele></ele><time>2014-6-6T17:3:48Z</time></trkpt>
<trkpt lat="46.93002599" lon="6.71198775"><ele></ele><time>2014-6-6T17:3:51Z</time></trkpt>
<trkpt lat="46.92992063" lon="6.71201348"><ele></ele><time>2014-6-6T17:3:54Z</time></trkpt>
<trkpt lat="46.92952492" lon="6.71226838"><ele></ele><time>2014-6-6T17:3:57Z</time></trkpt>
<trkpt lat="46.92941579" lon="6.71227676"><ele></ele><time>2014-6-6T17:4:0Z</time></trkpt>
<trkpt lat="46.92884699" lon="6.71245890"><ele></ele><time>2014-6-6T17:4:3Z</time></trkpt>
<trkpt lat="46.92847199" lon="6.71298520"><ele></ele><time>2014-6-6T17:4:6Z</time></trkpt>
<trkpt lat="46.92840150" lon="6.71308435"><ele></ele><time>2014-6-6T17:4:9Z</time></trkpt>
<trkpt lat="46.92816697" lon="6.71360403"><ele></ele><time>2014-6-6T17:4:12Z</time></trkpt>
<trkpt lat="46.92802683" lon="6.71426830"><ele></ele><time>2014-6-6T17:4:15Z</time></trkpt>
<trkpt lat="46.92780923" lon="6.71477205"><ele></ele><time>2014-6-6T17:4:18Z</time></trkpt>
<trkpt lat="46.92747907" lon="6.71508763"><ele></ele><time>2014-6-6T17:4:21Z</time></trkpt>
<trkpt lat="46.92716693" lon="6.71540648"><ele></ele><time>2014-6-6T17:4:24Z</time></trkpt>
<trkpt lat="46.92712636" lon="6.71544193"><ele></ele><time>2014-6-6T17:4:27Z</time></trkpt>
<trkpt lat="46.92688907" lon="6.71568937"><ele></ele><time>2014-6-6T17:4:30Z</time></trkpt>
<trkpt lat="46.92659955" lon="6.71603076"><ele></ele><time>2014-6-6T17:4:33Z</time></trkpt>
<trkpt lat="46.92638397" lon="6.71629228"><ele></ele><time>2014-6-6T17:4:36Z</time></trkpt>
<trkpt lat="46.92620468" lon="6.71647458"><ele></ele><time>2014-6-6T17:4:39Z</time></trkpt>
<trkpt lat="46.92598416" lon="6.71667642"><ele></ele><time>2014-6-6T17:4:42Z</time></trkpt>
<trkpt lat="46.92581618" lon="6.71678245"><ele></ele><time>2014-6-6T17:4:45Z</time></trkpt>
<trkpt lat="46.92577084" lon="6.71680994"><ele></ele><time>2014-6-6T17:4:48Z</time></trkpt>
<trkpt lat="46.92568148" lon="6.71686258"><ele></ele><time>2014-6-6T17:4:51Z</time></trkpt>
<trkpt lat="46.92541989" lon="6.71702318"><ele></ele><time>2014-6-6T17:4:54Z</time></trkpt>
<trkpt lat="46.92514856" lon="6.71719367"><ele></ele><time>2014-6-6T17:4:57Z</time></trkpt>
<trkpt lat="46.92493306" lon="6.71749919"><ele></ele><time>2014-6-6T17:5:0Z</time></trkpt>
<trkpt lat="46.92464154" lon="6.71779406"><ele></ele><time>2014-6-6T17:5:3Z</time></trkpt>
<trkpt lat="46.92423292" lon="6.71810252"><ele></ele><time>2014-6-6T17:5:6Z</time></trkpt>
<trkpt lat="46.92419806" lon="6.71813529"><ele></ele><time>2014-6-6T17:5:9Z</time></trkpt>
<trkpt lat="46.92404056" lon="6.71822062"><ele></ele><time>2014-6-6T17:5:12Z</time></trkpt>
<trkpt lat="46.92396244" lon="6.71828482"><ele></ele><time>2014-6-6T17:5:15Z</time></trkpt>
<trkpt lat="46.92385046" lon="6.71864298"><ele></ele><time>2014-6-6T17:5:18Z</time></trkpt>
<trkpt lat="46.92384878" lon="6.71875848"><ele></ele><time>2014-6-6T17:5:21Z</time></trkpt>
<trkpt lat="46.92389438" lon="6.71902243"><ele></ele><time>2014-6-6T17:5:24Z</time></trkpt>
<trkpt lat="46.92390452" lon="6.71927338"><ele></ele><time>2014-6-6T17:5:27Z</time></trkpt>
<trkpt lat="46.92388122" lon="6.72022632"><ele></ele><time>2014-6-6T17:5:30Z</time></trkpt>
<trkpt lat="46.92409890" lon="6.72101766"><ele></ele><time>2014-6-6T17:5:33Z</time></trkpt>
<trkpt lat="46.92430669" lon="6.72164010"><ele></ele><time>2014-6-6T17:5:36Z</time></trkpt>
<trkpt lat="46.92449662" lon="6.72204159"><ele></ele><time>2014-6-6T17:5:39Z</time></trkpt>
<trkpt lat="46.92451900" lon="6.72217889"><ele></ele><time>2014-6-6T17:5:42Z</time></trkpt>
<trkpt lat="46.92450383" lon="6.72219607"><ele></ele><time>2014-6-6T17:5:45Z</time></trkpt>
<trkpt lat="46.92455512" lon="6.72228383"><ele></ele><time>2014-6-6T17:5:48Z</time></trkpt>
<trkpt lat="46.92462193" lon="6.72243688"><ele></ele><time>2014-6-6T17:5:51Z</time></trkpt>
<trkpt lat="46.92463718" lon="6.72263168"><ele></ele><time>2014-6-6T17:5:54Z</time></trkpt>
<trkpt lat="46.92457298" lon="6.72347490"><ele></ele><time>2014-6-6T17:5:57Z</time></trkpt>
<trkpt lat="46.92470625" lon="6.72412483"><ele></ele><time>2014-6-6T17:6:0Z</time></trkpt>
<trkpt lat="46.92462302" lon="6.72443035"><ele></ele><time>2014-6-6T17:6:3Z</time></trkpt>
<trkpt lat="46.92420208" lon="6.72428727"><ele></ele><time>2014-6-6T17:6:6Z</time></trkpt>
<trkpt lat="46.92382540" lon="6.72411620"><ele></ele><time>2014-6-6T17:6:9Z</time></trkpt>
<trkpt lat="46.92332810" lon="6.72393724"><ele></ele><time>2014-6-6T17:6:12Z</time></trkpt>
<trkpt lat="46.92302157" lon="6.72423170"><ele></ele><time>2014-6-6T17:6:15Z</time></trkpt>
<trkpt lat="46.92278336" lon="6.72452817"><ele></ele><time>2014-6-6T17:6:18Z</time></trkpt>
<trkpt lat="46.92272225" lon="6.72461475"><ele></ele><time>2014-6-6T17:6:21Z</time></trkpt>
<trkpt lat="46.92255026" lon="6.72494433"><ele></ele><time>2014-6-6T17:6:24Z</time></trkpt>
<trkpt lat="46.92232126" lon="6.72535479"><ele></ele><time>2014-6-6T17:6:27Z</time></trkpt>
<trkpt lat="46.92180343" lon="6.72582015"><ele></ele><time>2014-6-6T17:6:30Z</time></trkpt>
<trkpt lat="46.92167670" lon="6.72592987"><ele></ele><time>2014-6-6T17:6:33Z</time></trkpt>
<trkpt lat="46.92144485" lon="6.72619843"><ele></ele><time>2014-6-6T17:6:36Z</time></trkpt>
<trkpt lat="46.92119373" lon="6.72642726"><ele></ele><time>2014-6-6T17:6:39Z</time></trkpt>
<trkpt lat="46.92101084" lon="6.72668642"><ele></ele><time>2014-6-6T17:6:42Z</time></trkpt>
<trkpt lat="46.92066953" lon="6.72721197"><ele></ele><time>2014-6-6T17:6:45Z</time></trkpt>
<trkpt lat="46.92045864" lon="6.72740299"><ele></ele><time>2014-6-6T17:6:48Z</time></trkpt>
<trkpt lat="46.92025655" lon="6.72765336"><ele></ele><time>2014-6-6T17:6:51Z</time></trkpt>
<trkpt lat="46.92022302" lon="6.72768965"><ele></ele><time>2014-6-6T17:6:54Z</time></trkpt>
<trkpt lat="46.92010894" lon="6.72788948"><ele></ele><time>2014-6-6T17:6:57Z</time></trkpt>
<trkpt lat="46.91979169" lon="6.72831578"><ele></ele><time>2014-6-6T17:7:0Z</time></trkpt>
<trkpt lat="46.91963855" lon="6.72857604"><ele></ele><time>2014-6-6T17:7:3Z</time></trkpt>
<trkpt lat="46.91938139" lon="6.72896588"><ele></ele><time>2014-6-6T17:7:6Z</time></trkpt>
<trkpt lat="46.91931543" lon="6.72905565"><ele></ele><time>2014-6-6T17:7:9Z</time></trkpt>
<trkpt lat="46.91911686" lon="6.72943284"><ele></ele><time>2014-6-6T17:7:12Z</time></trkpt>
<trkpt lat="46.91905316" lon="6.72958162"><ele></ele><time>2014-6-6T17:7:15Z</time></trkpt>
<trkpt lat="46.91892986" lon="6.72987767"><ele></ele><time>2014-6-6T17:7:18Z</time></trkpt>
<trkpt lat="46.91892265" lon="6.72999049"><ele></ele><time>2014-6-6T17:7:21Z</time></trkpt>
<trkpt lat="46.91900614" lon="6.73008478"><ele></ele><time>2014-6-6T17:7:24Z</time></trkpt>
<trkpt lat="46.91918870" lon="6.73051494"><ele></ele><time>2014-6-6T17:7:27Z</time></trkpt>
<trkpt lat="46.91913589" lon="6.73084175"><ele></ele><time>2014-6-6T17:7:30Z</time></trkpt>
<trkpt lat="46.91913044" lon="6.73117049"><ele></ele><time>2014-6-6T17:7:33Z</time></trkpt>
<trkpt lat="46.91926447" lon="6.73167097"><ele></ele><time>2014-6-6T17:7:36Z</time></trkpt>
<trkpt lat="46.91934728" lon="6.73220046"><ele></ele><time>2014-6-6T17:7:39Z</time></trkpt>
<trkpt lat="46.91936513" lon="6.73228042"><ele></ele><time>2014-6-6T17:7:42Z</time></trkpt>
<trkpt lat="46.91939984" lon="6.73243565"><ele></ele><time>2014-6-6T17:7:45Z</time></trkpt>
<trkpt lat="46.91943428" lon="6.73281804"><ele></ele><time>2014-6-6T17:7:48Z</time></trkpt>
<trkpt lat="46.91938668" lon="6.73312758"><ele></ele><time>2014-6-6T17:7:51Z</time></trkpt>
<trkpt lat="46.91933253" lon="6.73324392"><ele></ele><time>2014-6-6T17:7:54Z</time></trkpt>
<trkpt lat="46.91930009" lon="6.73337275"><ele></ele><time>2014-6-6T17:7:57Z</time></trkpt>
<trkpt lat="46.91919808" lon="6.73367467"><ele></ele><time>2014-6-6T17:8:0Z</time></trkpt>
<trkpt lat="46.91920068" lon="6.73376469"><ele></ele><time>2014-6-6T17:8:3Z</time></trkpt>
<trkpt lat="46.91922088" lon="6.73386385"><ele></ele><time>2014-6-6T17:8:6Z</time></trkpt>
<trkpt lat="46.91922147" lon="6.73407457"><ele></ele><time>2014-6-6T17:8:9Z</time></trkpt>
<trkpt lat="46.91922172" lon="6.73420927"><ele></ele><time>2014-6-6T17:8:12Z</time></trkpt>
<trkpt lat="46.91924108" lon="6.73430130"><ele></ele><time>2014-6-6T17:8:15Z</time></trkpt>
<trkpt lat="46.91926103" lon="6.73434908"><ele></ele><time>2014-6-6T17:8:18Z</time></trkpt>
<trkpt lat="46.91922759" lon="6.73448369"><ele></ele><time>2014-6-6T17:8:21Z</time></trkpt>
<trkpt lat="46.91918693" lon="6.73460506"><ele></ele><time>2014-6-6T17:8:24Z</time></trkpt>
<trkpt lat="46.91918962" lon="6.73468854"><ele></ele><time>2014-6-6T17:8:27Z</time></trkpt>
<trkpt lat="46.91922449" lon="6.73480337"><ele></ele><time>2014-6-6T17:8:30Z</time></trkpt>
<trkpt lat="46.91923840" lon="6.73485115"><ele></ele><time>2014-6-6T17:8:33Z</time></trkpt>
<trkpt lat="46.91924796" lon="6.73507554"><ele></ele><time>2014-6-6T17:8:36Z</time></trkpt>
<trkpt lat="46.91924469" lon="6.73515944"><ele></ele><time>2014-6-6T17:8:39Z</time></trkpt>
<trkpt lat="46.91922097" lon="6.73531643"><ele></ele><time>2014-6-6T17:8:42Z</time></trkpt>
<trkpt lat="46.91924435" lon="6.73548239"><ele></ele><time>2014-6-6T17:8:45Z</time></trkpt>
<trkpt lat="46.91925122" lon="6.73559798"><ele></ele><time>2014-6-6T17:8:48Z</time></trkpt>
<trkpt lat="46.91925952" lon="6.73588783"><ele></ele><time>2014-6-6T17:8:51Z</time></trkpt>
<trkpt lat="46.91926355" lon="6.73602512"><ele></ele><time>2014-6-6T17:8:54Z</time></trkpt>
<trkpt lat="46.91928299" lon="6.73606653"><ele></ele><time>2014-6-6T17:8:57Z</time></trkpt>
<trkpt lat="46.91930478" lon="6.73620273"><ele></ele><time>2014-6-6T17:9:0Z</time></trkpt>
<trkpt lat="46.91931576" lon="6.73635160"><ele></ele><time>2014-6-6T17:9:3Z</time></trkpt>
<trkpt lat="46.91930713" lon="6.73669224"><ele></ele><time>2014-6-6T17:9:6Z</time></trkpt>
<trkpt lat="46.91909524" lon="6.73713564"><ele></ele><time>2014-6-6T17:9:9Z</time></trkpt>
<trkpt lat="46.91910136" lon="6.73715157"><ele></ele><time>2014-6-6T17:9:12Z</time></trkpt>
<trkpt lat="46.91912550" lon="6.73717713"><ele></ele><time>2014-6-6T17:9:15Z</time></trkpt>
<trkpt lat="46.91915919" lon="6.73728568"><ele></ele><time>2014-6-6T17:9:18Z</time></trkpt>
<trkpt lat="46.91918417" lon="6.73744267"><ele></ele><time>2014-6-6T17:9:21Z</time></trkpt>
<trkpt lat="46.91918635" lon="6.73758474"><ele></ele><time>2014-6-6T17:9:24Z</time></trkpt>
<trkpt lat="46.91918182" lon="6.73782052"><ele></ele><time>2014-6-6T17:9:27Z</time></trkpt>
<trkpt lat="46.91939053" lon="6.73764836"><ele></ele><time>2014-6-6T17:9:30Z</time></trkpt>
<trkpt lat="46.91935482" lon="6.73767116"><ele></ele><time>2014-6-6T17:9:33Z</time></trkpt>
<trkpt lat="46.91934954" lon="6.73784835"><ele></ele><time>2014-6-6T17:9:36Z</time></trkpt>
<trkpt lat="46.91934896" lon="6.73788984"><ele></ele><time>2014-6-6T17:9:39Z</time></trkpt>
<trkpt lat="46.91934058" lon="6.73803443"><ele></ele><time>2014-6-6T17:9:42Z</time></trkpt>
<trkpt lat="46.91934032" lon="6.73807450"><ele></ele><time>2014-6-6T17:9:45Z</time></trkpt>
<trkpt lat="46.91934183" lon="6.73811196"><ele></ele><time>2014-6-6T17:9:48Z</time></trkpt>
<trkpt lat="46.91935357" lon="6.73821079"><ele></ele><time>2014-6-6T17:9:51Z</time></trkpt>
<trkpt lat="46.91936279" lon="6.73828564"><ele></ele><time>2014-6-6T17:9:54Z</time></trkpt>
<trkpt lat="46.91935038" lon="6.73849443"><ele></ele><time>2014-6-6T17:9:57Z</time></trkpt>
<trkpt lat="46.91932633" lon="6.73866098"><ele></ele><time>2014-6-6T17:10:0Z</time></trkpt>
<trkpt lat="46.91935306" lon="6.73887019"><ele></ele><time>2014-6-6T17:10:3Z</time></trkpt>
<trkpt lat="46.91942984" lon="6.73899039"><ele></ele><time>2014-6-6T17:10:6Z</time></trkpt>
<trkpt lat="46.91950754" lon="6.73911712"><ele></ele><time>2014-6-6T17:10:9Z</time></trkpt>
<trkpt lat="46.91956747" lon="6.73924017"><ele></ele><time>2014-6-6T17:10:12Z</time></trkpt>
<trkpt lat="46.91962045" lon="6.73949372"><ele></ele><time>2014-6-6T17:10:15Z</time></trkpt>
<trkpt lat="46.91962849" lon="6.73955575"><ele></ele><time>2014-6-6T17:10:18Z</time></trkpt>
<trkpt lat="46.91961936" lon="6.73998423"><ele></ele><time>2014-6-6T17:10:21Z</time></trkpt>
<trkpt lat="46.91962455" lon="6.74003259"><ele></ele><time>2014-6-6T17:10:24Z</time></trkpt>
<trkpt lat="46.91962598" lon="6.74012882"><ele></ele><time>2014-6-6T17:10:27Z</time></trkpt>
<trkpt lat="46.91962807" lon="6.74020920"><ele></ele><time>2014-6-6T17:10:30Z</time></trkpt>
<trkpt lat="46.91962556" lon="6.74040014"><ele></ele><time>2014-6-6T17:10:33Z</time></trkpt>
<trkpt lat="46.91962799" lon="6.74041632"><ele></ele><time>2014-6-6T17:10:36Z</time></trkpt>
<trkpt lat="46.91963612" lon="6.74057867"><ele></ele><time>2014-6-6T17:10:39Z</time></trkpt>
<trkpt lat="46.91969278" lon="6.74071354"><ele></ele><time>2014-6-6T17:10:42Z</time></trkpt>
<trkpt lat="46.91966127" lon="6.74103054"><ele></ele><time>2014-6-6T17:10:45Z</time></trkpt>
<trkpt lat="46.91966303" lon="6.74118737"><ele></ele><time>2014-6-6T17:10:48Z</time></trkpt>
<trkpt lat="46.91969362" lon="6.74141108"><ele></ele><time>2014-6-6T17:10:51Z</time></trkpt>
<trkpt lat="46.91972128" lon="6.74161409"><ele></ele><time>2014-6-6T17:10:54Z</time></trkpt>
<trkpt lat="46.91969546" lon="6.74180134"><ele></ele><time>2014-6-6T17:10:57Z</time></trkpt>
<trkpt lat="46.91970242" lon="6.74187460"><ele></ele><time>2014-6-6T17:11:0Z</time></trkpt>
<trkpt lat="46.91969329" lon="6.74201525"><ele></ele><time>2014-6-6T17:11:3Z</time></trkpt>
<trkpt lat="46.91970955" lon="6.74214408"><ele></ele><time>2014-6-6T17:11:6Z</time></trkpt>
<trkpt lat="46.91972053" lon="6.74228624"><ele></ele><time>2014-6-6T17:11:9Z</time></trkpt>
<trkpt lat="46.91971810" lon="6.74233636"><ele></ele><time>2014-6-6T17:11:12Z</time></trkpt>
<trkpt lat="46.91970888" lon="6.74257843"><ele></ele><time>2014-6-6T17:11:15Z</time></trkpt>
<trkpt lat="46.91970737" lon="6.74279653"><ele></ele><time>2014-6-6T17:11:18Z</time></trkpt>
<trkpt lat="46.91961190" lon="6.74295587"><ele></ele><time>2014-6-6T17:11:21Z</time></trkpt>
<trkpt lat="46.91958474" lon="6.74305502"><ele></ele><time>2014-6-6T17:11:24Z</time></trkpt>
<trkpt lat="46.91956026" lon="6.74311965"><ele></ele><time>2014-6-6T17:11:27Z</time></trkpt>
<trkpt lat="46.91956840" lon="6.74306299"><ele></ele><time>2014-6-6T17:11:30Z</time></trkpt>
<trkpt lat="46.91959857" lon="6.74302988"><ele></ele><time>2014-6-6T17:11:33Z</time></trkpt>
<trkpt lat="46.91953956" lon="6.74293684"><ele></ele><time>2014-6-6T17:11:36Z</time></trkpt>
<trkpt lat="46.91940336" lon="6.74269360"><ele></ele><time>2014-6-6T17:11:39Z</time></trkpt>
<trkpt lat="46.91909188" lon="6.74214634"><ele></ele><time>2014-6-6T17:11:42Z</time></trkpt>
<trkpt lat="46.91884822" lon="6.74174460"><ele></ele><time>2014-6-6T17:11:45Z</time></trkpt>
<trkpt lat="46.91876549" lon="6.74159012"><ele></ele><time>2014-6-6T17:11:48Z</time></trkpt>
<trkpt lat="46.91865854" lon="6.74143455"><ele></ele><time>2014-6-6T17:11:51Z</time></trkpt>
<trkpt lat="46.91839820" lon="6.74101906"><ele></ele><time>2014-6-6T17:11:54Z</time></trkpt>
<trkpt lat="46.91835972" lon="6.74095913"><ele></ele><time>2014-6-6T17:11:57Z</time></trkpt>
<trkpt lat="46.91808413" lon="6.74059720"><ele></ele><time>2014-6-6T17:12:0Z</time></trkpt>
<trkpt lat="46.91803216" lon="6.74052444"><ele></ele><time>2014-6-6T17:12:3Z</time></trkpt>
<trkpt lat="46.91777718" lon="6.74009814"><ele></ele><time>2014-6-6T17:12:6Z</time></trkpt>
<trkpt lat="46.91773469" lon="6.74001298"><ele></ele><time>2014-6-6T17:12:9Z</time></trkpt>
<trkpt lat="46.91769588" lon="6.73993788"><ele></ele><time>2014-6-6T17:12:12Z</time></trkpt>
<trkpt lat="46.91755624" lon="6.73966303"><ele></ele><time>2014-6-6T17:12:15Z</time></trkpt>
<trkpt lat="46.91750058" lon="6.73951442"><ele></ele><time>2014-6-6T17:12:18Z</time></trkpt>
<trkpt lat="46.91741433" lon="6.73938903"><ele></ele><time>2014-6-6T17:12:21Z</time></trkpt>
<trkpt lat="46.91724258" lon="6.73913104"><ele></ele><time>2014-6-6T17:12:24Z</time></trkpt>
<trkpt lat="46.91716933" lon="6.73908016"><ele></ele><time>2014-6-6T17:12:27Z</time></trkpt>
<trkpt lat="46.91689976" lon="6.73887983"><ele></ele><time>2014-6-6T17:12:30Z</time></trkpt>
<trkpt lat="46.91668904" lon="6.73872946"><ele></ele><time>2014-6-6T17:12:33Z</time></trkpt>
<trkpt lat="46.91641303" lon="6.73846266"><ele></ele><time>2014-6-6T17:12:36Z</time></trkpt>
<trkpt lat="46.91620993" lon="6.73821732"><ele></ele><time>2014-6-6T17:12:39Z</time></trkpt>
<trkpt lat="46.91612863" lon="6.73813669"><ele></ele><time>2014-6-6T17:12:42Z</time></trkpt>
<trkpt lat="46.91608622" lon="6.73812454"><ele></ele><time>2014-6-6T17:12:45Z</time></trkpt>
<trkpt lat="46.91608932" lon="6.73813258"><ele></ele><time>2014-6-6T17:12:48Z</time></trkpt>
<trkpt lat="46.91611405" lon="6.73822705"><ele></ele><time>2014-6-6T17:12:51Z</time></trkpt>
<trkpt lat="46.91614984" lon="6.73828907"><ele></ele><time>2014-6-6T17:12:54Z</time></trkpt>
<trkpt lat="46.91619367" lon="6.73849368"><ele></ele><time>2014-6-6T17:12:57Z</time></trkpt>
<trkpt lat="46.91646324" lon="6.73904529"><ele></ele><time>2014-6-6T17:13:0Z</time></trkpt>
<trkpt lat="46.91666566" lon="6.73934209"><ele></ele><time>2014-6-6T17:13:3Z</time></trkpt>
<trkpt lat="46.91687940" lon="6.73958877"><ele></ele><time>2014-6-6T17:13:6Z</time></trkpt>
<trkpt lat="46.91699188" lon="6.73967443"><ele></ele><time>2014-6-6T17:13:9Z</time></trkpt>
<trkpt lat="46.91711032" lon="6.73985976"><ele></ele><time>2014-6-6T17:13:12Z</time></trkpt>
<trkpt lat="46.91725306" lon="6.74052528"><ele></ele><time>2014-6-6T17:13:15Z</time></trkpt>
<trkpt lat="46.91740628" lon="6.74119944"><ele></ele><time>2014-6-6T17:13:18Z</time></trkpt>
<trkpt lat="46.91751407" lon="6.74147478"><ele></ele><time>2014-6-6T17:13:21Z</time></trkpt>
<trkpt lat="46.91759379" lon="6.74166438"><ele></ele><time>2014-6-6T17:13:24Z</time></trkpt>
<trkpt lat="46.91769026" lon="6.74183294"><ele></ele><time>2014-6-6T17:13:27Z</time></trkpt>
<trkpt lat="46.91804389" lon="6.74276467"><ele></ele><time>2014-6-6T17:13:30Z</time></trkpt>
<trkpt lat="46.91816602" lon="6.74300993"><ele></ele><time>2014-6-6T17:13:33Z</time></trkpt>
<trkpt lat="46.91834623" lon="6.74335895"><ele></ele><time>2014-6-6T17:13:36Z</time></trkpt>
<trkpt lat="46.91848864" lon="6.74379087"><ele></ele><time>2014-6-6T17:13:39Z</time></trkpt>
<trkpt lat="46.91875887" lon="6.74440820"><ele></ele><time>2014-6-6T17:13:42Z</time></trkpt>
<trkpt lat="46.91890547" lon="6.74485856"><ele></ele><time>2014-6-6T17:13:45Z</time></trkpt>
<trkpt lat="46.91894017" lon="6.74505469"><ele></ele><time>2014-6-6T17:13:48Z</time></trkpt>
<trkpt lat="46.91899038" lon="6.74523298"><ele></ele><time>2014-6-6T17:13:51Z</time></trkpt>
<trkpt lat="46.91934259" lon="6.74611148"><ele></ele><time>2014-6-6T17:13:54Z</time></trkpt>
<trkpt lat="46.91952506" lon="6.74664089"><ele></ele><time>2014-6-6T17:13:57Z</time></trkpt>
<trkpt lat="46.91969412" lon="6.74693283"><ele></ele><time>2014-6-6T17:14:0Z</time></trkpt>
<trkpt lat="46.91965054" lon="6.74705403"><ele></ele><time>2014-6-6T17:14:3Z</time></trkpt>
<trkpt lat="46.91980057" lon="6.74727238"><ele></ele><time>2014-6-6T17:14:6Z</time></trkpt>
<trkpt lat="46.91992865" lon="6.74744588"><ele></ele><time>2014-6-6T17:14:9Z</time></trkpt>
<trkpt lat="46.92003384" lon="6.74762744"><ele></ele><time>2014-6-6T17:14:12Z</time></trkpt>
<trkpt lat="46.92015965" lon="6.74790982"><ele></ele><time>2014-6-6T17:14:15Z</time></trkpt>
<trkpt lat="46.92021833" lon="6.74806774"><ele></ele><time>2014-6-6T17:14:18Z</time></trkpt>
<trkpt lat="46.92026644" lon="6.74823320"><ele></ele><time>2014-6-6T17:14:21Z</time></trkpt>
<trkpt lat="46.92039208" lon="6.74851290"><ele></ele><time>2014-6-6T17:14:24Z</time></trkpt>
<trkpt lat="46.92058655" lon="6.74883083"><ele></ele><time>2014-6-6T17:14:27Z</time></trkpt>
<trkpt lat="46.92070683" lon="6.74901799"><ele></ele><time>2014-6-6T17:14:30Z</time></trkpt>
<trkpt lat="46.92081126" lon="6.74923039"><ele></ele><time>2014-6-6T17:14:33Z</time></trkpt>
<trkpt lat="46.92096574" lon="6.74941328"><ele></ele><time>2014-6-6T17:14:36Z</time></trkpt>
<trkpt lat="46.92105568" lon="6.74954706"><ele></ele><time>2014-6-6T17:14:39Z</time></trkpt>
<trkpt lat="46.92116615" lon="6.74977974"><ele></ele><time>2014-6-6T17:14:42Z</time></trkpt>
<trkpt lat="46.92124142" lon="6.74992944"><ele></ele><time>2014-6-6T17:14:45Z</time></trkpt>
<trkpt lat="46.92135424" lon="6.75032733"><ele></ele><time>2014-6-6T17:14:48Z</time></trkpt>
<trkpt lat="46.92139884" lon="6.75052783"><ele></ele><time>2014-6-6T17:14:51Z</time></trkpt>
<trkpt lat="46.92153689" lon="6.75090836"><ele></ele><time>2014-6-6T17:14:54Z</time></trkpt>
<trkpt lat="46.92156228" lon="6.75101205"><ele></ele><time>2014-6-6T17:14:57Z</time></trkpt>
<trkpt lat="46.92161132" lon="6.75133743"><ele></ele><time>2014-6-6T17:15:0Z</time></trkpt>
<trkpt lat="46.92163219" lon="6.75179668"><ele></ele><time>2014-6-6T17:15:3Z</time></trkpt>
<trkpt lat="46.92162540" lon="6.75206968"><ele></ele><time>2014-6-6T17:15:6Z</time></trkpt>
<trkpt lat="46.92161978" lon="6.75221594"><ele></ele><time>2014-6-6T17:15:9Z</time></trkpt>
<trkpt lat="46.92159195" lon="6.75278306"><ele></ele><time>2014-6-6T17:15:12Z</time></trkpt>
<trkpt lat="46.92160855" lon="6.75299479"><ele></ele><time>2014-6-6T17:15:15Z</time></trkpt>
<trkpt lat="46.92178030" lon="6.75336577"><ele></ele><time>2014-6-6T17:15:18Z</time></trkpt>
<trkpt lat="46.92186747" lon="6.75347398"><ele></ele><time>2014-6-6T17:15:21Z</time></trkpt>
<trkpt lat="46.92193419" lon="6.75370624"><ele></ele><time>2014-6-6T17:15:24Z</time></trkpt>
<trkpt lat="46.92208657" lon="6.75403230"><ele></ele><time>2014-6-6T17:15:27Z</time></trkpt>
<trkpt lat="46.92222839" lon="6.75423305"><ele></ele><time>2014-6-6T17:15:30Z</time></trkpt>
<trkpt lat="46.92226217" lon="6.75429013"><ele></ele><time>2014-6-6T17:15:33Z</time></trkpt>
<trkpt lat="46.92239192" lon="6.75441829"><ele></ele><time>2014-6-6T17:15:36Z</time></trkpt>
<trkpt lat="46.92252193" lon="6.75457729"><ele></ele><time>2014-6-6T17:15:39Z</time></trkpt>
<trkpt lat="46.92261924" lon="6.75474937"><ele></ele><time>2014-6-6T17:15:42Z</time></trkpt>
<trkpt lat="46.92290037" lon="6.75517526"><ele></ele><time>2014-6-6T17:15:45Z</time></trkpt>
<trkpt lat="46.92294949" lon="6.75524633"><ele></ele><time>2014-6-6T17:15:48Z</time></trkpt>
<trkpt lat="46.92304814" lon="6.75534197"><ele></ele><time>2014-6-6T17:15:51Z</time></trkpt>
<trkpt lat="46.92310338" lon="6.75538036"><ele></ele><time>2014-6-6T17:15:54Z</time></trkpt>
<trkpt lat="46.92327613" lon="6.75547365"><ele></ele><time>2014-6-6T17:15:57Z</time></trkpt>
<trkpt lat="46.92345014" lon="6.75559242"><ele></ele><time>2014-6-6T17:16:0Z</time></trkpt>
<trkpt lat="46.92365575" lon="6.75582737"><ele></ele><time>2014-6-6T17:16:3Z</time></trkpt>
<trkpt lat="46.92370243" lon="6.75589870"><ele></ele><time>2014-6-6T17:16:6Z</time></trkpt>
<trkpt lat="46.92381165" lon="6.75624864"><ele></ele><time>2014-6-6T17:16:9Z</time></trkpt>
<trkpt lat="46.92383613" lon="6.75650219"><ele></ele><time>2014-6-6T17:16:12Z</time></trkpt>
<trkpt lat="46.92387946" lon="6.75680294"><ele></ele><time>2014-6-6T17:16:15Z</time></trkpt>
<trkpt lat="46.92389362" lon="6.75720418"><ele></ele><time>2014-6-6T17:16:18Z</time></trkpt>
<trkpt lat="46.92388918" lon="6.75729822"><ele></ele><time>2014-6-6T17:16:21Z</time></trkpt>
<trkpt lat="46.92389287" lon="6.75756829"><ele></ele><time>2014-6-6T17:16:24Z</time></trkpt>
<trkpt lat="46.92372322" lon="6.75807305"><ele></ele><time>2014-6-6T17:16:27Z</time></trkpt>
<trkpt lat="46.92368207" lon="6.75818142"><ele></ele><time>2014-6-6T17:16:30Z</time></trkpt>
<trkpt lat="46.92361644" lon="6.75840715"><ele></ele><time>2014-6-6T17:16:33Z</time></trkpt>
<trkpt lat="46.92348744" lon="6.75889808"><ele></ele><time>2014-6-6T17:16:36Z</time></trkpt>
<trkpt lat="46.92334520" lon="6.75891149"><ele></ele><time>2014-6-6T17:16:39Z</time></trkpt>
<trkpt lat="46.92331578" lon="6.75887176"><ele></ele><time>2014-6-6T17:16:42Z</time></trkpt>
<trkpt lat="46.92322064" lon="6.75873614"><ele></ele><time>2014-6-6T17:16:45Z</time></trkpt>
<trkpt lat="46.92312165" lon="6.75869440"><ele></ele><time>2014-6-6T17:16:48Z</time></trkpt>
<trkpt lat="46.92310866" lon="6.75867202"><ele></ele><time>2014-6-6T17:16:51Z</time></trkpt>
<trkpt lat="46.92298746" lon="6.75885466"><ele></ele><time>2014-6-6T17:16:54Z</time></trkpt>
<trkpt lat="46.92296332" lon="6.75890654"><ele></ele><time>2014-6-6T17:16:57Z</time></trkpt>
<trkpt lat="46.92283818" lon="6.75917602"><ele></ele><time>2014-6-6T17:17:0Z</time></trkpt>
<trkpt lat="46.92276333" lon="6.75940627"><ele></ele><time>2014-6-6T17:17:3Z</time></trkpt>
<trkpt lat="46.92274908" lon="6.75956167"><ele></ele><time>2014-6-6T17:17:6Z</time></trkpt>
<trkpt lat="46.92272485" lon="6.75996987"><ele></ele><time>2014-6-6T17:17:9Z</time></trkpt>
<trkpt lat="46.92277464" lon="6.76028972"><ele></ele><time>2014-6-6T17:17:12Z</time></trkpt>
<trkpt lat="46.92283692" lon="6.76055803"><ele></ele><time>2014-6-6T17:17:15Z</time></trkpt>
<trkpt lat="46.92290733" lon="6.76077076"><ele></ele><time>2014-6-6T17:17:18Z</time></trkpt>
<trkpt lat="46.92294555" lon="6.76085416"><ele></ele><time>2014-6-6T17:17:21Z</time></trkpt>
<trkpt lat="46.92303616" lon="6.76100504"><ele></ele><time>2014-6-6T17:17:24Z</time></trkpt>
<trkpt lat="46.92308963" lon="6.76152765"><ele></ele><time>2014-6-6T17:17:27Z</time></trkpt>
<trkpt lat="46.92309969" lon="6.76160526"><ele></ele><time>2014-6-6T17:17:30Z</time></trkpt>
<trkpt lat="46.92319617" lon="6.76187407"><ele></ele><time>2014-6-6T17:17:33Z</time></trkpt>
<trkpt lat="46.92327437" lon="6.76208270"><ele></ele><time>2014-6-6T17:17:36Z</time></trkpt>
<trkpt lat="46.92339398" lon="6.76232577"><ele></ele><time>2014-6-6T17:17:39Z</time></trkpt>
<trkpt lat="46.92348333" lon="6.76246483"><ele></ele><time>2014-6-6T17:17:42Z</time></trkpt>
<trkpt lat="46.92356950" lon="6.76260372"><ele></ele><time>2014-6-6T17:17:45Z</time></trkpt>
<trkpt lat="46.92362557" lon="6.76276658"><ele></ele><time>2014-6-6T17:17:48Z</time></trkpt>
<trkpt lat="46.92369916" lon="6.76311376"><ele></ele><time>2014-6-6T17:17:51Z</time></trkpt>
<trkpt lat="46.92372750" lon="6.76333018"><ele></ele><time>2014-6-6T17:17:54Z</time></trkpt>
<trkpt lat="46.92390125" lon="6.76391079"><ele></ele><time>2014-6-6T17:17:57Z</time></trkpt>
<trkpt lat="46.92391005" lon="6.76447372"><ele></ele><time>2014-6-6T17:18:0Z</time></trkpt>
<trkpt lat="46.92395288" lon="6.76496658"><ele></ele><time>2014-6-6T17:18:3Z</time></trkpt>
<trkpt lat="46.92404693" lon="6.76541048"><ele></ele><time>2014-6-6T17:18:6Z</time></trkpt>
<trkpt lat="46.92408968" lon="6.76566152"><ele></ele><time>2014-6-6T17:18:9Z</time></trkpt>
<trkpt lat="46.92408373" lon="6.76588406"><ele></ele><time>2014-6-6T17:18:12Z</time></trkpt>
<trkpt lat="46.92425069" lon="6.76642779"><ele></ele><time>2014-6-6T17:18:15Z</time></trkpt>
<trkpt lat="46.92432429" lon="6.76666902"><ele></ele><time>2014-6-6T17:18:18Z</time></trkpt>
<trkpt lat="46.92434273" lon="6.76672409"><ele></ele><time>2014-6-6T17:18:21Z</time></trkpt>
<trkpt lat="46.92433694" lon="6.76709432"><ele></ele><time>2014-6-6T17:18:24Z</time></trkpt>
<trkpt lat="46.92435170" lon="6.76727629"><ele></ele><time>2014-6-6T17:18:27Z</time></trkpt>
<trkpt lat="46.92433627" lon="6.76741376"><ele></ele><time>2014-6-6T17:18:30Z</time></trkpt>
<trkpt lat="46.92430124" lon="6.76747226"><ele></ele><time>2014-6-6T17:18:33Z</time></trkpt>
<trkpt lat="46.92420158" lon="6.76751233"><ele></ele><time>2014-6-6T17:18:36Z</time></trkpt>
<trkpt lat="46.92428229" lon="6.76739523"><ele></ele><time>2014-6-6T17:18:39Z</time></trkpt>
<trkpt lat="46.92434197" lon="6.76734125"><ele></ele><time>2014-6-6T17:18:42Z</time></trkpt>
<trkpt lat="46.92436796" lon="6.76735307"><ele></ele><time>2014-6-6T17:18:45Z</time></trkpt>
<trkpt lat="46.92454674" lon="6.76759598"><ele></ele><time>2014-6-6T17:18:48Z</time></trkpt>
<trkpt lat="46.92452009" lon="6.76766387"><ele></ele><time>2014-6-6T17:18:51Z</time></trkpt>
<trkpt lat="46.92442462" lon="6.76810635"><ele></ele><time>2014-6-6T17:18:54Z</time></trkpt>
<trkpt lat="46.92441230" lon="6.76826854"><ele></ele><time>2014-6-6T17:18:57Z</time></trkpt>
<trkpt lat="46.92441825" lon="6.76850424"><ele></ele><time>2014-6-6T17:19:0Z</time></trkpt>
<trkpt lat="46.92443459" lon="6.76857783"><ele></ele><time>2014-6-6T17:19:3Z</time></trkpt>
<trkpt lat="46.92464347" lon="6.76898913"><ele></ele><time>2014-6-6T17:19:6Z</time></trkpt>
<trkpt lat="46.92478722" lon="6.76926264"><ele></ele><time>2014-6-6T17:19:9Z</time></trkpt>
<trkpt lat="46.92489635" lon="6.76948794"><ele></ele><time>2014-6-6T17:19:12Z</time></trkpt>
<trkpt lat="46.92511219" lon="6.76993679"><ele></ele><time>2014-6-6T17:19:15Z</time></trkpt>
<trkpt lat="46.92530975" lon="6.77034223"><ele></ele><time>2014-6-6T17:19:18Z</time></trkpt>
<trkpt lat="46.92543816" lon="6.77070868"><ele></ele><time>2014-6-6T17:19:21Z</time></trkpt>
<trkpt lat="46.92547579" lon="6.77088537"><ele></ele><time>2014-6-6T17:19:24Z</time></trkpt>
<trkpt lat="46.92552717" lon="6.77101579"><ele></ele><time>2014-6-6T17:19:27Z</time></trkpt>
<trkpt lat="46.92589564" lon="6.77121394"><ele></ele><time>2014-6-6T17:19:30Z</time></trkpt>
<trkpt lat="46.92584988" lon="6.77139474"><ele></ele><time>2014-6-6T17:19:33Z</time></trkpt>
<trkpt lat="46.92576648" lon="6.77192096"><ele></ele><time>2014-6-6T17:19:36Z</time></trkpt>
<trkpt lat="46.92580746" lon="6.77253543"><ele></ele><time>2014-6-6T17:19:39Z</time></trkpt>
<trkpt lat="46.92607242" lon="6.77287649"><ele></ele><time>2014-6-6T17:19:42Z</time></trkpt>
<trkpt lat="46.92633645" lon="6.77309434"><ele></ele><time>2014-6-6T17:19:45Z</time></trkpt>
<trkpt lat="46.92653602" lon="6.77346197"><ele></ele><time>2014-6-6T17:19:48Z</time></trkpt>
<trkpt lat="46.92669419" lon="6.77389096"><ele></ele><time>2014-6-6T17:19:51Z</time></trkpt>
<trkpt lat="46.92689317" lon="6.77443368"><ele></ele><time>2014-6-6T17:19:54Z</time></trkpt>
<trkpt lat="46.92710180" lon="6.77486493"><ele></ele><time>2014-6-6T17:19:57Z</time></trkpt>
<trkpt lat="46.92724245" lon="6.77532485"><ele></ele><time>2014-6-6T17:20:0Z</time></trkpt>
<trkpt lat="46.92745216" lon="6.77587437"><ele></ele><time>2014-6-6T17:20:3Z</time></trkpt>
<trkpt lat="46.92775425" lon="6.77656696"><ele></ele><time>2014-6-6T17:20:6Z</time></trkpt>
<trkpt lat="46.92790110" lon="6.77696502"><ele></ele><time>2014-6-6T17:20:9Z</time></trkpt>
<trkpt lat="46.92796564" lon="6.77743373"><ele></ele><time>2014-6-6T17:20:12Z</time></trkpt>
<trkpt lat="46.92802599" lon="6.77793070"><ele></ele><time>2014-6-6T17:20:15Z</time></trkpt>
<trkpt lat="46.92801668" lon="6.77818174"><ele></ele><time>2014-6-6T17:20:18Z</time></trkpt>
<trkpt lat="46.92805097" lon="6.77814133"><ele></ele><time>2014-6-6T17:20:21Z</time></trkpt>
<trkpt lat="46.92816638" lon="6.77843009"><ele></ele><time>2014-6-6T17:20:24Z</time></trkpt>
<trkpt lat="46.92844978" lon="6.77882144"><ele></ele><time>2014-6-6T17:20:27Z</time></trkpt>
<trkpt lat="46.92869294" lon="6.77930248"><ele></ele><time>2014-6-6T17:20:30Z</time></trkpt>
<trkpt lat="46.92876628" lon="6.77947163"><ele></ele><time>2014-6-6T17:20:33Z</time></trkpt>
<trkpt lat="46.92885915" lon="6.77966500"><ele></ele><time>2014-6-6T17:20:36Z</time></trkpt>
<trkpt lat="46.92891598" lon="6.77974412"><ele></ele><time>2014-6-6T17:20:39Z</time></trkpt>
<trkpt lat="46.92906023" lon="6.77990472"><ele></ele><time>2014-6-6T17:20:42Z</time></trkpt>
<trkpt lat="46.92947949" lon="6.78039129"><ele></ele><time>2014-6-6T17:20:45Z</time></trkpt>
<trkpt lat="46.92970832" lon="6.78073478"><ele></ele><time>2014-6-6T17:20:48Z</time></trkpt>
<trkpt lat="46.93000956" lon="6.78122512"><ele></ele><time>2014-6-6T17:20:51Z</time></trkpt>
<trkpt lat="46.93026722" lon="6.78147339"><ele></ele><time>2014-6-6T17:20:54Z</time></trkpt>
<trkpt lat="46.93052019" lon="6.78172996"><ele></ele><time>2014-6-6T17:20:57Z</time></trkpt>
<trkpt lat="46.93087659" lon="6.78203674"><ele></ele><time>2014-6-6T17:21:0Z</time></trkpt>
<trkpt lat="46.93108446" lon="6.78216632"><ele></ele><time>2014-6-6T17:21:3Z</time></trkpt>
<trkpt lat="46.93134765" lon="6.78227495"><ele></ele><time>2014-6-6T17:21:6Z</time></trkpt>
<trkpt lat="46.93159265" lon="6.78237093"><ele></ele><time>2014-6-6T17:21:9Z</time></trkpt>
<trkpt lat="46.93188552" lon="6.78254854"><ele></ele><time>2014-6-6T17:21:12Z</time></trkpt>
<trkpt lat="46.93217905" lon="6.78276177"><ele></ele><time>2014-6-6T17:21:15Z</time></trkpt>
<trkpt lat="46.93221107" lon="6.78279539"><ele></ele><time>2014-6-6T17:21:18Z</time></trkpt>
<trkpt lat="46.93245105" lon="6.78304458"><ele></ele><time>2014-6-6T17:21:21Z</time></trkpt>
<trkpt lat="46.93273645" lon="6.78330425"><ele></ele><time>2014-6-6T17:21:24Z</time></trkpt>
<trkpt lat="46.93294893" lon="6.78351958"><ele></ele><time>2014-6-6T17:21:27Z</time></trkpt>
<trkpt lat="46.93312336" lon="6.78361413"><ele></ele><time>2014-6-6T17:21:30Z</time></trkpt>
<trkpt lat="46.93331446" lon="6.78373709"><ele></ele><time>2014-6-6T17:21:33Z</time></trkpt>
<trkpt lat="46.93337976" lon="6.78386073"><ele></ele><time>2014-6-6T17:21:36Z</time></trkpt>
<trkpt lat="46.93351303" lon="6.78421092"><ele></ele><time>2014-6-6T17:21:39Z</time></trkpt>
<trkpt lat="46.93364790" lon="6.78459289"><ele></ele><time>2014-6-6T17:21:42Z</time></trkpt>
<trkpt lat="46.93370028" lon="6.78468886"><ele></ele><time>2014-6-6T17:21:45Z</time></trkpt>
<trkpt lat="46.93371504" lon="6.78473328"><ele></ele><time>2014-6-6T17:21:48Z</time></trkpt>
<trkpt lat="46.93377480" lon="6.78483579"><ele></ele><time>2014-6-6T17:21:51Z</time></trkpt>
<trkpt lat="46.93396138" lon="6.78506529"><ele></ele><time>2014-6-6T17:21:54Z</time></trkpt>
<trkpt lat="46.93412256" lon="6.78530644"><ele></ele><time>2014-6-6T17:21:57Z</time></trkpt>
<trkpt lat="46.93438970" lon="6.78561598"><ele></ele><time>2014-6-6T17:22:0Z</time></trkpt>
<trkpt lat="46.93445709" lon="6.78578303"><ele></ele><time>2014-6-6T17:22:3Z</time></trkpt>
<trkpt lat="46.93466152" lon="6.78591538"><ele></ele><time>2014-6-6T17:22:6Z</time></trkpt>
<trkpt lat="46.93478323" lon="6.78601152"><ele></ele><time>2014-6-6T17:22:9Z</time></trkpt>
<trkpt lat="46.93494793" lon="6.78624890"><ele></ele><time>2014-6-6T17:22:12Z</time></trkpt>
<trkpt lat="46.93506067" lon="6.78635795"><ele></ele><time>2014-6-6T17:22:15Z</time></trkpt>
<trkpt lat="46.93525613" lon="6.78663949"><ele></ele><time>2014-6-6T17:22:18Z</time></trkpt>
<trkpt lat="46.93546568" lon="6.78697754"><ele></ele><time>2014-6-6T17:22:21Z</time></trkpt>
<trkpt lat="46.93563315" lon="6.78725808"><ele></ele><time>2014-6-6T17:22:24Z</time></trkpt>
<trkpt lat="46.93575008" lon="6.78750132"><ele></ele><time>2014-6-6T17:22:27Z</time></trkpt>
<trkpt lat="46.93572837" lon="6.78808076"><ele></ele><time>2014-6-6T17:22:30Z</time></trkpt>
<trkpt lat="46.93574656" lon="6.78825192"><ele></ele><time>2014-6-6T17:22:33Z</time></trkpt>
<trkpt lat="46.93591277" lon="6.78869792"><ele></ele><time>2014-6-6T17:22:36Z</time></trkpt>
<trkpt lat="46.93598075" lon="6.78883254"><ele></ele><time>2014-6-6T17:22:39Z</time></trkpt>
<trkpt lat="46.93612156" lon="6.78930905"><ele></ele><time>2014-6-6T17:22:42Z</time></trkpt>
<trkpt lat="46.93616708" lon="6.78947954"><ele></ele><time>2014-6-6T17:22:45Z</time></trkpt>
<trkpt lat="46.93636925" lon="6.78998136"><ele></ele><time>2014-6-6T17:22:48Z</time></trkpt>
<trkpt lat="46.93654376" lon="6.79031362"><ele></ele><time>2014-6-6T17:22:51Z</time></trkpt>
<trkpt lat="46.93683470" lon="6.79080262"><ele></ele><time>2014-6-6T17:22:54Z</time></trkpt>
<trkpt lat="46.93701767" lon="6.79113228"><ele></ele><time>2014-6-6T17:22:57Z</time></trkpt>
<trkpt lat="46.93721054" lon="6.79146739"><ele></ele><time>2014-6-6T17:23:0Z</time></trkpt>
<trkpt lat="46.93740089" lon="6.79179772"><ele></ele><time>2014-6-6T17:23:3Z</time></trkpt>
<trkpt lat="46.93765973" lon="6.79225076"><ele></ele><time>2014-6-6T17:23:6Z</time></trkpt>
<trkpt lat="46.93787917" lon="6.79263733"><ele></ele><time>2014-6-6T17:23:9Z</time></trkpt>
<trkpt lat="46.93793935" lon="6.79275543"><ele></ele><time>2014-6-6T17:23:12Z</time></trkpt>
<trkpt lat="46.93803675" lon="6.79297596"><ele></ele><time>2014-6-6T17:23:15Z</time></trkpt>
<trkpt lat="46.93828485" lon="6.79322926"><ele></ele><time>2014-6-6T17:23:18Z</time></trkpt>
<trkpt lat="46.93851803" lon="6.79363268"><ele></ele><time>2014-6-6T17:23:21Z</time></trkpt>
<trkpt lat="46.93860705" lon="6.79385874"><ele></ele><time>2014-6-6T17:23:24Z</time></trkpt>
<trkpt lat="46.93889069" lon="6.79428220"><ele></ele><time>2014-6-6T17:23:27Z</time></trkpt>
<trkpt lat="46.93905917" lon="6.79451915"><ele></ele><time>2014-6-6T17:23:30Z</time></trkpt>
<trkpt lat="46.93929847" lon="6.79485912"><ele></ele><time>2014-6-6T17:23:33Z</time></trkpt>
<trkpt lat="46.93936343" lon="6.79494923"><ele></ele><time>2014-6-6T17:23:36Z</time></trkpt>
<trkpt lat="46.93945220" lon="6.79528107"><ele></ele><time>2014-6-6T17:23:39Z</time></trkpt>
<trkpt lat="46.93938732" lon="6.79522173"><ele></ele><time>2014-6-6T17:23:42Z</time></trkpt>
<trkpt lat="46.93935094" lon="6.79516925"><ele></ele><time>2014-6-6T17:23:45Z</time></trkpt>
<trkpt lat="46.93928313" lon="6.79514738"><ele></ele><time>2014-6-6T17:23:48Z</time></trkpt>
<trkpt lat="46.93919579" lon="6.79511972"><ele></ele><time>2014-6-6T17:23:51Z</time></trkpt>
<trkpt lat="46.93898952" lon="6.79498167"><ele></ele><time>2014-6-6T17:23:54Z</time></trkpt>
<trkpt lat="46.93880646" lon="6.79492467"><ele></ele><time>2014-6-6T17:23:57Z</time></trkpt>
<trkpt lat="46.93861250" lon="6.79493045"><ele></ele><time>2014-6-6T17:24:0Z</time></trkpt>
<trkpt lat="46.93847805" lon="6.79492333"><ele></ele><time>2014-6-6T17:24:3Z</time></trkpt>
<trkpt lat="46.93822643" lon="6.79492442"><ele></ele><time>2014-6-6T17:24:6Z</time></trkpt>
<trkpt lat="46.93787313" lon="6.79488393"><ele></ele><time>2014-6-6T17:24:9Z</time></trkpt>
<trkpt lat="46.93762243" lon="6.79485912"><ele></ele><time>2014-6-6T17:24:12Z</time></trkpt>
<trkpt lat="46.93735563" lon="6.79482778"><ele></ele><time>2014-6-6T17:24:15Z</time></trkpt>
<trkpt lat="46.93708674" lon="6.79480313"><ele></ele><time>2014-6-6T17:24:18Z</time></trkpt>
<trkpt lat="46.93683285" lon="6.79480799"><ele></ele><time>2014-6-6T17:24:21Z</time></trkpt>
<trkpt lat="46.93644502" lon="6.79473063"><ele></ele><time>2014-6-6T17:24:24Z</time></trkpt>
<trkpt lat="46.93615794" lon="6.79469618"><ele></ele><time>2014-6-6T17:24:27Z</time></trkpt>
<trkpt lat="46.93600933" lon="6.79466416"><ele></ele><time>2014-6-6T17:24:30Z</time></trkpt>
<trkpt lat="46.93571806" lon="6.79458017"><ele></ele><time>2014-6-6T17:24:33Z</time></trkpt>
<trkpt lat="46.93543777" lon="6.79447993"><ele></ele><time>2014-6-6T17:24:36Z</time></trkpt>
<trkpt lat="46.93515689" lon="6.79439703"><ele></ele><time>2014-6-6T17:24:39Z</time></trkpt>
<trkpt lat="46.93475012" lon="6.79425345"><ele></ele><time>2014-6-6T17:24:42Z</time></trkpt>
<trkpt lat="46.93449983" lon="6.79415219"><ele></ele><time>2014-6-6T17:24:45Z</time></trkpt>
<trkpt lat="46.93405065" lon="6.79401188"><ele></ele><time>2014-6-6T17:24:48Z</time></trkpt>
<trkpt lat="46.93376608" lon="6.79400702"><ele></ele><time>2014-6-6T17:24:51Z</time></trkpt>
<trkpt lat="46.93353139" lon="6.79413325"><ele></ele><time>2014-6-6T17:24:54Z</time></trkpt>
<trkpt lat="46.93338169" lon="6.79421464"><ele></ele><time>2014-6-6T17:24:57Z</time></trkpt>
<trkpt lat="46.93322687" lon="6.79428237"><ele></ele><time>2014-6-6T17:25:0Z</time></trkpt>
<trkpt lat="46.93312093" lon="6.79444447"><ele></ele><time>2014-6-6T17:25:3Z</time></trkpt>
<trkpt lat="46.93345654" lon="6.79463256"><ele></ele><time>2014-6-6T17:25:6Z</time></trkpt>
<trkpt lat="46.93393934" lon="6.79489056"><ele></ele><time>2014-6-6T17:25:9Z</time></trkpt>
<trkpt lat="46.93409616" lon="6.79506834"><ele></ele><time>2014-6-6T17:25:12Z</time></trkpt>
<trkpt lat="46.93426095" lon="6.79526288"><ele></ele><time>2014-6-6T17:25:15Z</time></trkpt>
<trkpt lat="46.93434795" lon="6.79534628"><ele></ele><time>2014-6-6T17:25:18Z</time></trkpt>
<trkpt lat="46.93450034" lon="6.79544603"><ele></ele><time>2014-6-6T17:25:21Z</time></trkpt>
<trkpt lat="46.93476445" lon="6.79572363"><ele></ele><time>2014-6-6T17:25:24Z</time></trkpt>
<trkpt lat="46.93481944" lon="6.79579195"><ele></ele><time>2014-6-6T17:25:27Z</time></trkpt>
<trkpt lat="46.93485246" lon="6.79592748"><ele></ele><time>2014-6-6T17:25:30Z</time></trkpt>
<trkpt lat="46.93490535" lon="6.79606318"><ele></ele><time>2014-6-6T17:25:33Z</time></trkpt>
<trkpt lat="46.93502856" lon="6.79652025"><ele></ele><time>2014-6-6T17:25:36Z</time></trkpt>
<trkpt lat="46.93507156" lon="6.79661924"><ele></ele><time>2014-6-6T17:25:39Z</time></trkpt>
<trkpt lat="46.93525244" lon="6.79709919"><ele></ele><time>2014-6-6T17:25:42Z</time></trkpt>
<trkpt lat="46.93548487" lon="6.79753622"><ele></ele><time>2014-6-6T17:25:45Z</time></trkpt>
<trkpt lat="46.93571588" lon="6.79795523"><ele></ele><time>2014-6-6T17:25:48Z</time></trkpt>
<trkpt lat="46.93588830" lon="6.79823720"><ele></ele><time>2014-6-6T17:25:51Z</time></trkpt>
<trkpt lat="46.93599944" lon="6.79843174"><ele></ele><time>2014-6-6T17:25:54Z</time></trkpt>
<trkpt lat="46.93611343" lon="6.79866266"><ele></ele><time>2014-6-6T17:25:57Z</time></trkpt>
<trkpt lat="46.93638652" lon="6.79909685"><ele></ele><time>2014-6-6T17:26:0Z</time></trkpt>
<trkpt lat="46.93673193" lon="6.79947143"><ele></ele><time>2014-6-6T17:26:3Z</time></trkpt>
<trkpt lat="46.93675297" lon="6.79947588"><ele></ele><time>2014-6-6T17:26:6Z</time></trkpt>
<trkpt lat="46.93672112" lon="6.79950429"><ele></ele><time>2014-6-6T17:26:9Z</time></trkpt>
<trkpt lat="46.93681156" lon="6.79945626"><ele></ele><time>2014-6-6T17:26:12Z</time></trkpt>
<trkpt lat="46.93692438" lon="6.79940396"><ele></ele><time>2014-6-6T17:26:15Z</time></trkpt>
<trkpt lat="46.93728782" lon="6.79934822"><ele></ele><time>2014-6-6T17:26:18Z</time></trkpt>
<trkpt lat="46.93764724" lon="6.79935887"><ele></ele><time>2014-6-6T17:26:21Z</time></trkpt>
<trkpt lat="46.93794647" lon="6.79938996"><ele></ele><time>2014-6-6T17:26:24Z</time></trkpt>
<trkpt lat="46.93828099" lon="6.79943070"><ele></ele><time>2014-6-6T17:26:27Z</time></trkpt>
<trkpt lat="46.93842885" lon="6.79963086"><ele></ele><time>2014-6-6T17:26:30Z</time></trkpt>
<trkpt lat="46.93843162" lon="6.79965282"><ele></ele><time>2014-6-6T17:26:33Z</time></trkpt>
<trkpt lat="46.93843707" lon="6.79971887"><ele></ele><time>2014-6-6T17:26:36Z</time></trkpt>
<trkpt lat="46.93848467" lon="6.80006018"><ele></ele><time>2014-6-6T17:26:39Z</time></trkpt>
<trkpt lat="46.93849473" lon="6.80008164"><ele></ele><time>2014-6-6T17:26:42Z</time></trkpt>
<trkpt lat="46.93853128" lon="6.80017225"><ele></ele><time>2014-6-6T17:26:45Z</time></trkpt>
<trkpt lat="46.93861577" lon="6.80026956"><ele></ele><time>2014-6-6T17:26:48Z</time></trkpt>
<trkpt lat="46.93880143" lon="6.80047777"><ele></ele><time>2014-6-6T17:26:51Z</time></trkpt>
<trkpt lat="46.93901215" lon="6.80051565"><ele></ele><time>2014-6-6T17:26:54Z</time></trkpt>
<trkpt lat="46.93928096" lon="6.80050442"><ele></ele><time>2014-6-6T17:26:57Z</time></trkpt>
<trkpt lat="46.93968396" lon="6.80081698"><ele></ele><time>2014-6-6T17:27:0Z</time></trkpt>
<trkpt lat="46.94006022" lon="6.80113994"><ele></ele><time>2014-6-6T17:27:3Z</time></trkpt>
<trkpt lat="46.94009836" lon="6.80118277"><ele></ele><time>2014-6-6T17:27:6Z</time></trkpt>
<trkpt lat="46.94053003" lon="6.80114815"><ele></ele><time>2014-6-6T17:27:9Z</time></trkpt>
<trkpt lat="46.94060965" lon="6.80102653"><ele></ele><time>2014-6-6T17:27:12Z</time></trkpt>
<trkpt lat="46.94069012" lon="6.80092226"><ele></ele><time>2014-6-6T17:27:15Z</time></trkpt>
<trkpt lat="46.94095876" lon="6.80084598"><ele></ele><time>2014-6-6T17:27:18Z</time></trkpt>
<trkpt lat="46.94144877" lon="6.80096090"><ele></ele><time>2014-6-6T17:27:21Z</time></trkpt>
<trkpt lat="46.94156888" lon="6.80092595"><ele></ele><time>2014-6-6T17:27:24Z</time></trkpt>
<trkpt lat="46.94204908" lon="6.80122468"><ele></ele><time>2014-6-6T17:27:27Z</time></trkpt>
<trkpt lat="46.94214388" lon="6.80186899"><ele></ele><time>2014-6-6T17:27:30Z</time></trkpt>
<trkpt lat="46.94228025" lon="6.80227267"><ele></ele><time>2014-6-6T17:27:33Z</time></trkpt>
<trkpt lat="46.94236675" lon="6.80248473"><ele></ele><time>2014-6-6T17:27:36Z</time></trkpt>
<trkpt lat="46.94242509" lon="6.80266838"><ele></ele><time>2014-6-6T17:27:39Z</time></trkpt>
<trkpt lat="46.94246197" lon="6.80273493"><ele></ele><time>2014-6-6T17:27:42Z</time></trkpt>
<trkpt lat="46.94256012" lon="6.80276628"><ele></ele><time>2014-6-6T17:27:45Z</time></trkpt>
<trkpt lat="46.94287436" lon="6.80287692"><ele></ele><time>2014-6-6T17:27:48Z</time></trkpt>
<trkpt lat="46.94319153" lon="6.80314070"><ele></ele><time>2014-6-6T17:27:51Z</time></trkpt>
<trkpt lat="46.94355204" lon="6.80320339"><ele></ele><time>2014-6-6T17:27:54Z</time></trkpt>
<trkpt lat="46.94381104" lon="6.80305989"><ele></ele><time>2014-6-6T17:27:57Z</time></trkpt>
<trkpt lat="46.94409150" lon="6.80294137"><ele></ele><time>2014-6-6T17:28:0Z</time></trkpt>
<trkpt lat="46.94442426" lon="6.80314832"><ele></ele><time>2014-6-6T17:28:3Z</time></trkpt>
<trkpt lat="46.94460413" lon="6.80346642"><ele></ele><time>2014-6-6T17:28:6Z</time></trkpt>
<trkpt lat="46.94464973" lon="6.80373112"><ele></ele><time>2014-6-6T17:28:9Z</time></trkpt>
<trkpt lat="46.94465719" lon="6.80388015"><ele></ele><time>2014-6-6T17:28:12Z</time></trkpt>
<trkpt lat="46.94470380" lon="6.80393983"><ele></ele><time>2014-6-6T17:28:15Z</time></trkpt>
<trkpt lat="46.94490722" lon="6.80429975"><ele></ele><time>2014-6-6T17:28:18Z</time></trkpt>
<trkpt lat="46.94532473" lon="6.80445665"><ele></ele><time>2014-6-6T17:28:21Z</time></trkpt>
<trkpt lat="46.94576017" lon="6.80454735"><ele></ele><time>2014-6-6T17:28:24Z</time></trkpt>
<trkpt lat="46.94620114" lon="6.80442774"><ele></ele><time>2014-6-6T17:28:27Z</time></trkpt>
<trkpt lat="46.94624078" lon="6.80439278"><ele></ele><time>2014-6-6T17:28:30Z</time></trkpt>
<trkpt lat="46.94651152" lon="6.80401895"><ele></ele><time>2014-6-6T17:28:33Z</time></trkpt>
<trkpt lat="46.94680799" lon="6.80382114"><ele></ele><time>2014-6-6T17:28:36Z</time></trkpt>
<trkpt lat="46.94714293" lon="6.80379088"><ele></ele><time>2014-6-6T17:28:39Z</time></trkpt>
<trkpt lat="46.94737896" lon="6.80349022"><ele></ele><time>2014-6-6T17:28:42Z</time></trkpt>
<trkpt lat="46.94751014" lon="6.80321638"><ele></ele><time>2014-6-6T17:28:45Z</time></trkpt>
<trkpt lat="46.94759849" lon="6.80326357"><ele></ele><time>2014-6-6T17:28:48Z</time></trkpt>
<trkpt lat="46.94760159" lon="6.80326575"><ele></ele><time>2014-6-6T17:28:51Z</time></trkpt>
<trkpt lat="46.94759438" lon="6.80323935"><ele></ele><time>2014-6-6T17:28:54Z</time></trkpt>
<trkpt lat="46.94757267" lon="6.80317682"><ele></ele><time>2014-6-6T17:28:57Z</time></trkpt>
<trkpt lat="46.94775305" lon="6.80329593"><ele></ele><time>2014-6-6T17:29:0Z</time></trkpt>
<trkpt lat="46.94785606" lon="6.80340489"><ele></ele><time>2014-6-6T17:29:3Z</time></trkpt>
<trkpt lat="46.94798497" lon="6.80352878"><ele></ele><time>2014-6-6T17:29:6Z</time></trkpt>
<trkpt lat="46.94813434" lon="6.80364353"><ele></ele><time>2014-6-6T17:29:9Z</time></trkpt>
<trkpt lat="46.94846987" lon="6.80387587"><ele></ele><time>2014-6-6T17:29:12Z</time></trkpt>
<trkpt lat="46.94855285" lon="6.80393329"><ele></ele><time>2014-6-6T17:29:15Z</time></trkpt>
<trkpt lat="46.94879106" lon="6.80435817"><ele></ele><time>2014-6-6T17:29:18Z</time></trkpt>
<trkpt lat="46.94901880" lon="6.80449622"><ele></ele><time>2014-6-6T17:29:21Z</time></trkpt>
<trkpt lat="46.94929532" lon="6.80448138"><ele></ele><time>2014-6-6T17:29:24Z</time></trkpt>
<trkpt lat="46.94949162" lon="6.80459755"><ele></ele><time>2014-6-6T17:29:27Z</time></trkpt>
<trkpt lat="46.94968784" lon="6.80474189"><ele></ele><time>2014-6-6T17:29:30Z</time></trkpt>
<trkpt lat="46.94984978" lon="6.80485488"><ele></ele><time>2014-6-6T17:29:33Z</time></trkpt>
<trkpt lat="46.94997903" lon="6.80520005"><ele></ele><time>2014-6-6T17:29:36Z</time></trkpt>
<trkpt lat="46.94984023" lon="6.80535612"><ele></ele><time>2014-6-6T17:29:39Z</time></trkpt>
<trkpt lat="46.94969388" lon="6.80545033"><ele></ele><time>2014-6-6T17:29:42Z</time></trkpt>
<trkpt lat="46.94949070" lon="6.80574185"><ele></ele><time>2014-6-6T17:29:45Z</time></trkpt>
<trkpt lat="46.94915098" lon="6.80630679"><ele></ele><time>2014-6-6T17:29:48Z</time></trkpt>
<trkpt lat="46.94898988" lon="6.80629942"><ele></ele><time>2014-6-6T17:29:51Z</time></trkpt>
<trkpt lat="46.94882937" lon="6.80674793"><ele></ele><time>2014-6-6T17:29:54Z</time></trkpt>
<trkpt lat="46.94884035" lon="6.80715538"><ele></ele><time>2014-6-6T17:29:57Z</time></trkpt>
<trkpt lat="46.94878947" lon="6.80753667"><ele></ele><time>2014-6-6T17:30:0Z</time></trkpt>
<trkpt lat="46.94867522" lon="6.80769282"><ele></ele><time>2014-6-6T17:30:3Z</time></trkpt>
<trkpt lat="46.94850977" lon="6.80775099"><ele></ele><time>2014-6-6T17:30:6Z</time></trkpt>
<trkpt lat="46.94831640" lon="6.80777564"><ele></ele><time>2014-6-6T17:30:9Z</time></trkpt>
<trkpt lat="46.94808514" lon="6.80794688"><ele></ele><time>2014-6-6T17:30:12Z</time></trkpt>
<trkpt lat="46.94789059" lon="6.80832842"><ele></ele><time>2014-6-6T17:30:15Z</time></trkpt>
<trkpt lat="46.94773922" lon="6.80850210"><ele></ele><time>2014-6-6T17:30:18Z</time></trkpt>
<trkpt lat="46.94766596" lon="6.80856035"><ele></ele><time>2014-6-6T17:30:21Z</time></trkpt>
<trkpt lat="46.94742599" lon="6.80882287"><ele></ele><time>2014-6-6T17:30:24Z</time></trkpt>
<trkpt lat="46.94744149" lon="6.80881432"><ele></ele><time>2014-6-6T17:30:27Z</time></trkpt>
<trkpt lat="46.94742397" lon="6.80877753"><ele></ele><time>2014-6-6T17:30:30Z</time></trkpt>
<trkpt lat="46.94734493" lon="6.80881667"><ele></ele><time>2014-6-6T17:30:33Z</time></trkpt>
<trkpt lat="46.94711083" lon="6.80885397"><ele></ele><time>2014-6-6T17:30:36Z</time></trkpt>
<trkpt lat="46.94694797" lon="6.80890736"><ele></ele><time>2014-6-6T17:30:39Z</time></trkpt>
<trkpt lat="46.94674060" lon="6.80929494"><ele></ele><time>2014-6-6T17:30:42Z</time></trkpt>
<trkpt lat="46.94663985" lon="6.80957096"><ele></ele><time>2014-6-6T17:30:45Z</time></trkpt>
<trkpt lat="46.94646073" lon="6.80977346"><ele></ele><time>2014-6-6T17:30:48Z</time></trkpt>
<trkpt lat="46.94624263" lon="6.80986986"><ele></ele><time>2014-6-6T17:30:51Z</time></trkpt>
<trkpt lat="46.94605018" lon="6.80983398"><ele></ele><time>2014-6-6T17:30:54Z</time></trkpt>
<trkpt lat="46.94582672" lon="6.80985678"><ele></ele><time>2014-6-6T17:30:57Z</time></trkpt>
<trkpt lat="46.94580149" lon="6.80986793"><ele></ele><time>2014-6-6T17:31:0Z</time></trkpt>
<trkpt lat="46.94567962" lon="6.80999047"><ele></ele><time>2014-6-6T17:31:3Z</time></trkpt>
<trkpt lat="46.94538432" lon="6.81024226"><ele></ele><time>2014-6-6T17:31:6Z</time></trkpt>
<trkpt lat="46.94510395" lon="6.81043530"><ele></ele><time>2014-6-6T17:31:9Z</time></trkpt>
<trkpt lat="46.94481854" lon="6.81058726"><ele></ele><time>2014-6-6T17:31:12Z</time></trkpt>
<trkpt lat="46.94451369" lon="6.81082338"><ele></ele><time>2014-6-6T17:31:15Z</time></trkpt>
<trkpt lat="46.94446198" lon="6.81087602"><ele></ele><time>2014-6-6T17:31:18Z</time></trkpt>
<trkpt lat="46.94424162" lon="6.81112153"><ele></ele><time>2014-6-6T17:31:21Z</time></trkpt>
<trkpt lat="46.94409896" lon="6.81117676"><ele></ele><time>2014-6-6T17:31:24Z</time></trkpt>
<trkpt lat="46.94385152" lon="6.81117903"><ele></ele><time>2014-6-6T17:31:27Z</time></trkpt>
<trkpt lat="46.94360333" lon="6.81159083"><ele></ele><time>2014-6-6T17:31:30Z</time></trkpt>
<trkpt lat="46.94360233" lon="6.81169577"><ele></ele><time>2014-6-6T17:31:33Z</time></trkpt>
<trkpt lat="46.94355698" lon="6.81233129"><ele></ele><time>2014-6-6T17:31:36Z</time></trkpt>
<trkpt lat="46.94350309" lon="6.81279925"><ele></ele><time>2014-6-6T17:31:39Z</time></trkpt>
<trkpt lat="46.94346067" lon="6.81328800"><ele></ele><time>2014-6-6T17:31:42Z</time></trkpt>
<trkpt lat="46.94341600" lon="6.81379032"><ele></ele><time>2014-6-6T17:31:45Z</time></trkpt>
<trkpt lat="46.94337258" lon="6.81439466"><ele></ele><time>2014-6-6T17:31:48Z</time></trkpt>
<trkpt lat="46.94332967" lon="6.81493940"><ele></ele><time>2014-6-6T17:31:51Z</time></trkpt>
<trkpt lat="46.94331625" lon="6.81504442"><ele></ele><time>2014-6-6T17:31:54Z</time></trkpt>
<trkpt lat="46.94329932" lon="6.81538699"><ele></ele><time>2014-6-6T17:31:57Z</time></trkpt>
<trkpt lat="46.94326948" lon="6.81572948"><ele></ele><time>2014-6-6T17:32:0Z</time></trkpt>
<trkpt lat="46.94323185" lon="6.81615519"><ele></ele><time>2014-6-6T17:32:3Z</time></trkpt>
<trkpt lat="46.94322137" lon="6.81627254"><ele></ele><time>2014-6-6T17:32:6Z</time></trkpt>
<trkpt lat="46.94319572" lon="6.81664176"><ele></ele><time>2014-6-6T17:32:9Z</time></trkpt>
<trkpt lat="46.94313956" lon="6.81730653"><ele></ele><time>2014-6-6T17:32:12Z</time></trkpt>
<trkpt lat="46.94304896" lon="6.81797616"><ele></ele><time>2014-6-6T17:32:15Z</time></trkpt>
<trkpt lat="46.94293312" lon="6.81860556"><ele></ele><time>2014-6-6T17:32:18Z</time></trkpt>
<trkpt lat="46.94309003" lon="6.81902499"><ele></ele><time>2014-6-6T17:32:21Z</time></trkpt>
<trkpt lat="46.94379553" lon="6.81942808"><ele></ele><time>2014-6-6T17:32:24Z</time></trkpt>
<trkpt lat="46.94497855" lon="6.82010894"><ele></ele><time>2014-6-6T17:32:27Z</time></trkpt>
<trkpt lat="46.94524837" lon="6.82026736"><ele></ele><time>2014-6-6T17:32:30Z</time></trkpt>
<trkpt lat="46.94563896" lon="6.82060657"><ele></ele><time>2014-6-6T17:32:33Z</time></trkpt>
<trkpt lat="46.94620214" lon="6.82113656"><ele></ele><time>2014-6-6T17:32:36Z</time></trkpt>
<trkpt lat="46.94692877" lon="6.82146664"><ele></ele><time>2014-6-6T17:32:39Z</time></trkpt>
<trkpt lat="46.94758625" lon="6.82138257"><ele></ele><time>2014-6-6T17:32:42Z</time></trkpt>
<trkpt lat="46.94814364" lon="6.82104226"><ele></ele><time>2014-6-6T17:32:45Z</time></trkpt>
<trkpt lat="46.94865226" lon="6.82047548"><ele></ele><time>2014-6-6T17:32:48Z</time></trkpt>
<trkpt lat="46.94912852" lon="6.81990249"><ele></ele><time>2014-6-6T17:32:51Z</time></trkpt>
<trkpt lat="46.94962850" lon="6.81992152"><ele></ele><time>2014-6-6T17:32:54Z</time></trkpt>
<trkpt lat="46.95033216" lon="6.82040767"><ele></ele><time>2014-6-6T17:32:57Z</time></trkpt>
<trkpt lat="46.95104060" lon="6.82061562"><ele></ele><time>2014-6-6T17:33:0Z</time></trkpt>
<trkpt lat="46.95197015" lon="6.82066189"><ele></ele><time>2014-6-6T17:33:3Z</time></trkpt>
<trkpt lat="46.95226134" lon="6.82068964"><ele></ele><time>2014-6-6T17:33:6Z</time></trkpt>
<trkpt lat="46.95261489" lon="6.82079064"><ele></ele><time>2014-6-6T17:33:9Z</time></trkpt>
<trkpt lat="46.95269309" lon="6.82083196"><ele></ele><time>2014-6-6T17:33:12Z</time></trkpt>
<trkpt lat="46.95332970" lon="6.82142884"><ele></ele><time>2014-6-6T17:33:15Z</time></trkpt>
<trkpt lat="46.95408314" lon="6.82225747"><ele></ele><time>2014-6-6T17:33:18Z</time></trkpt>
<trkpt lat="46.95448380" lon="6.82293163"><ele></ele><time>2014-6-6T17:33:21Z</time></trkpt>
<trkpt lat="46.95447500" lon="6.82293003"><ele></ele><time>2014-6-6T17:33:24Z</time></trkpt>
<trkpt lat="46.95447500" lon="6.82292945"><ele></ele><time>2014-6-6T17:33:27Z</time></trkpt>
<trkpt lat="46.95447533" lon="6.82292769"><ele></ele><time>2014-6-6T17:33:30Z</time></trkpt>
<trkpt lat="46.95447542" lon="6.82292626"><ele></ele><time>2014-6-6T17:33:33Z</time></trkpt>
<trkpt lat="46.95447542" lon="6.82292526"><ele></ele><time>2014-6-6T17:33:36Z</time></trkpt>
<trkpt lat="46.95447533" lon="6.82292383"><ele></ele><time>2014-6-6T17:33:39Z</time></trkpt>
<trkpt lat="46.95447542" lon="6.82292257"><ele></ele><time>2014-6-6T17:33:42Z</time></trkpt>
<trkpt lat="46.95447575" lon="6.82292098"><ele></ele><time>2014-6-6T17:33:45Z</time></trkpt>
<trkpt lat="46.95447575" lon="6.82292040"><ele></ele><time>2014-6-6T17:33:48Z</time></trkpt>
<trkpt lat="46.95447542" lon="6.82291855"><ele></ele><time>2014-6-6T17:33:51Z</time></trkpt>
<trkpt lat="46.95447483" lon="6.82291713"><ele></ele><time>2014-6-6T17:33:54Z</time></trkpt>
<trkpt lat="46.95447793" lon="6.82292115"><ele></ele><time>2014-6-6T17:33:57Z</time></trkpt>
<trkpt lat="46.95451599" lon="6.82299608"><ele></ele><time>2014-6-6T17:34:0Z</time></trkpt>
<trkpt lat="46.95463333" lon="6.82310354"><ele></ele><time>2014-6-6T17:34:3Z</time></trkpt>
<trkpt lat="46.95486040" lon="6.82334645"><ele></ele><time>2014-6-6T17:34:6Z</time></trkpt>
<trkpt lat="46.95514237" lon="6.82370419"><ele></ele><time>2014-6-6T17:34:9Z</time></trkpt>
<trkpt lat="46.95561083" lon="6.82459678"><ele></ele><time>2014-6-6T17:34:12Z</time></trkpt>
<trkpt lat="46.95562692" lon="6.82464723"><ele></ele><time>2014-6-6T17:34:15Z</time></trkpt>
<trkpt lat="46.95562189" lon="6.82464832"><ele></ele><time>2014-6-6T17:34:18Z</time></trkpt>
<trkpt lat="46.95560329" lon="6.82461438"><ele></ele><time>2014-6-6T17:34:21Z</time></trkpt>
<trkpt lat="46.95560932" lon="6.82457750"><ele></ele><time>2014-6-6T17:34:24Z</time></trkpt>
<trkpt lat="46.95556833" lon="6.82446635"><ele></ele><time>2014-6-6T17:34:27Z</time></trkpt>
<trkpt lat="46.95523239" lon="6.82384559"><ele></ele><time>2014-6-6T17:34:30Z</time></trkpt>
<trkpt lat="46.95480944" lon="6.82329817"><ele></ele><time>2014-6-6T17:34:33Z</time></trkpt>
<trkpt lat="46.95458053" lon="6.82305836"><ele></ele><time>2014-6-6T17:34:36Z</time></trkpt>
<trkpt lat="46.95448489" lon="6.82303573"><ele></ele><time>2014-6-6T17:34:39Z</time></trkpt>
<trkpt lat="46.95420158" lon="6.82344879"><ele></ele><time>2014-6-6T17:34:42Z</time></trkpt>
<trkpt lat="46.95412187" lon="6.82383059"><ele></ele><time>2014-6-6T17:34:45Z</time></trkpt>
<trkpt lat="46.95441532" lon="6.82408699"><ele></ele><time>2014-6-6T17:34:48Z</time></trkpt>
<trkpt lat="46.95478387" lon="6.82430735"><ele></ele><time>2014-6-6T17:34:51Z</time></trkpt>
<trkpt lat="46.95488772" lon="6.82436292"><ele></ele><time>2014-6-6T17:34:54Z</time></trkpt>
<trkpt lat="46.95523038" lon="6.82461740"><ele></ele><time>2014-6-6T17:34:57Z</time></trkpt>
<trkpt lat="46.95571032" lon="6.82512576"><ele></ele><time>2014-6-6T17:35:0Z</time></trkpt>
<trkpt lat="46.95578249" lon="6.82536288"><ele></ele><time>2014-6-6T17:35:3Z</time></trkpt>
<trkpt lat="46.95581099" lon="6.82578005"><ele></ele><time>2014-6-6T17:35:6Z</time></trkpt>
<trkpt lat="46.95584586" lon="6.82606554"><ele></ele><time>2014-6-6T17:35:9Z</time></trkpt>
<trkpt lat="46.95587503" lon="6.82645513"><ele></ele><time>2014-6-6T17:35:12Z</time></trkpt>
<trkpt lat="46.95588819" lon="6.82672603"><ele></ele><time>2014-6-6T17:35:15Z</time></trkpt>
<trkpt lat="46.95597737" lon="6.82705318"><ele></ele><time>2014-6-6T17:35:18Z</time></trkpt>
<trkpt lat="46.95614392" lon="6.82763974"><ele></ele><time>2014-6-6T17:35:21Z</time></trkpt>
<trkpt lat="46.95623377" lon="6.82816814"><ele></ele><time>2014-6-6T17:35:24Z</time></trkpt>
<trkpt lat="46.95625104" lon="6.82825992"><ele></ele><time>2014-6-6T17:35:27Z</time></trkpt>
<trkpt lat="46.95634726" lon="6.82849528"><ele></ele><time>2014-6-6T17:35:30Z</time></trkpt>
<trkpt lat="46.95642069" lon="6.82863392"><ele></ele><time>2014-6-6T17:35:33Z</time></trkpt>
<trkpt lat="46.95644248" lon="6.82901186"><ele></ele><time>2014-6-6T17:35:36Z</time></trkpt>
<trkpt lat="46.95631902" lon="6.82920087"><ele></ele><time>2014-6-6T17:35:39Z</time></trkpt>
<trkpt lat="46.95626110" lon="6.82928234"><ele></ele><time>2014-6-6T17:35:42Z</time></trkpt>
<trkpt lat="46.95639194" lon="6.82970186"><ele></ele><time>2014-6-6T17:35:45Z</time></trkpt>
<trkpt lat="46.95642614" lon="6.82979196"><ele></ele><time>2014-6-6T17:35:48Z</time></trkpt>
<trkpt lat="46.95647165" lon="6.83014015"><ele></ele><time>2014-6-6T17:35:51Z</time></trkpt>
<trkpt lat="46.95647366" lon="6.83037316"><ele></ele><time>2014-6-6T17:35:54Z</time></trkpt>
<trkpt lat="46.95622606" lon="6.83074063"><ele></ele><time>2014-6-6T17:35:57Z</time></trkpt>
<trkpt lat="46.95616454" lon="6.83084817"><ele></ele><time>2014-6-6T17:36:0Z</time></trkpt>
<trkpt lat="46.95601576" lon="6.83118822"><ele></ele><time>2014-6-6T17:36:3Z</time></trkpt>
<trkpt lat="46.95544495" lon="6.83139207"><ele></ele><time>2014-6-6T17:36:6Z</time></trkpt>
<trkpt lat="46.95542274" lon="6.83140984"><ele></ele><time>2014-6-6T17:36:9Z</time></trkpt>
<trkpt lat="46.95538888" lon="6.83146809"><ele></ele><time>2014-6-6T17:36:12Z</time></trkpt>
<trkpt lat="46.95538946" lon="6.83150405"><ele></ele><time>2014-6-6T17:36:15Z</time></trkpt>
<trkpt lat="46.95563857" lon="6.83162794"><ele></ele><time>2014-6-6T17:36:18Z</time></trkpt>
<trkpt lat="46.95583236" lon="6.83188266"><ele></ele><time>2014-6-6T17:36:21Z</time></trkpt>
<trkpt lat="46.95608818" lon="6.83218332"><ele></ele><time>2014-6-6T17:36:24Z</time></trkpt>
<trkpt lat="46.95611567" lon="6.83221442"><ele></ele><time>2014-6-6T17:36:27Z</time></trkpt>
<trkpt lat="46.95639839" lon="6.83232657"><ele></ele><time>2014-6-6T17:36:30Z</time></trkpt>
<trkpt lat="46.95668916" lon="6.83232682"><ele></ele><time>2014-6-6T17:36:33Z</time></trkpt>
<trkpt lat="46.95693157" lon="6.83230989"><ele></ele><time>2014-6-6T17:36:36Z</time></trkpt>
<trkpt lat="46.95720096" lon="6.83229446"><ele></ele><time>2014-6-6T17:36:39Z</time></trkpt>
<trkpt lat="46.95749718" lon="6.83235674"><ele></ele><time>2014-6-6T17:36:42Z</time></trkpt>
<trkpt lat="46.95773103" lon="6.83246755"><ele></ele><time>2014-6-6T17:36:45Z</time></trkpt>
<trkpt lat="46.95795617" lon="6.83262932"><ele></ele><time>2014-6-6T17:36:48Z</time></trkpt>
<trkpt lat="46.95805659" lon="6.83275966"><ele></ele><time>2014-6-6T17:36:51Z</time></trkpt>
<trkpt lat="46.95834409" lon="6.83317146"><ele></ele><time>2014-6-6T17:36:54Z</time></trkpt>
<trkpt lat="46.95873527" lon="6.83382886"><ele></ele><time>2014-6-6T17:36:57Z</time></trkpt>
<trkpt lat="46.95877056" lon="6.83389289"><ele></ele><time>2014-6-6T17:37:0Z</time></trkpt>
<trkpt lat="46.95896200" lon="6.83403807"><ele></ele><time>2014-6-6T17:37:3Z</time></trkpt>
<trkpt lat="46.95909804" lon="6.83408090"><ele></ele><time>2014-6-6T17:37:6Z</time></trkpt>
<trkpt lat="46.95911053" lon="6.83408048"><ele></ele><time>2014-6-6T17:37:9Z</time></trkpt>
<trkpt lat="46.95910248" lon="6.83408903"><ele></ele><time>2014-6-6T17:37:12Z</time></trkpt>
<trkpt lat="46.95910273" lon="6.83408987"><ele></ele><time>2014-6-6T17:37:15Z</time></trkpt>
<trkpt lat="46.95909452" lon="6.83408509"><ele></ele><time>2014-6-6T17:37:18Z</time></trkpt>
</trkseg></trk></gpx>